PWSweather.com
Personal Weather Stations
Station Observations
GHWX1
Golden Heights, Sturgeon County, AB T0A1N5

Golden HeightsSturgeon County, AB T0A1N5

Lat: 53.919, Lon: -113.37

Elevation: 2159

Station Type:

http://www.ghwx.ca

High Low Average
Temperature -2.4°F-19.1°C -24.5°F-31.4°C -11.4°F-24.1°C
Dew Point -5.6°F-20.9°C -28.7°F-33.7°C -17.7°F-27.6°C
Winds 13.0 mph 20.9 kmh Calm Calm 5.0 mph WSW8.0 kmh WSW
Wind Gusts -- -- --
Humidity 90% 56% 73%
Pressure 30.59 in1035.9 mb 30.17 in1021.7 mb -
Precipitation 0.00 in0.0 mm - -
Hour Temp Dew Point Humidity Winds Wind Gusts Pressure Precip Precip Rate Daily Precip Total
12:00 AM -4.5°F-20.3°C -7.9°F-22.2°C 85% 2.0 mph NW3.2 kmh NW -- 30.14 in1020.7 mb 0.00 in0.0 mm 0.00 in0.0 mm 0.00 in0.0 mm
12:01 AM -4.6°F-20.3°C -7.9°F-22.2°C 85% 3.0 mph WNW4.8 kmh WNW -- 30.14 in1020.7 mb 0.00 in0.0 mm 0.00 in0.0 mm 0.00 in0.0 mm
12:02 AM -4.6°F-20.3°C -7.9°F-22.2°C 85% 2.0 mph WNW3.2 kmh WNW -- 30.14 in1020.7 mb 0.00 in0.0 mm 0.00 in0.0 mm 0.00 in0.0 mm
12:03 AM -4.6°F-20.3°C -7.9°F-22.2°C 85% 3.0 mph NW4.8 kmh NW -- 30.14 in1020.7 mb 0.00 in0.0 mm 0.00 in0.0 mm 0.00 in0.0 mm
12:05 AM -4.6°F-20.3°C -7.9°F-22.2°C 85% 3.0 mph NNW4.8 kmh NNW -- 30.15 in1021.0 mb 0.00 in0.0 mm 0.00 in0.0 mm 0.00 in0.0 mm
12:06 AM -4.6°F-20.3°C -7.9°F-22.2°C 85% 2.0 mph WNW3.2 kmh WNW -- 30.14 in1020.7 mb 0.00 in0.0 mm 0.00 in0.0 mm 0.00 in0.0 mm
12:07 AM -4.6°F-20.3°C -7.7°F-22.1°C 86% 3.0 mph NW4.8 kmh NW -- 30.14 in1020.7 mb 0.00 in0.0 mm 0.00 in0.0 mm 0.00 in0.0 mm
12:08 AM -4.6°F-20.3°C -7.7°F-22.1°C 86% 2.0 mph NW3.2 kmh NW -- 30.14 in1020.7 mb 0.00 in0.0 mm 0.00 in0.0 mm 0.00 in0.0 mm
12:09 AM -4.6°F-20.3°C -7.7°F-22.1°C 86% 1.0 mph W1.6 kmh W -- 30.14 in1020.7 mb 0.00 in0.0 mm 0.00 in0.0 mm 0.00 in0.0 mm
12:10 AM -4.6°F-20.3°C -7.7°F-22.1°C 86% Calm Calm -- 30.14 in1020.7 mb 0.00 in0.0 mm 0.00 in0.0 mm 0.00 in0.0 mm
12:11 AM -4.6°F-20.3°C -7.7°F-22.1°C 86% 1.0 mph W1.6 kmh W -- 30.14 in1020.7 mb 0.00 in0.0 mm 0.00 in0.0 mm 0.00 in0.0 mm
12:12 AM -4.6°F-20.3°C -7.7°F-22.1°C 86% 2.0 mph WNW3.2 kmh WNW -- 30.14 in1020.7 mb 0.00 in0.0 mm 0.00 in0.0 mm 0.00 in0.0 mm
12:13 AM -4.9°F-20.5°C -8.0°F-22.2°C 86% 2.0 mph W3.2 kmh W -- 30.14 in1020.7 mb 0.00 in0.0 mm 0.00 in0.0 mm 0.00 in0.0 mm
12:14 AM -4.9°F-20.5°C -8.0°F-22.2°C 86% 2.0 mph WNW3.2 kmh WNW -- 30.14 in1020.7 mb 0.00 in0.0 mm 0.00 in0.0 mm 0.00 in0.0 mm
12:15 AM -4.9°F-20.5°C -8.0°F-22.2°C 86% 2.0 mph W3.2 kmh W -- 30.14 in1020.7 mb 0.00 in0.0 mm 0.00 in0.0 mm 0.00 in0.0 mm
12:16 AM -5.0°F-20.6°C -8.2°F-22.3°C 86% 1.0 mph WNW1.6 kmh WNW -- 30.14 in1020.7 mb 0.00 in0.0 mm 0.00 in0.0 mm 0.00 in0.0 mm
12:17 AM -5.0°F-20.6°C -8.2°F-22.3°C 86% 1.0 mph NW1.6 kmh NW -- 30.14 in1020.7 mb 0.00 in0.0 mm 0.00 in0.0 mm 0.00 in0.0 mm
12:18 AM -5.3°F-20.7°C -8.4°F-22.4°C 86% 2.0 mph WNW3.2 kmh WNW -- 30.14 in1020.7 mb 0.00 in0.0 mm 0.00 in0.0 mm 0.00 in0.0 mm
12:19 AM -5.4°F-20.8°C -8.6°F-22.6°C 86% 1.0 mph WNW1.6 kmh WNW -- 30.14 in1020.7 mb 0.00 in0.0 mm 0.00 in0.0 mm 0.00 in0.0 mm
12:20 AM -5.4°F-20.8°C -8.6°F-22.6°C 86% 2.0 mph W3.2 kmh W -- 30.15 in1021.0 mb 0.00 in0.0 mm 0.00 in0.0 mm 0.00 in0.0 mm
12:21 AM -5.5°F-20.8°C -8.6°F-22.6°C 86% 2.0 mph WNW3.2 kmh WNW -- 30.15 in1021.0 mb 0.00 in0.0 mm 0.00 in0.0 mm 0.00 in0.0 mm
12:22 AM -5.5°F-20.8°C -8.6°F-22.6°C 86% 3.0 mph NW4.8 kmh NW -- 30.15 in1021.0 mb 0.00 in0.0 mm 0.00 in0.0 mm 0.00 in0.0 mm
12:24 AM -5.5°F-20.8°C -8.6°F-22.6°C 86% 2.0 mph NNW3.2 kmh NNW -- 30.15 in1021.0 mb 0.00 in0.0 mm 0.00 in0.0 mm 0.00 in0.0 mm
12:25 AM -5.5°F-20.8°C -8.1°F-22.3°C 88% 2.0 mph WNW3.2 kmh WNW -- 30.15 in1021.0 mb 0.00 in0.0 mm 0.00 in0.0 mm 0.00 in0.0 mm
12:26 AM -5.5°F-20.8°C -8.1°F-22.3°C 88% 2.0 mph W3.2 kmh W -- 30.15 in1021.0 mb 0.00 in0.0 mm 0.00 in0.0 mm 0.00 in0.0 mm
12:27 AM -5.6°F-20.9°C -8.3°F-22.4°C 88% 2.0 mph WNW3.2 kmh WNW -- 30.15 in1021.0 mb 0.00 in0.0 mm 0.00 in0.0 mm 0.00 in0.0 mm
12:28 AM -5.5°F-20.8°C -8.1°F-22.3°C 88% 3.0 mph NNW4.8 kmh NNW -- 30.16 in1021.3 mb 0.00 in0.0 mm 0.00 in0.0 mm 0.00 in0.0 mm
12:29 AM -5.5°F-20.8°C -8.1°F-22.3°C 88% 4.0 mph WNW6.4 kmh WNW -- 30.15 in1021.0 mb 0.00 in0.0 mm 0.00 in0.0 mm 0.00 in0.0 mm
12:30 AM -5.5°F-20.8°C -8.1°F-22.3°C 88% 4.0 mph NW6.4 kmh NW -- 30.15 in1021.0 mb 0.00 in0.0 mm 0.00 in0.0 mm 0.00 in0.0 mm
12:31 AM -5.5°F-20.8°C -8.1°F-22.3°C 88% 2.0 mph WNW3.2 kmh WNW -- 30.16 in1021.3 mb 0.00 in0.0 mm 0.00 in0.0 mm 0.00 in0.0 mm
12:32 AM -5.5°F-20.8°C -8.1°F-22.3°C 88% 3.0 mph WNW4.8 kmh WNW -- 30.16 in1021.3 mb 0.00 in0.0 mm 0.00 in0.0 mm 0.00 in0.0 mm
12:33 AM -5.5°F-20.8°C -8.1°F-22.3°C 88% 3.0 mph NW4.8 kmh NW -- 30.15 in1021.0 mb 0.00 in0.0 mm 0.00 in0.0 mm 0.00 in0.0 mm
12:34 AM -5.5°F-20.8°C -8.1°F-22.3°C 88% 3.0 mph NW4.8 kmh NW -- 30.16 in1021.3 mb 0.00 in0.0 mm 0.00 in0.0 mm 0.00 in0.0 mm
12:35 AM -5.5°F-20.8°C -8.1°F-22.3°C 88% 3.0 mph NW4.8 kmh NW -- 30.15 in1021.0 mb 0.00 in0.0 mm 0.00 in0.0 mm 0.00 in0.0 mm
12:36 AM -5.5°F-20.8°C -8.1°F-22.3°C 88% 3.0 mph WNW4.8 kmh WNW -- 30.16 in1021.3 mb 0.00 in0.0 mm 0.00 in0.0 mm 0.00 in0.0 mm
12:37 AM -5.5°F-20.8°C -8.1°F-22.3°C 88% 2.0 mph W3.2 kmh W -- 30.16 in1021.3 mb 0.00 in0.0 mm 0.00 in0.0 mm 0.00 in0.0 mm
12:38 AM -5.5°F-20.8°C -8.1°F-22.3°C 88% 3.0 mph WNW4.8 kmh WNW -- 30.16 in1021.3 mb 0.00 in0.0 mm 0.00 in0.0 mm 0.00 in0.0 mm
12:39 AM -5.5°F-20.8°C -8.1°F-22.3°C 88% 2.0 mph W3.2 kmh W -- 30.16 in1021.3 mb 0.00 in0.0 mm 0.00 in0.0 mm 0.00 in0.0 mm
12:40 AM -5.5°F-20.8°C -8.1°F-22.3°C 88% 2.0 mph WNW3.2 kmh WNW -- 30.16 in1021.3 mb 0.00 in0.0 mm 0.00 in0.0 mm 0.00 in0.0 mm
12:42 AM -5.5°F-20.8°C -8.1°F-22.3°C 88% 2.0 mph NW3.2 kmh NW -- 30.16 in1021.3 mb 0.00 in0.0 mm 0.00 in0.0 mm 0.00 in0.0 mm
12:43 AM -5.5°F-20.8°C -8.1°F-22.3°C 88% 2.0 mph WNW3.2 kmh WNW -- 30.16 in1021.3 mb 0.00 in0.0 mm 0.00 in0.0 mm 0.00 in0.0 mm
12:44 AM -5.5°F-20.8°C -8.1°F-22.3°C 88% 1.0 mph WNW1.6 kmh WNW -- 30.17 in1021.7 mb 0.00 in0.0 mm 0.00 in0.0 mm 0.00 in0.0 mm
12:45 AM -5.8°F-21.0°C -8.5°F-22.5°C 88% 2.0 mph WNW3.2 kmh WNW -- 30.17 in1021.7 mb 0.00 in0.0 mm 0.00 in0.0 mm 0.00 in0.0 mm
12:46 AM -5.8°F-21.0°C -8.5°F-22.5°C 88% 2.0 mph NW3.2 kmh NW -- 30.17 in1021.7 mb 0.00 in0.0 mm 0.00 in0.0 mm 0.00 in0.0 mm
12:47 AM -5.8°F-21.0°C -8.5°F-22.5°C 88% 1.0 mph WNW1.6 kmh WNW -- 30.17 in1021.7 mb 0.00 in0.0 mm 0.00 in0.0 mm 0.00 in0.0 mm
12:48 AM -5.8°F-21.0°C -8.5°F-22.5°C 88% 2.0 mph WNW3.2 kmh WNW -- 30.17 in1021.7 mb 0.00 in0.0 mm 0.00 in0.0 mm 0.00 in0.0 mm
12:49 AM -6.0°F-21.1°C -8.6°F-22.6°C 88% 1.0 mph WNW1.6 kmh WNW -- 30.17 in1021.7 mb 0.00 in0.0 mm 0.00 in0.0 mm 0.00 in0.0 mm
12:51 AM -6.0°F-21.1°C -8.6°F-22.6°C 88% 3.0 mph WNW4.8 kmh WNW -- 30.17 in1021.7 mb 0.00 in0.0 mm 0.00 in0.0 mm 0.00 in0.0 mm
12:52 AM -6.0°F-21.1°C -8.6°F-22.6°C 88% 2.0 mph NW3.2 kmh NW -- 30.17 in1021.7 mb 0.00 in0.0 mm 0.00 in0.0 mm 0.00 in0.0 mm
12:53 AM -6.0°F-21.1°C -8.6°F-22.6°C 88% 2.0 mph WNW3.2 kmh WNW -- 30.17 in1021.7 mb 0.00 in0.0 mm 0.00 in0.0 mm 0.00 in0.0 mm
12:55 AM -6.0°F-21.1°C -8.6°F-22.6°C 88% 2.0 mph W3.2 kmh W -- 30.17 in1021.7 mb 0.00 in0.0 mm 0.00 in0.0 mm 0.00 in0.0 mm
12:56 AM -6.0°F-21.1°C -8.6°F-22.6°C 88% 2.0 mph NW3.2 kmh NW -- 30.17 in1021.7 mb 0.00 in0.0 mm 0.00 in0.0 mm 0.00 in0.0 mm
12:57 AM -6.0°F-21.1°C -8.6°F-22.6°C 88% 2.0 mph WNW3.2 kmh WNW -- 30.17 in1021.7 mb 0.00 in0.0 mm 0.00 in0.0 mm 0.00 in0.0 mm
12:58 AM -6.0°F-21.1°C -8.6°F-22.6°C 88% 3.0 mph W4.8 kmh W -- 30.17 in1021.7 mb 0.00 in0.0 mm 0.00 in0.0 mm 0.00 in0.0 mm
12:59 AM -6.0°F-21.1°C -8.6°F-22.6°C 88% 2.0 mph WNW3.2 kmh WNW -- 30.18 in1022.0 mb 0.00 in0.0 mm 0.00 in0.0 mm 0.00 in0.0 mm
01:00 AM -5.8°F-21.0°C -8.5°F-22.5°C 88% 2.0 mph NW3.2 kmh NW -- 30.17 in1021.7 mb 0.00 in0.0 mm 0.00 in0.0 mm 0.00 in0.0 mm
01:02 AM -5.8°F-21.0°C -8.5°F-22.5°C 88% 1.0 mph W1.6 kmh W -- 30.17 in1021.7 mb 0.00 in0.0 mm 0.00 in0.0 mm 0.00 in0.0 mm
01:03 AM -5.5°F-20.8°C -8.1°F-22.3°C 88% 3.0 mph WNW4.8 kmh WNW -- 30.17 in1021.7 mb 0.00 in0.0 mm 0.00 in0.0 mm 0.00 in0.0 mm
01:04 AM -5.5°F-20.8°C -8.1°F-22.3°C 88% 2.0 mph NW3.2 kmh NW -- 30.17 in1021.7 mb 0.00 in0.0 mm 0.00 in0.0 mm 0.00 in0.0 mm
01:05 AM -5.5°F-20.8°C -8.1°F-22.3°C 88% 3.0 mph WNW4.8 kmh WNW -- 30.18 in1022.0 mb 0.00 in0.0 mm 0.00 in0.0 mm 0.00 in0.0 mm
01:06 AM -5.4°F-20.8°C -8.1°F-22.3°C 88% 2.0 mph WNW3.2 kmh WNW -- 30.18 in1022.0 mb 0.00 in0.0 mm 0.00 in0.0 mm 0.00 in0.0 mm
01:08 AM -5.4°F-20.8°C -8.1°F-22.3°C 88% 3.0 mph WNW4.8 kmh WNW -- 30.17 in1021.7 mb 0.00 in0.0 mm 0.00 in0.0 mm 0.00 in0.0 mm
01:09 AM -5.3°F-20.7°C -7.9°F-22.2°C 88% 2.0 mph W3.2 kmh W -- 30.17 in1021.7 mb 0.00 in0.0 mm 0.00 in0.0 mm 0.00 in0.0 mm
01:10 AM -5.3°F-20.7°C -7.9°F-22.2°C 88% 1.0 mph WNW1.6 kmh WNW -- 30.18 in1022.0 mb 0.00 in0.0 mm 0.00 in0.0 mm 0.00 in0.0 mm
01:11 AM -5.3°F-20.7°C -7.9°F-22.2°C 88% 2.0 mph WNW3.2 kmh WNW -- 30.18 in1022.0 mb 0.00 in0.0 mm 0.00 in0.0 mm 0.00 in0.0 mm
01:12 AM -5.0°F-20.6°C -7.7°F-22.1°C 88% 2.0 mph WNW3.2 kmh WNW -- 30.18 in1022.0 mb 0.00 in0.0 mm 0.00 in0.0 mm 0.00 in0.0 mm
01:13 AM -5.0°F-20.6°C -7.7°F-22.1°C 88% 3.0 mph WNW4.8 kmh WNW -- 30.18 in1022.0 mb 0.00 in0.0 mm 0.00 in0.0 mm 0.00 in0.0 mm
01:14 AM -4.9°F-20.5°C -7.6°F-22.0°C 88% 2.0 mph WNW3.2 kmh WNW -- 30.19 in1022.4 mb 0.00 in0.0 mm 0.00 in0.0 mm 0.00 in0.0 mm
01:15 AM -4.9°F-20.5°C -7.6°F-22.0°C 88% 3.0 mph WNW4.8 kmh WNW -- 30.18 in1022.0 mb 0.00 in0.0 mm 0.00 in0.0 mm 0.00 in0.0 mm
01:16 AM -4.6°F-20.3°C -7.2°F-21.8°C 88% 3.0 mph WNW4.8 kmh WNW -- 30.18 in1022.0 mb 0.00 in0.0 mm 0.00 in0.0 mm 0.00 in0.0 mm
01:17 AM -4.5°F-20.3°C -7.2°F-21.8°C 88% 3.0 mph NNW4.8 kmh NNW -- 30.18 in1022.0 mb 0.00 in0.0 mm 0.00 in0.0 mm 0.00 in0.0 mm
01:18 AM -4.5°F-20.3°C -7.2°F-21.8°C 88% 8.0 mph NNW12.9 kmh NNW -- 30.18 in1022.0 mb 0.00 in0.0 mm 0.00 in0.0 mm 0.00 in0.0 mm
01:19 AM -4.4°F-20.2°C -6.6°F-21.4°C 90% 3.0 mph NW4.8 kmh NW -- 30.18 in1022.0 mb 0.00 in0.0 mm 0.00 in0.0 mm 0.00 in0.0 mm
01:20 AM -4.1°F-20.1°C -6.4°F-21.3°C 90% 6.0 mph NNW9.7 kmh NNW -- 30.18 in1022.0 mb 0.00 in0.0 mm 0.00 in0.0 mm 0.00 in0.0 mm
01:21 AM -3.7°F-19.8°C -5.9°F-21.1°C 90% 4.0 mph NW6.4 kmh NW -- 30.19 in1022.4 mb 0.00 in0.0 mm 0.00 in0.0 mm 0.00 in0.0 mm
01:22 AM -3.7°F-19.8°C -5.9°F-21.1°C 90% 6.0 mph NW9.7 kmh NW -- 30.19 in1022.4 mb 0.00 in0.0 mm 0.00 in0.0 mm 0.00 in0.0 mm
01:23 AM -3.5°F-19.7°C -5.7°F-20.9°C 90% 5.0 mph NW8.0 kmh NW -- 30.19 in1022.4 mb 0.00 in0.0 mm 0.00 in0.0 mm 0.00 in0.0 mm
01:24 AM -3.5°F-19.7°C -5.7°F-20.9°C 90% 6.0 mph NNW9.7 kmh NNW -- 30.19 in1022.4 mb 0.00 in0.0 mm 0.00 in0.0 mm 0.00 in0.0 mm
01:25 AM -3.5°F-19.7°C -5.7°F-20.9°C 90% 4.0 mph NW6.4 kmh NW -- 30.19 in1022.4 mb 0.00 in0.0 mm 0.00 in0.0 mm 0.00 in0.0 mm
01:26 AM -3.5°F-19.7°C -5.7°F-20.9°C 90% 5.0 mph NW8.0 kmh NW -- 30.19 in1022.4 mb 0.00 in0.0 mm 0.00 in0.0 mm 0.00 in0.0 mm
01:27 AM -3.5°F-19.7°C -6.1°F-21.2°C 88% 4.0 mph NW6.4 kmh NW -- 30.19 in1022.4 mb 0.00 in0.0 mm 0.00 in0.0 mm 0.00 in0.0 mm
01:28 AM -3.5°F-19.7°C -6.1°F-21.2°C 88% 4.0 mph NW6.4 kmh NW -- 30.20 in1022.7 mb 0.00 in0.0 mm 0.00 in0.0 mm 0.00 in0.0 mm
01:30 AM -3.5°F-19.7°C -6.1°F-21.2°C 88% 4.0 mph WNW6.4 kmh WNW -- 30.20 in1022.7 mb 0.00 in0.0 mm 0.00 in0.0 mm 0.00 in0.0 mm
01:31 AM -3.5°F-19.7°C -6.1°F-21.2°C 88% 4.0 mph NNW6.4 kmh NNW -- 30.20 in1022.7 mb 0.00 in0.0 mm 0.00 in0.0 mm 0.00 in0.0 mm
01:32 AM -3.5°F-19.7°C -6.1°F-21.2°C 88% 6.0 mph 9.7 kmh -- 30.20 in1022.7 mb 0.00 in0.0 mm 0.00 in0.0 mm 0.00 in0.0 mm
01:33 AM -3.5°F-19.7°C -6.1°F-21.2°C 88% 4.0 mph NW6.4 kmh NW -- 30.20 in1022.7 mb 0.00 in0.0 mm 0.00 in0.0 mm 0.00 in0.0 mm
01:34 AM -3.5°F-19.7°C -6.1°F-21.2°C 88% 7.0 mph 11.3 kmh -- 30.20 in1022.7 mb 0.00 in0.0 mm 0.00 in0.0 mm 0.00 in0.0 mm
01:35 AM -3.5°F-19.7°C -6.1°F-21.2°C 88% 5.0 mph WNW8.0 kmh WNW -- 30.20 in1022.7 mb 0.00 in0.0 mm 0.00 in0.0 mm 0.00 in0.0 mm
01:36 AM -3.5°F-19.7°C -6.1°F-21.2°C 88% 5.0 mph NNW8.0 kmh NNW -- 30.20 in1022.7 mb 0.00 in0.0 mm 0.00 in0.0 mm 0.00 in0.0 mm
01:37 AM -3.5°F-19.7°C -6.1°F-21.2°C 88% 5.0 mph WNW8.0 kmh WNW -- 30.20 in1022.7 mb 0.00 in0.0 mm 0.00 in0.0 mm 0.00 in0.0 mm
01:38 AM -3.5°F-19.7°C -6.1°F-21.2°C 88% 6.0 mph NW9.7 kmh NW -- 30.20 in1022.7 mb 0.00 in0.0 mm 0.00 in0.0 mm 0.00 in0.0 mm
01:39 AM -3.2°F-19.6°C -6.0°F-21.1°C 88% 4.0 mph NNE6.4 kmh NNE -- 30.20 in1022.7 mb 0.00 in0.0 mm 0.00 in0.0 mm 0.00 in0.0 mm
01:40 AM -3.2°F-19.6°C -6.0°F-21.1°C 88% 4.0 mph NNW6.4 kmh NNW -- 30.20 in1022.7 mb 0.00 in0.0 mm 0.00 in0.0 mm 0.00 in0.0 mm
01:41 AM -3.0°F-19.4°C -5.6°F-20.9°C 88% 6.0 mph 9.7 kmh -- 30.21 in1023.0 mb 0.00 in0.0 mm 0.00 in0.0 mm 0.00 in0.0 mm
01:42 AM -3.0°F-19.4°C -5.6°F-20.9°C 88% 4.0 mph NNW6.4 kmh NNW -- 30.21 in1023.0 mb 0.00 in0.0 mm 0.00 in0.0 mm 0.00 in0.0 mm
01:44 AM -3.0°F-19.4°C -5.6°F-20.9°C 88% 6.0 mph NW9.7 kmh NW -- 30.21 in1023.0 mb 0.00 in0.0 mm 0.00 in0.0 mm 0.00 in0.0 mm
01:45 AM -3.0°F-19.4°C -5.6°F-20.9°C 88% 8.0 mph NNE12.9 kmh NNE -- 30.21 in1023.0 mb 0.00 in0.0 mm 0.00 in0.0 mm 0.00 in0.0 mm
01:46 AM -2.9°F-19.4°C -5.6°F-20.9°C 88% 5.0 mph NW8.0 kmh NW -- 30.21 in1023.0 mb 0.00 in0.0 mm 0.00 in0.0 mm 0.00 in0.0 mm
01:47 AM -2.9°F-19.4°C -5.6°F-20.9°C 88% 5.0 mph NNE8.0 kmh NNE -- 30.21 in1023.0 mb 0.00 in0.0 mm 0.00 in0.0 mm 0.00 in0.0 mm
01:48 AM -2.9°F-19.4°C -6.1°F-21.2°C 86% 5.0 mph 8.0 kmh -- 30.21 in1023.0 mb 0.00 in0.0 mm 0.00 in0.0 mm 0.00 in0.0 mm
01:49 AM -2.9°F-19.4°C -6.1°F-21.2°C 86% 5.0 mph NNE8.0 kmh NNE -- 30.21 in1023.0 mb 0.00 in0.0 mm 0.00 in0.0 mm 0.00 in0.0 mm
01:50 AM -2.9°F-19.4°C -6.3°F-21.3°C 85% 9.0 mph NE14.5 kmh NE -- 30.21 in1023.0 mb 0.00 in0.0 mm 0.00 in0.0 mm 0.00 in0.0 mm
01:51 AM -2.7°F-19.3°C -6.7°F-21.5°C 83% 11.0 mph ENE17.7 kmh ENE -- 30.21 in1023.0 mb 0.00 in0.0 mm 0.00 in0.0 mm 0.00 in0.0 mm
01:52 AM -2.7°F-19.3°C -6.7°F-21.5°C 83% 7.0 mph NE11.3 kmh NE -- 30.21 in1023.0 mb 0.00 in0.0 mm 0.00 in0.0 mm 0.00 in0.0 mm
01:53 AM -2.5°F-19.2°C -6.5°F-21.4°C 83% 8.0 mph 12.9 kmh -- 30.21 in1023.0 mb 0.00 in0.0 mm 0.00 in0.0 mm 0.00 in0.0 mm
01:54 AM -2.5°F-19.2°C -7.0°F-21.7°C 81% 7.0 mph NNW11.3 kmh NNW -- 30.21 in1023.0 mb 0.00 in0.0 mm 0.00 in0.0 mm 0.00 in0.0 mm
01:55 AM -2.5°F-19.2°C -7.0°F-21.7°C 81% 9.0 mph NNE14.5 kmh NNE -- 30.21 in1023.0 mb 0.00 in0.0 mm 0.00 in0.0 mm 0.00 in0.0 mm
01:56 AM -2.5°F-19.2°C -7.0°F-21.7°C 81% 10.0 mph NNE16.1 kmh NNE -- 30.21 in1023.0 mb 0.00 in0.0 mm 0.00 in0.0 mm 0.00 in0.0 mm
01:57 AM -2.5°F-19.2°C -7.0°F-21.7°C 81% 13.0 mph NNE20.9 kmh NNE -- 30.21 in1023.0 mb 0.00 in0.0 mm 0.00 in0.0 mm 0.00 in0.0 mm
01:58 AM -2.4°F-19.1°C -6.8°F-21.6°C 81% 9.0 mph NNE14.5 kmh NNE -- 30.21 in1023.0 mb 0.00 in0.0 mm 0.00 in0.0 mm 0.00 in0.0 mm
01:59 AM -2.4°F-19.1°C -6.8°F-21.6°C 81% 7.0 mph 11.3 kmh -- 30.21 in1023.0 mb 0.00 in0.0 mm 0.00 in0.0 mm 0.00 in0.0 mm
02:00 AM -2.4°F-19.1°C -6.8°F-21.6°C 81% 9.0 mph 14.5 kmh -- 30.21 in1023.0 mb 0.00 in0.0 mm 0.00 in0.0 mm 0.00 in0.0 mm
02:01 AM -2.4°F-19.1°C -6.8°F-21.6°C 81% 6.0 mph NNE9.7 kmh NNE -- 30.21 in1023.0 mb 0.00 in0.0 mm 0.00 in0.0 mm 0.00 in0.0 mm
02:02 AM -2.4°F-19.1°C -6.8°F-21.6°C 81% 8.0 mph NNW12.9 kmh NNW -- 30.21 in1023.0 mb 0.00 in0.0 mm 0.00 in0.0 mm 0.00 in0.0 mm
02:03 AM -2.5°F-19.2°C -7.0°F-21.7°C 81% 7.0 mph NW11.3 kmh NW -- 30.21 in1023.0 mb 0.00 in0.0 mm 0.00 in0.0 mm 0.00 in0.0 mm
02:04 AM -2.5°F-19.2°C -7.0°F-21.7°C 81% 8.0 mph NNE12.9 kmh NNE -- 30.21 in1023.0 mb 0.00 in0.0 mm 0.00 in0.0 mm 0.00 in0.0 mm
02:05 AM -2.5°F-19.2°C -7.0°F-21.7°C 81% 7.0 mph NNW11.3 kmh NNW -- 30.21 in1023.0 mb 0.00 in0.0 mm 0.00 in0.0 mm 0.00 in0.0 mm
02:06 AM -2.5°F-19.2°C -7.0°F-21.7°C 81% 8.0 mph NW12.9 kmh NW -- 30.21 in1023.0 mb 0.00 in0.0 mm 0.00 in0.0 mm 0.00 in0.0 mm
02:07 AM -2.6°F-19.2°C -6.7°F-21.5°C 82% 7.0 mph 11.3 kmh -- 30.21 in1023.0 mb 0.00 in0.0 mm 0.00 in0.0 mm 0.00 in0.0 mm
02:08 AM -2.5°F-19.2°C -7.0°F-21.7°C 81% 11.0 mph NNW17.7 kmh NNW -- 30.21 in1023.0 mb 0.00 in0.0 mm 0.00 in0.0 mm 0.00 in0.0 mm
02:09 AM -2.5°F-19.2°C -7.0°F-21.7°C 81% 9.0 mph NNW14.5 kmh NNW -- 30.21 in1023.0 mb 0.00 in0.0 mm 0.00 in0.0 mm 0.00 in0.0 mm
02:10 AM -2.5°F-19.2°C -7.0°F-21.7°C 81% 9.0 mph NNE14.5 kmh NNE -- 30.21 in1023.0 mb 0.00 in0.0 mm 0.00 in0.0 mm 0.00 in0.0 mm
02:11 AM -2.5°F-19.2°C -7.0°F-21.7°C 81% 8.0 mph NNE12.9 kmh NNE -- 30.22 in1023.4 mb 0.00 in0.0 mm 0.00 in0.0 mm 0.00 in0.0 mm
02:12 AM -2.5°F-19.2°C -7.0°F-21.7°C 81% 6.0 mph NNW9.7 kmh NNW -- 30.22 in1023.4 mb 0.00 in0.0 mm 0.00 in0.0 mm 0.00 in0.0 mm
02:13 AM -2.7°F-19.3°C -7.2°F-21.8°C 81% 11.0 mph WNW17.7 kmh WNW -- 30.22 in1023.4 mb 0.00 in0.0 mm 0.00 in0.0 mm 0.00 in0.0 mm
02:14 AM -2.7°F-19.3°C -7.2°F-21.8°C 81% 7.0 mph 11.3 kmh -- 30.22 in1023.4 mb 0.00 in0.0 mm 0.00 in0.0 mm 0.00 in0.0 mm
02:15 AM -2.7°F-19.3°C -7.2°F-21.8°C 81% 5.0 mph 8.0 kmh -- 30.22 in1023.4 mb 0.00 in0.0 mm 0.00 in0.0 mm 0.00 in0.0 mm
02:16 AM -2.7°F-19.3°C -7.2°F-21.8°C 81% 7.0 mph NW11.3 kmh NW -- 30.22 in1023.4 mb 0.00 in0.0 mm 0.00 in0.0 mm 0.00 in0.0 mm
02:17 AM -2.7°F-19.3°C -7.2°F-21.8°C 81% 6.0 mph 9.7 kmh -- 30.22 in1023.4 mb 0.00 in0.0 mm 0.00 in0.0 mm 0.00 in0.0 mm
02:18 AM -2.7°F-19.3°C -7.2°F-21.8°C 81% 4.0 mph NE6.4 kmh NE -- 30.22 in1023.4 mb 0.00 in0.0 mm 0.00 in0.0 mm 0.00 in0.0 mm
02:19 AM -2.7°F-19.3°C -7.2°F-21.8°C 81% 8.0 mph NW12.9 kmh NW -- 30.22 in1023.4 mb 0.00 in0.0 mm 0.00 in0.0 mm 0.00 in0.0 mm
02:20 AM -2.7°F-19.3°C -7.2°F-21.8°C 81% 9.0 mph NNE14.5 kmh NNE -- 30.22 in1023.4 mb 0.00 in0.0 mm 0.00 in0.0 mm 0.00 in0.0 mm
02:21 AM -2.9°F-19.4°C -7.3°F-21.8°C 81% 6.0 mph NNE9.7 kmh NNE -- 30.22 in1023.4 mb 0.00 in0.0 mm 0.00 in0.0 mm 0.00 in0.0 mm
02:22 AM -2.9°F-19.4°C -7.3°F-21.8°C 81% 7.0 mph NNE11.3 kmh NNE -- 30.22 in1023.4 mb 0.00 in0.0 mm 0.00 in0.0 mm 0.00 in0.0 mm
02:23 AM -2.9°F-19.4°C -7.6°F-22.0°C 80% 7.0 mph NNE11.3 kmh NNE -- 30.22 in1023.4 mb 0.00 in0.0 mm 0.00 in0.0 mm 0.00 in0.0 mm
02:24 AM -2.9°F-19.4°C -7.6°F-22.0°C 80% 9.0 mph NE14.5 kmh NE -- 30.22 in1023.4 mb 0.00 in0.0 mm 0.00 in0.0 mm 0.00 in0.0 mm
02:25 AM -2.9°F-19.4°C -7.6°F-22.0°C 80% 6.0 mph NNW9.7 kmh NNW -- 30.22 in1023.4 mb 0.00 in0.0 mm 0.00 in0.0 mm 0.00 in0.0 mm
02:26 AM -2.9°F-19.4°C -7.6°F-22.0°C 80% 7.0 mph 11.3 kmh -- 30.22 in1023.4 mb 0.00 in0.0 mm 0.00 in0.0 mm 0.00 in0.0 mm
02:27 AM -3.0°F-19.4°C -7.6°F-22.0°C 80% 5.0 mph NE8.0 kmh NE -- 30.23 in1023.7 mb 0.00 in0.0 mm 0.00 in0.0 mm 0.00 in0.0 mm
02:28 AM -3.0°F-19.4°C -7.6°F-22.0°C 80% 9.0 mph NNW14.5 kmh NNW -- 30.23 in1023.7 mb 0.00 in0.0 mm 0.00 in0.0 mm 0.00 in0.0 mm
02:29 AM -3.0°F-19.4°C -7.6°F-22.0°C 80% 6.0 mph 9.7 kmh -- 30.23 in1023.7 mb 0.00 in0.0 mm 0.00 in0.0 mm 0.00 in0.0 mm
02:30 AM -3.0°F-19.4°C -7.6°F-22.0°C 80% 7.0 mph NNE11.3 kmh NNE -- 30.23 in1023.7 mb 0.00 in0.0 mm 0.00 in0.0 mm 0.00 in0.0 mm
02:31 AM -3.2°F-19.6°C -8.0°F-22.2°C 80% 6.0 mph E9.7 kmh E -- 30.23 in1023.7 mb 0.00 in0.0 mm 0.00 in0.0 mm 0.00 in0.0 mm
02:32 AM -3.2°F-19.6°C -8.0°F-22.2°C 80% 8.0 mph ENE12.9 kmh ENE -- 30.23 in1023.7 mb 0.00 in0.0 mm 0.00 in0.0 mm 0.00 in0.0 mm
02:33 AM -3.2°F-19.6°C -8.0°F-22.2°C 80% 7.0 mph ENE11.3 kmh ENE -- 30.23 in1023.7 mb 0.00 in0.0 mm 0.00 in0.0 mm 0.00 in0.0 mm
02:34 AM -3.5°F-19.7°C -8.1°F-22.3°C 80% 9.0 mph ENE14.5 kmh ENE -- 30.23 in1023.7 mb 0.00 in0.0 mm 0.00 in0.0 mm 0.00 in0.0 mm
02:35 AM -3.5°F-19.7°C -8.4°F-22.4°C 79% 8.0 mph NNE12.9 kmh NNE -- 30.23 in1023.7 mb 0.00 in0.0 mm 0.00 in0.0 mm 0.00 in0.0 mm
02:36 AM -3.5°F-19.7°C -8.4°F-22.4°C 79% 7.0 mph NNE11.3 kmh NNE -- 30.23 in1023.7 mb 0.00 in0.0 mm 0.00 in0.0 mm 0.00 in0.0 mm
02:38 AM -3.5°F-19.7°C -8.4°F-22.4°C 79% 8.0 mph NNW12.9 kmh NNW -- 30.24 in1024.0 mb 0.00 in0.0 mm 0.00 in0.0 mm 0.00 in0.0 mm
02:39 AM -3.5°F-19.7°C -8.4°F-22.4°C 79% 7.0 mph NE11.3 kmh NE -- 30.24 in1024.0 mb 0.00 in0.0 mm 0.00 in0.0 mm 0.00 in0.0 mm
02:40 AM -3.5°F-19.7°C -8.4°F-22.4°C 79% 6.0 mph 9.7 kmh -- 30.24 in1024.0 mb 0.00 in0.0 mm 0.00 in0.0 mm 0.00 in0.0 mm
02:41 AM -3.5°F-19.7°C -8.4°F-22.4°C 79% 6.0 mph NNE9.7 kmh NNE -- 30.24 in1024.0 mb 0.00 in0.0 mm 0.00 in0.0 mm 0.00 in0.0 mm
02:42 AM -3.5°F-19.7°C -8.1°F-22.3°C 80% 6.0 mph NNE9.7 kmh NNE -- 30.24 in1024.0 mb 0.00 in0.0 mm 0.00 in0.0 mm 0.00 in0.0 mm
02:43 AM -3.7°F-19.8°C -8.3°F-22.4°C 80% 6.0 mph 9.7 kmh -- 30.24 in1024.0 mb 0.00 in0.0 mm 0.00 in0.0 mm 0.00 in0.0 mm
02:44 AM -3.7°F-19.8°C -8.3°F-22.4°C 80% 7.0 mph NW11.3 kmh NW -- 30.24 in1024.0 mb 0.00 in0.0 mm 0.00 in0.0 mm 0.00 in0.0 mm
02:45 AM -3.7°F-19.8°C -8.3°F-22.4°C 80% 5.0 mph NW8.0 kmh NW -- 30.24 in1024.0 mb 0.00 in0.0 mm 0.00 in0.0 mm 0.00 in0.0 mm
02:46 AM -4.0°F-20.0°C -8.7°F-22.6°C 80% 6.0 mph NNE9.7 kmh NNE -- 30.24 in1024.0 mb 0.00 in0.0 mm 0.00 in0.0 mm 0.00 in0.0 mm
02:47 AM -4.0°F-20.0°C -8.7°F-22.6°C 80% 6.0 mph NW9.7 kmh NW -- 30.24 in1024.0 mb 0.00 in0.0 mm 0.00 in0.0 mm 0.00 in0.0 mm
02:48 AM -4.0°F-20.0°C -8.4°F-22.4°C 81% 4.0 mph NW6.4 kmh NW -- 30.24 in1024.0 mb 0.00 in0.0 mm 0.00 in0.0 mm 0.00 in0.0 mm
02:49 AM -4.1°F-20.1°C -8.6°F-22.6°C 81% 8.0 mph NW12.9 kmh NW -- 30.24 in1024.0 mb 0.00 in0.0 mm 0.00 in0.0 mm 0.00 in0.0 mm
02:50 AM -4.1°F-20.1°C -8.6°F-22.6°C 81% 6.0 mph NW9.7 kmh NW -- 30.24 in1024.0 mb 0.00 in0.0 mm 0.00 in0.0 mm 0.00 in0.0 mm
02:51 AM -4.1°F-20.1°C -8.6°F-22.6°C 81% 8.0 mph 12.9 kmh -- 30.24 in1024.0 mb 0.00 in0.0 mm 0.00 in0.0 mm 0.00 in0.0 mm
02:52 AM -4.4°F-20.2°C -8.8°F-22.7°C 81% 7.0 mph NNE11.3 kmh NNE -- 30.24 in1024.0 mb 0.00 in0.0 mm 0.00 in0.0 mm 0.00 in0.0 mm
02:53 AM -4.4°F-20.2°C -8.8°F-22.7°C 81% 7.0 mph 11.3 kmh -- 30.24 in1024.0 mb 0.00 in0.0 mm 0.00 in0.0 mm 0.00 in0.0 mm
02:54 AM -4.4°F-20.2°C -8.8°F-22.7°C 81% 4.0 mph NNE6.4 kmh NNE -- 30.24 in1024.0 mb 0.00 in0.0 mm 0.00 in0.0 mm 0.00 in0.0 mm
02:55 AM -4.5°F-20.3°C -8.9°F-22.7°C 81% 7.0 mph NNW11.3 kmh NNW -- 30.24 in1024.0 mb 0.00 in0.0 mm 0.00 in0.0 mm 0.00 in0.0 mm
02:56 AM -4.5°F-20.3°C -8.9°F-22.7°C 81% 5.0 mph NNE8.0 kmh NNE -- 30.24 in1024.0 mb 0.00 in0.0 mm 0.00 in0.0 mm 0.00 in0.0 mm
02:57 AM -4.6°F-20.3°C -8.9°F-22.7°C 81% 8.0 mph 12.9 kmh -- 30.24 in1024.0 mb 0.00 in0.0 mm 0.00 in0.0 mm 0.00 in0.0 mm
02:58 AM -4.6°F-20.3°C -8.9°F-22.7°C 81% 5.0 mph 8.0 kmh -- 30.24 in1024.0 mb 0.00 in0.0 mm 0.00 in0.0 mm 0.00 in0.0 mm
02:59 AM -4.6°F-20.3°C -8.9°F-22.7°C 81% 6.0 mph 9.7 kmh -- 30.24 in1024.0 mb 0.00 in0.0 mm 0.00 in0.0 mm 0.00 in0.0 mm
03:00 AM -4.6°F-20.3°C -8.9°F-22.7°C 81% 4.0 mph NNW6.4 kmh NNW -- 30.24 in1024.0 mb 0.00 in0.0 mm 0.00 in0.0 mm 0.00 in0.0 mm
03:01 AM -4.6°F-20.3°C -8.9°F-22.7°C 81% 5.0 mph 8.0 kmh -- 30.25 in1024.4 mb 0.00 in0.0 mm 0.00 in0.0 mm 0.00 in0.0 mm
03:02 AM -4.9°F-20.5°C -9.3°F-22.9°C 81% 4.0 mph 6.4 kmh -- 30.25 in1024.4 mb 0.00 in0.0 mm 0.00 in0.0 mm 0.00 in0.0 mm
03:03 AM -4.9°F-20.5°C -9.3°F-22.9°C 81% 6.0 mph NNW9.7 kmh NNW -- 30.25 in1024.4 mb 0.00 in0.0 mm 0.00 in0.0 mm 0.00 in0.0 mm
03:04 AM -4.9°F-20.5°C -9.3°F-22.9°C 81% 5.0 mph NW8.0 kmh NW -- 30.25 in1024.4 mb 0.00 in0.0 mm 0.00 in0.0 mm 0.00 in0.0 mm
03:05 AM -5.0°F-20.6°C -9.5°F-23.1°C 81% 7.0 mph NNE11.3 kmh NNE -- 30.25 in1024.4 mb 0.00 in0.0 mm 0.00 in0.0 mm 0.00 in0.0 mm
03:06 AM -5.0°F-20.6°C -9.5°F-23.1°C 81% 6.0 mph NNW9.7 kmh NNW -- 30.25 in1024.4 mb 0.00 in0.0 mm 0.00 in0.0 mm 0.00 in0.0 mm
03:07 AM -5.0°F-20.6°C -9.5°F-23.1°C 81% 3.0 mph NW4.8 kmh NW -- 30.25 in1024.4 mb 0.00 in0.0 mm 0.00 in0.0 mm 0.00 in0.0 mm
03:08 AM -5.0°F-20.6°C -9.5°F-23.1°C 81% 5.0 mph 8.0 kmh -- 30.25 in1024.4 mb 0.00 in0.0 mm 0.00 in0.0 mm 0.00 in0.0 mm
03:09 AM -5.3°F-20.7°C -9.6°F-23.1°C 81% 7.0 mph 11.3 kmh -- 30.25 in1024.4 mb 0.00 in0.0 mm 0.00 in0.0 mm 0.00 in0.0 mm
03:10 AM -5.3°F-20.7°C -9.6°F-23.1°C 81% 7.0 mph NNE11.3 kmh NNE -- 30.25 in1024.4 mb 0.00 in0.0 mm 0.00 in0.0 mm 0.00 in0.0 mm
03:11 AM -5.3°F-20.7°C -9.1°F-22.8°C 83% 5.0 mph NE8.0 kmh NE -- 30.25 in1024.4 mb 0.00 in0.0 mm 0.00 in0.0 mm 0.00 in0.0 mm
03:12 AM -5.4°F-20.8°C -9.3°F-22.9°C 83% 4.0 mph 6.4 kmh -- 30.25 in1024.4 mb 0.00 in0.0 mm 0.00 in0.0 mm 0.00 in0.0 mm
03:13 AM -5.4°F-20.8°C -9.3°F-22.9°C 83% 4.0 mph NNW6.4 kmh NNW -- 30.26 in1024.7 mb 0.00 in0.0 mm 0.00 in0.0 mm 0.00 in0.0 mm
03:14 AM -5.4°F-20.8°C -9.3°F-22.9°C 83% 5.0 mph NW8.0 kmh NW -- 30.25 in1024.4 mb 0.00 in0.0 mm 0.00 in0.0 mm 0.00 in0.0 mm
03:15 AM -5.4°F-20.8°C -9.3°F-22.9°C 83% 4.0 mph NNW6.4 kmh NNW -- 30.26 in1024.7 mb 0.00 in0.0 mm 0.00 in0.0 mm 0.00 in0.0 mm
03:16 AM -5.5°F-20.8°C -9.3°F-22.9°C 83% 4.0 mph NNW6.4 kmh NNW -- 30.26 in1024.7 mb 0.00 in0.0 mm 0.00 in0.0 mm 0.00 in0.0 mm
03:17 AM -5.8°F-21.0°C -9.7°F-23.2°C 83% 5.0 mph 8.0 kmh -- 30.26 in1024.7 mb 0.00 in0.0 mm 0.00 in0.0 mm 0.00 in0.0 mm
03:18 AM -5.8°F-21.0°C -9.7°F-23.2°C 83% 5.0 mph NW8.0 kmh NW -- 30.25 in1024.4 mb 0.00 in0.0 mm 0.00 in0.0 mm 0.00 in0.0 mm
03:19 AM -6.0°F-21.1°C -9.8°F-23.2°C 83% 5.0 mph NNE8.0 kmh NNE -- 30.26 in1024.7 mb 0.00 in0.0 mm 0.00 in0.0 mm 0.00 in0.0 mm
03:20 AM -6.0°F-21.1°C -9.8°F-23.2°C 83% 6.0 mph NNW9.7 kmh NNW -- 30.26 in1024.7 mb 0.00 in0.0 mm 0.00 in0.0 mm 0.00 in0.0 mm
03:21 AM -6.0°F-21.1°C -9.8°F-23.2°C 83% 5.0 mph 8.0 kmh -- 30.26 in1024.7 mb 0.00 in0.0 mm 0.00 in0.0 mm 0.00 in0.0 mm
03:22 AM -6.1°F-21.2°C -10.0°F-23.3°C 83% 4.0 mph NNE6.4 kmh NNE -- 30.26 in1024.7 mb 0.00 in0.0 mm 0.00 in0.0 mm 0.00 in0.0 mm
03:23 AM -6.1°F-21.2°C -10.0°F-23.3°C 83% 5.0 mph 8.0 kmh -- 30.26 in1024.7 mb 0.00 in0.0 mm 0.00 in0.0 mm 0.00 in0.0 mm
03:24 AM -6.1°F-21.2°C -10.0°F-23.3°C 83% 10.0 mph NNE16.1 kmh NNE -- 30.26 in1024.7 mb 0.00 in0.0 mm 0.00 in0.0 mm 0.00 in0.0 mm
03:25 AM -6.1°F-21.2°C -10.0°F-23.3°C 83% 8.0 mph NNW12.9 kmh NNW -- 30.26 in1024.7 mb 0.00 in0.0 mm 0.00 in0.0 mm 0.00 in0.0 mm
03:26 AM -6.1°F-21.2°C -10.0°F-23.3°C 83% 5.0 mph 8.0 kmh -- 30.26 in1024.7 mb 0.00 in0.0 mm 0.00 in0.0 mm 0.00 in0.0 mm
03:27 AM -6.3°F-21.3°C -10.2°F-23.4°C 83% 4.0 mph NW6.4 kmh NW -- 30.26 in1024.7 mb 0.00 in0.0 mm 0.00 in0.0 mm 0.00 in0.0 mm
03:28 AM -6.3°F-21.3°C -10.2°F-23.4°C 83% 5.0 mph 8.0 kmh -- 30.26 in1024.7 mb 0.00 in0.0 mm 0.00 in0.0 mm 0.00 in0.0 mm
03:29 AM -6.3°F-21.3°C -10.2°F-23.4°C 83% 6.0 mph NNE9.7 kmh NNE -- 30.26 in1024.7 mb 0.00 in0.0 mm 0.00 in0.0 mm 0.00 in0.0 mm
03:30 AM -6.3°F-21.3°C -10.2°F-23.4°C 83% 4.0 mph NNW6.4 kmh NNW -- 30.26 in1024.7 mb 0.00 in0.0 mm 0.00 in0.0 mm 0.00 in0.0 mm
03:31 AM -6.5°F-21.4°C -10.4°F-23.6°C 83% 6.0 mph NNW9.7 kmh NNW -- 30.26 in1024.7 mb 0.00 in0.0 mm 0.00 in0.0 mm 0.00 in0.0 mm
03:32 AM -6.5°F-21.4°C -10.4°F-23.6°C 83% 8.0 mph NNE12.9 kmh NNE -- 30.27 in1025.1 mb 0.00 in0.0 mm 0.00 in0.0 mm 0.00 in0.0 mm
03:33 AM -6.5°F-21.4°C -10.4°F-23.6°C 83% 6.0 mph 9.7 kmh -- 30.27 in1025.1 mb 0.00 in0.0 mm 0.00 in0.0 mm 0.00 in0.0 mm
03:34 AM -6.5°F-21.4°C -10.4°F-23.6°C 83% 5.0 mph NNW8.0 kmh NNW -- 30.26 in1024.7 mb 0.00 in0.0 mm 0.00 in0.0 mm 0.00 in0.0 mm
03:35 AM -6.5°F-21.4°C -10.4°F-23.6°C 83% 6.0 mph NNW9.7 kmh NNW -- 30.26 in1024.7 mb 0.00 in0.0 mm 0.00 in0.0 mm 0.00 in0.0 mm
03:36 AM -6.5°F-21.4°C -10.4°F-23.6°C 83% 6.0 mph NNW9.7 kmh NNW -- 30.27 in1025.1 mb 0.00 in0.0 mm 0.00 in0.0 mm 0.00 in0.0 mm
03:37 AM -6.6°F-21.4°C -10.4°F-23.6°C 83% 4.0 mph NW6.4 kmh NW -- 30.27 in1025.1 mb 0.00 in0.0 mm 0.00 in0.0 mm 0.00 in0.0 mm
03:38 AM -6.6°F-21.4°C -10.4°F-23.6°C 83% 5.0 mph NNE8.0 kmh NNE -- 30.27 in1025.1 mb 0.00 in0.0 mm 0.00 in0.0 mm 0.00 in0.0 mm
03:39 AM -6.6°F-21.4°C -10.4°F-23.6°C 83% 4.0 mph NNE6.4 kmh NNE -- 30.27 in1025.1 mb 0.00 in0.0 mm 0.00 in0.0 mm 0.00 in0.0 mm
03:40 AM -6.9°F-21.6°C -10.7°F-23.7°C 83% 3.0 mph NNW4.8 kmh NNW -- 30.27 in1025.1 mb 0.00 in0.0 mm 0.00 in0.0 mm 0.00 in0.0 mm
03:41 AM -6.9°F-21.6°C -10.7°F-23.7°C 83% 4.0 mph NW6.4 kmh NW -- 30.27 in1025.1 mb 0.00 in0.0 mm 0.00 in0.0 mm 0.00 in0.0 mm
03:42 AM -7.0°F-21.7°C -10.9°F-23.8°C 83% 5.0 mph E8.0 kmh E -- 30.27 in1025.1 mb 0.00 in0.0 mm 0.00 in0.0 mm 0.00 in0.0 mm
03:43 AM -7.0°F-21.7°C -10.9°F-23.8°C 83% 5.0 mph 8.0 kmh -- 30.27 in1025.1 mb 0.00 in0.0 mm 0.00 in0.0 mm 0.00 in0.0 mm
03:46 AM -7.0°F-21.7°C -10.9°F-23.8°C 83% 4.0 mph 6.4 kmh -- 30.27 in1025.1 mb 0.00 in0.0 mm 0.00 in0.0 mm 0.00 in0.0 mm
03:47 AM -7.1°F-21.7°C -10.9°F-23.8°C 83% 3.0 mph NNE4.8 kmh NNE -- 30.28 in1025.4 mb 0.00 in0.0 mm 0.00 in0.0 mm 0.00 in0.0 mm
03:48 AM -7.1°F-21.7°C -10.9°F-23.8°C 83% 5.0 mph NNW8.0 kmh NNW -- 30.28 in1025.4 mb 0.00 in0.0 mm 0.00 in0.0 mm 0.00 in0.0 mm
03:49 AM -7.1°F-21.7°C -10.9°F-23.8°C 83% 5.0 mph NNE8.0 kmh NNE -- 30.27 in1025.1 mb 0.00 in0.0 mm 0.00 in0.0 mm 0.00 in0.0 mm
03:50 AM -7.1°F-21.7°C -10.9°F-23.8°C 83% 2.0 mph NNE3.2 kmh NNE -- 30.27 in1025.1 mb 0.00 in0.0 mm 0.00 in0.0 mm 0.00 in0.0 mm
03:51 AM -7.4°F-21.9°C -11.2°F-24.0°C 83% 6.0 mph NE9.7 kmh NE -- 30.27 in1025.1 mb 0.00 in0.0 mm 0.00 in0.0 mm 0.00 in0.0 mm
03:52 AM -7.4°F-21.9°C -10.8°F-23.8°C 85% 4.0 mph NNE6.4 kmh NNE -- 30.27 in1025.1 mb 0.00 in0.0 mm 0.00 in0.0 mm 0.00 in0.0 mm
03:53 AM -7.4°F-21.9°C -10.8°F-23.8°C 85% 2.0 mph 3.2 kmh -- 30.28 in1025.4 mb 0.00 in0.0 mm 0.00 in0.0 mm 0.00 in0.0 mm
03:54 AM -7.5°F-21.9°C -10.8°F-23.8°C 85% 6.0 mph NNW9.7 kmh NNW -- 30.27 in1025.1 mb 0.00 in0.0 mm 0.00 in0.0 mm 0.00 in0.0 mm
03:55 AM -7.5°F-21.9°C -10.8°F-23.8°C 85% 4.0 mph 6.4 kmh -- 30.27 in1025.1 mb 0.00 in0.0 mm 0.00 in0.0 mm 0.00 in0.0 mm
03:57 AM -7.5°F-21.9°C -10.8°F-23.8°C 85% 4.0 mph NNW6.4 kmh NNW -- 30.28 in1025.4 mb 0.00 in0.0 mm 0.00 in0.0 mm 0.00 in0.0 mm
03:58 AM -7.5°F-21.9°C -10.8°F-23.8°C 85% 5.0 mph NNE8.0 kmh NNE -- 30.28 in1025.4 mb 0.00 in0.0 mm 0.00 in0.0 mm 0.00 in0.0 mm
03:59 AM -7.5°F-21.9°C -10.8°F-23.8°C 85% 4.0 mph NNW6.4 kmh NNW -- 30.28 in1025.4 mb 0.00 in0.0 mm 0.00 in0.0 mm 0.00 in0.0 mm
04:00 AM -7.8°F-22.1°C -11.1°F-23.9°C 85% 4.0 mph NNW6.4 kmh NNW -- 30.28 in1025.4 mb 0.00 in0.0 mm 0.00 in0.0 mm 0.00 in0.0 mm
04:01 AM -7.8°F-22.1°C -11.1°F-23.9°C 85% 5.0 mph NNW8.0 kmh NNW -- 30.28 in1025.4 mb 0.00 in0.0 mm 0.00 in0.0 mm 0.00 in0.0 mm
04:02 AM -7.8°F-22.1°C -11.1°F-23.9°C 85% 4.0 mph NNW6.4 kmh NNW -- 30.28 in1025.4 mb 0.00 in0.0 mm 0.00 in0.0 mm 0.00 in0.0 mm
04:03 AM -7.8°F-22.1°C -11.1°F-23.9°C 85% 5.0 mph 8.0 kmh -- 30.28 in1025.4 mb 0.00 in0.0 mm 0.00 in0.0 mm 0.00 in0.0 mm
04:04 AM -7.8°F-22.1°C -11.1°F-23.9°C 85% 4.0 mph NNE6.4 kmh NNE -- 30.28 in1025.4 mb 0.00 in0.0 mm 0.00 in0.0 mm 0.00 in0.0 mm
04:05 AM -8.0°F-22.2°C -11.3°F-24.1°C 85% 4.0 mph 6.4 kmh -- 30.28 in1025.4 mb 0.00 in0.0 mm 0.00 in0.0 mm 0.00 in0.0 mm
04:06 AM -8.0°F-22.2°C -11.3°F-24.1°C 85% 7.0 mph 11.3 kmh -- 30.28 in1025.4 mb 0.00 in0.0 mm 0.00 in0.0 mm 0.00 in0.0 mm
04:07 AM -8.0°F-22.2°C -11.3°F-24.1°C 85% 4.0 mph WNW6.4 kmh WNW -- 30.28 in1025.4 mb 0.00 in0.0 mm 0.00 in0.0 mm 0.00 in0.0 mm
04:08 AM -8.0°F-22.2°C -11.3°F-24.1°C 85% 4.0 mph 6.4 kmh -- 30.28 in1025.4 mb 0.00 in0.0 mm 0.00 in0.0 mm 0.00 in0.0 mm
04:09 AM -8.0°F-22.2°C -11.3°F-24.1°C 85% 4.0 mph NNW6.4 kmh NNW -- 30.28 in1025.4 mb 0.00 in0.0 mm 0.00 in0.0 mm 0.00 in0.0 mm
04:10 AM -8.1°F-22.3°C -11.5°F-24.2°C 85% 6.0 mph NNW9.7 kmh NNW -- 30.29 in1025.7 mb 0.00 in0.0 mm 0.00 in0.0 mm 0.00 in0.0 mm
04:11 AM -8.1°F-22.3°C -11.5°F-24.2°C 85% 6.0 mph NW9.7 kmh NW -- 30.29 in1025.7 mb 0.00 in0.0 mm 0.00 in0.0 mm 0.00 in0.0 mm
04:12 AM -8.1°F-22.3°C -11.2°F-24.0°C 86% 5.0 mph NNW8.0 kmh NNW -- 30.29 in1025.7 mb 0.00 in0.0 mm 0.00 in0.0 mm 0.00 in0.0 mm
04:13 AM -8.1°F-22.3°C -11.2°F-24.0°C 86% 10.0 mph NNW16.1 kmh NNW -- 30.29 in1025.7 mb 0.00 in0.0 mm 0.00 in0.0 mm 0.00 in0.0 mm
04:14 AM -8.1°F-22.3°C -11.2°F-24.0°C 86% 8.0 mph 12.9 kmh -- 30.29 in1025.7 mb 0.00 in0.0 mm 0.00 in0.0 mm 0.00 in0.0 mm
04:15 AM -8.0°F-22.2°C -11.1°F-23.9°C 86% 5.0 mph NW8.0 kmh NW -- 30.29 in1025.7 mb 0.00 in0.0 mm 0.00 in0.0 mm 0.00 in0.0 mm
04:16 AM -8.0°F-22.2°C -11.1°F-23.9°C 86% 5.0 mph NNW8.0 kmh NNW -- 30.29 in1025.7 mb 0.00 in0.0 mm 0.00 in0.0 mm 0.00 in0.0 mm
04:17 AM -8.0°F-22.2°C -11.1°F-23.9°C 86% 4.0 mph NE6.4 kmh NE -- 30.29 in1025.7 mb 0.00 in0.0 mm 0.00 in0.0 mm 0.00 in0.0 mm
04:18 AM -8.0°F-22.2°C -11.1°F-23.9°C 86% 8.0 mph NE12.9 kmh NE -- 30.29 in1025.7 mb 0.00 in0.0 mm 0.00 in0.0 mm 0.00 in0.0 mm
04:20 AM -8.0°F-22.2°C -11.1°F-23.9°C 86% 6.0 mph NNW9.7 kmh NNW -- 30.29 in1025.7 mb 0.00 in0.0 mm 0.00 in0.0 mm 0.00 in0.0 mm
04:21 AM -8.0°F-22.2°C -11.3°F-24.1°C 85% 6.0 mph NNE9.7 kmh NNE -- 30.29 in1025.7 mb 0.00 in0.0 mm 0.00 in0.0 mm 0.00 in0.0 mm
04:22 AM -8.0°F-22.2°C -11.3°F-24.1°C 85% 4.0 mph NNE6.4 kmh NNE -- 30.29 in1025.7 mb 0.00 in0.0 mm 0.00 in0.0 mm 0.00 in0.0 mm
04:23 AM -8.0°F-22.2°C -11.8°F-24.3°C 83% 5.0 mph NNE8.0 kmh NNE -- 30.30 in1026.1 mb 0.00 in0.0 mm 0.00 in0.0 mm 0.00 in0.0 mm
04:24 AM -8.0°F-22.2°C -11.8°F-24.3°C 83% 6.0 mph 9.7 kmh -- 30.29 in1025.7 mb 0.00 in0.0 mm 0.00 in0.0 mm 0.00 in0.0 mm
04:25 AM -8.1°F-22.3°C -11.9°F-24.4°C 83% 7.0 mph NNE11.3 kmh NNE -- 30.29 in1025.7 mb 0.00 in0.0 mm 0.00 in0.0 mm 0.00 in0.0 mm
04:26 AM -8.1°F-22.3°C -11.9°F-24.4°C 83% 6.0 mph 9.7 kmh -- 30.29 in1025.7 mb 0.00 in0.0 mm 0.00 in0.0 mm 0.00 in0.0 mm
04:27 AM -8.1°F-22.3°C -11.9°F-24.4°C 83% 5.0 mph 8.0 kmh -- 30.30 in1026.1 mb 0.00 in0.0 mm 0.00 in0.0 mm 0.00 in0.0 mm
04:28 AM -8.1°F-22.3°C -11.9°F-24.4°C 83% 4.0 mph 6.4 kmh -- 30.29 in1025.7 mb 0.00 in0.0 mm 0.00 in0.0 mm 0.00 in0.0 mm
04:29 AM -8.3°F-22.4°C -12.1°F-24.5°C 83% 9.0 mph NE14.5 kmh NE -- 30.30 in1026.1 mb 0.00 in0.0 mm 0.00 in0.0 mm 0.00 in0.0 mm
04:30 AM -8.3°F-22.4°C -12.6°F-24.8°C 81% 4.0 mph 6.4 kmh -- 30.30 in1026.1 mb 0.00 in0.0 mm 0.00 in0.0 mm 0.00 in0.0 mm
04:31 AM -8.3°F-22.4°C -12.6°F-24.8°C 81% 10.0 mph NE16.1 kmh NE -- 30.30 in1026.1 mb 0.00 in0.0 mm 0.00 in0.0 mm 0.00 in0.0 mm
04:32 AM -8.3°F-22.4°C -12.4°F-24.7°C 82% 6.0 mph NE9.7 kmh NE -- 30.30 in1026.1 mb 0.00 in0.0 mm 0.00 in0.0 mm 0.00 in0.0 mm
04:33 AM -8.3°F-22.4°C -12.6°F-24.8°C 81% 5.0 mph NNW8.0 kmh NNW -- 30.30 in1026.1 mb 0.00 in0.0 mm 0.00 in0.0 mm 0.00 in0.0 mm
04:34 AM -8.5°F-22.5°C -12.8°F-24.9°C 81% 9.0 mph 14.5 kmh -- 30.30 in1026.1 mb 0.00 in0.0 mm 0.00 in0.0 mm 0.00 in0.0 mm
04:35 AM -8.5°F-22.5°C -12.8°F-24.9°C 81% 4.0 mph 6.4 kmh -- 30.30 in1026.1 mb 0.00 in0.0 mm 0.00 in0.0 mm 0.00 in0.0 mm
04:36 AM -8.6°F-22.6°C -13.0°F-25.0°C 81% 8.0 mph 12.9 kmh -- 30.30 in1026.1 mb 0.00 in0.0 mm 0.00 in0.0 mm 0.00 in0.0 mm
04:37 AM -8.6°F-22.6°C -13.0°F-25.0°C 81% 4.0 mph NNW6.4 kmh NNW -- 30.30 in1026.1 mb 0.00 in0.0 mm 0.00 in0.0 mm 0.00 in0.0 mm
04:38 AM -8.8°F-22.7°C -13.1°F-25.1°C 81% 6.0 mph NNW9.7 kmh NNW -- 30.30 in1026.1 mb 0.00 in0.0 mm 0.00 in0.0 mm 0.00 in0.0 mm
04:39 AM -8.8°F-22.7°C -13.1°F-25.1°C 81% 7.0 mph NNW11.3 kmh NNW -- 30.31 in1026.4 mb 0.00 in0.0 mm 0.00 in0.0 mm 0.00 in0.0 mm
04:40 AM -8.8°F-22.7°C -13.1°F-25.1°C 81% 6.0 mph ENE9.7 kmh ENE -- 30.31 in1026.4 mb 0.00 in0.0 mm 0.00 in0.0 mm 0.00 in0.0 mm
04:41 AM -8.8°F-22.7°C -13.1°F-25.1°C 81% 7.0 mph 11.3 kmh -- 30.30 in1026.1 mb 0.00 in0.0 mm 0.00 in0.0 mm 0.00 in0.0 mm
04:42 AM -9.0°F-22.8°C -13.3°F-25.2°C 81% 10.0 mph NW16.1 kmh NW -- 30.30 in1026.1 mb 0.00 in0.0 mm 0.00 in0.0 mm 0.00 in0.0 mm
04:43 AM -9.0°F-22.8°C -13.3°F-25.2°C 81% 6.0 mph NNW9.7 kmh NNW -- 30.30 in1026.1 mb 0.00 in0.0 mm 0.00 in0.0 mm 0.00 in0.0 mm
04:44 AM -9.0°F-22.8°C -13.3°F-25.2°C 81% 5.0 mph NNW8.0 kmh NNW -- 30.30 in1026.1 mb 0.00 in0.0 mm 0.00 in0.0 mm 0.00 in0.0 mm
04:45 AM -9.0°F-22.8°C -13.3°F-25.2°C 81% 6.0 mph 9.7 kmh -- 30.30 in1026.1 mb 0.00 in0.0 mm 0.00 in0.0 mm 0.00 in0.0 mm
04:46 AM -9.1°F-22.8°C -13.3°F-25.2°C 81% 7.0 mph NNW11.3 kmh NNW -- 30.30 in1026.1 mb 0.00 in0.0 mm 0.00 in0.0 mm 0.00 in0.0 mm
04:48 AM -9.1°F-22.8°C -13.3°F-25.2°C 81% 6.0 mph NNW9.7 kmh NNW -- 30.31 in1026.4 mb 0.00 in0.0 mm 0.00 in0.0 mm 0.00 in0.0 mm
04:49 AM -9.3°F-22.9°C -13.5°F-25.3°C 81% 10.0 mph NNW16.1 kmh NNW -- 30.31 in1026.4 mb 0.00 in0.0 mm 0.00 in0.0 mm 0.00 in0.0 mm
04:50 AM -9.3°F-22.9°C -13.5°F-25.3°C 81% 6.0 mph NNE9.7 kmh NNE -- 30.30 in1026.1 mb 0.00 in0.0 mm 0.00 in0.0 mm 0.00 in0.0 mm
04:51 AM -9.3°F-22.9°C -13.5°F-25.3°C 81% 6.0 mph NW9.7 kmh NW -- 30.31 in1026.4 mb 0.00 in0.0 mm 0.00 in0.0 mm 0.00 in0.0 mm
04:52 AM -9.3°F-22.9°C -13.5°F-25.3°C 81% 5.0 mph NNW8.0 kmh NNW -- 30.31 in1026.4 mb 0.00 in0.0 mm 0.00 in0.0 mm 0.00 in0.0 mm
04:53 AM -9.6°F-23.1°C -13.8°F-25.4°C 81% 6.0 mph 9.7 kmh -- 30.31 in1026.4 mb 0.00 in0.0 mm 0.00 in0.0 mm 0.00 in0.0 mm
04:54 AM -9.8°F-23.2°C -14.0°F-25.6°C 81% 7.0 mph NW11.3 kmh NW -- 30.30 in1026.1 mb 0.00 in0.0 mm 0.00 in0.0 mm 0.00 in0.0 mm
04:55 AM -9.8°F-23.2°C -14.0°F-25.6°C 81% 5.0 mph NNE8.0 kmh NNE -- 30.31 in1026.4 mb 0.00 in0.0 mm 0.00 in0.0 mm 0.00 in0.0 mm
04:56 AM -9.8°F-23.2°C -14.0°F-25.6°C 81% 6.0 mph NNW9.7 kmh NNW -- 30.31 in1026.4 mb 0.00 in0.0 mm 0.00 in0.0 mm 0.00 in0.0 mm
04:58 AM -9.8°F-23.2°C -14.0°F-25.6°C 81% 5.0 mph NNW8.0 kmh NNW -- 30.31 in1026.4 mb 0.00 in0.0 mm 0.00 in0.0 mm 0.00 in0.0 mm
04:59 AM -10.0°F-23.3°C -14.2°F-25.7°C 81% 5.0 mph NW8.0 kmh NW -- 30.31 in1026.4 mb 0.00 in0.0 mm 0.00 in0.0 mm 0.00 in0.0 mm
05:00 AM -10.0°F-23.3°C -13.7°F-25.4°C 83% 7.0 mph 11.3 kmh -- 30.31 in1026.4 mb 0.00 in0.0 mm 0.00 in0.0 mm 0.00 in0.0 mm
05:01 AM -10.0°F-23.3°C -13.7°F-25.4°C 83% 4.0 mph NNW6.4 kmh NNW -- 30.31 in1026.4 mb 0.00 in0.0 mm 0.00 in0.0 mm 0.00 in0.0 mm
05:02 AM -10.2°F-23.4°C -13.9°F-25.5°C 83% 4.0 mph NW6.4 kmh NW -- 30.31 in1026.4 mb 0.00 in0.0 mm 0.00 in0.0 mm 0.00 in0.0 mm
05:03 AM -10.2°F-23.4°C -13.9°F-25.5°C 83% 3.0 mph NW4.8 kmh NW -- 30.31 in1026.4 mb 0.00 in0.0 mm 0.00 in0.0 mm 0.00 in0.0 mm
05:04 AM -10.4°F-23.6°C -14.2°F-25.7°C 83% 4.0 mph WNW6.4 kmh WNW -- 30.31 in1026.4 mb 0.00 in0.0 mm 0.00 in0.0 mm 0.00 in0.0 mm
05:05 AM -10.6°F-23.7°C -14.4°F-25.8°C 83% 3.0 mph NNW4.8 kmh NNW -- 30.32 in1026.8 mb 0.00 in0.0 mm 0.00 in0.0 mm 0.00 in0.0 mm
05:06 AM -10.8°F-23.8°C -14.6°F-25.9°C 83% 4.0 mph NNW6.4 kmh NNW -- 30.31 in1026.4 mb 0.00 in0.0 mm 0.00 in0.0 mm 0.00 in0.0 mm
05:07 AM -10.8°F-23.8°C -14.6°F-25.9°C 83% 2.0 mph NW3.2 kmh NW -- 30.32 in1026.8 mb 0.00 in0.0 mm 0.00 in0.0 mm 0.00 in0.0 mm
05:08 AM -11.0°F-23.9°C -14.8°F-26.0°C 83% 2.0 mph WNW3.2 kmh WNW -- 30.32 in1026.8 mb 0.00 in0.0 mm 0.00 in0.0 mm 0.00 in0.0 mm
05:09 AM -11.2°F-24.0°C -14.9°F-26.1°C 83% 2.0 mph WNW3.2 kmh WNW -- 30.32 in1026.8 mb 0.00 in0.0 mm 0.00 in0.0 mm 0.00 in0.0 mm
05:10 AM -11.2°F-24.0°C -14.9°F-26.1°C 83% 3.0 mph NNW4.8 kmh NNW -- 30.31 in1026.4 mb 0.00 in0.0 mm 0.00 in0.0 mm 0.00 in0.0 mm
05:11 AM -11.3°F-24.1°C -15.1°F-26.2°C 83% 2.0 mph WNW3.2 kmh WNW -- 30.31 in1026.4 mb 0.00 in0.0 mm 0.00 in0.0 mm 0.00 in0.0 mm
05:12 AM -11.6°F-24.2°C -15.3°F-26.3°C 83% 1.0 mph WNW1.6 kmh WNW -- 30.32 in1026.8 mb 0.00 in0.0 mm 0.00 in0.0 mm 0.00 in0.0 mm
05:13 AM -11.6°F-24.2°C -15.3°F-26.3°C 83% 2.0 mph NW3.2 kmh NW -- 30.32 in1026.8 mb 0.00 in0.0 mm 0.00 in0.0 mm 0.00 in0.0 mm
05:14 AM -11.8°F-24.3°C -15.5°F-26.4°C 83% 3.0 mph NW4.8 kmh NW -- 30.32 in1026.8 mb 0.00 in0.0 mm 0.00 in0.0 mm 0.00 in0.0 mm
05:15 AM -12.1°F-24.5°C -15.8°F-26.6°C 83% 2.0 mph WNW3.2 kmh WNW -- 30.32 in1026.8 mb 0.00 in0.0 mm 0.00 in0.0 mm 0.00 in0.0 mm
05:16 AM -12.3°F-24.6°C -16.0°F-26.7°C 83% 4.0 mph WNW6.4 kmh WNW -- 30.32 in1026.8 mb 0.00 in0.0 mm 0.00 in0.0 mm 0.00 in0.0 mm
05:17 AM -12.3°F-24.6°C -16.0°F-26.7°C 83% 4.0 mph NNW6.4 kmh NNW -- 30.32 in1026.8 mb 0.00 in0.0 mm 0.00 in0.0 mm 0.00 in0.0 mm
05:18 AM -12.3°F-24.6°C -16.0°F-26.7°C 83% 5.0 mph WNW8.0 kmh WNW -- 30.32 in1026.8 mb 0.00 in0.0 mm 0.00 in0.0 mm 0.00 in0.0 mm
05:19 AM -12.3°F-24.6°C -16.0°F-26.7°C 83% 4.0 mph NW6.4 kmh NW -- 30.32 in1026.8 mb 0.00 in0.0 mm 0.00 in0.0 mm 0.00 in0.0 mm
05:20 AM -12.3°F-24.6°C -16.0°F-26.7°C 83% 3.0 mph NNW4.8 kmh NNW -- 30.32 in1026.8 mb 0.00 in0.0 mm 0.00 in0.0 mm 0.00 in0.0 mm
05:21 AM -12.5°F-24.7°C -16.2°F-26.8°C 83% 3.0 mph WNW4.8 kmh WNW -- 30.32 in1026.8 mb 0.00 in0.0 mm 0.00 in0.0 mm 0.00 in0.0 mm
05:22 AM -12.5°F-24.7°C -16.2°F-26.8°C 83% 4.0 mph WNW6.4 kmh WNW -- 30.32 in1026.8 mb 0.00 in0.0 mm 0.00 in0.0 mm 0.00 in0.0 mm
05:23 AM -12.5°F-24.7°C -16.2°F-26.8°C 83% 4.0 mph NNW6.4 kmh NNW -- 30.32 in1026.8 mb 0.00 in0.0 mm 0.00 in0.0 mm 0.00 in0.0 mm
05:24 AM -12.5°F-24.7°C -16.2°F-26.8°C 83% 4.0 mph NW6.4 kmh NW -- 30.32 in1026.8 mb 0.00 in0.0 mm 0.00 in0.0 mm 0.00 in0.0 mm
05:25 AM -12.5°F-24.7°C -16.2°F-26.8°C 83% 4.0 mph 6.4 kmh -- 30.32 in1026.8 mb 0.00 in0.0 mm 0.00 in0.0 mm 0.00 in0.0 mm
05:26 AM -12.5°F-24.7°C -16.2°F-26.8°C 83% 6.0 mph NNW9.7 kmh NNW -- 30.32 in1026.8 mb 0.00 in0.0 mm 0.00 in0.0 mm 0.00 in0.0 mm
05:27 AM -12.5°F-24.7°C -16.2°F-26.8°C 83% 5.0 mph WNW8.0 kmh WNW -- 30.32 in1026.8 mb 0.00 in0.0 mm 0.00 in0.0 mm 0.00 in0.0 mm
05:28 AM -12.5°F-24.7°C -16.2°F-26.8°C 83% 5.0 mph NNW8.0 kmh NNW -- 30.32 in1026.8 mb 0.00 in0.0 mm 0.00 in0.0 mm 0.00 in0.0 mm
05:29 AM -12.5°F-24.7°C -16.2°F-26.8°C 83% 5.0 mph WNW8.0 kmh WNW -- 30.33 in1027.1 mb 0.00 in0.0 mm 0.00 in0.0 mm 0.00 in0.0 mm
05:30 AM -12.5°F-24.7°C -16.2°F-26.8°C 83% 4.0 mph NNW6.4 kmh NNW -- 30.32 in1026.8 mb 0.00 in0.0 mm 0.00 in0.0 mm 0.00 in0.0 mm
05:31 AM -12.5°F-24.7°C -16.2°F-26.8°C 83% 4.0 mph WNW6.4 kmh WNW -- 30.32 in1026.8 mb 0.00 in0.0 mm 0.00 in0.0 mm 0.00 in0.0 mm
05:32 AM -12.5°F-24.7°C -15.9°F-26.6°C 84% 5.0 mph NW8.0 kmh NW -- 30.32 in1026.8 mb 0.00 in0.0 mm 0.00 in0.0 mm 0.00 in0.0 mm
05:33 AM -12.5°F-24.7°C -16.2°F-26.8°C 83% 4.0 mph NNW6.4 kmh NNW -- 30.33 in1027.1 mb 0.00 in0.0 mm 0.00 in0.0 mm 0.00 in0.0 mm
05:34 AM -12.5°F-24.7°C -16.2°F-26.8°C 83% 5.0 mph 8.0 kmh -- 30.33 in1027.1 mb 0.00 in0.0 mm 0.00 in0.0 mm 0.00 in0.0 mm
05:36 AM -12.5°F-24.7°C -16.2°F-26.8°C 83% 5.0 mph NW8.0 kmh NW -- 30.33 in1027.1 mb 0.00 in0.0 mm 0.00 in0.0 mm 0.00 in0.0 mm
05:38 AM -12.5°F-24.7°C -16.2°F-26.8°C 83% 3.0 mph NW4.8 kmh NW -- 30.33 in1027.1 mb 0.00 in0.0 mm 0.00 in0.0 mm 0.00 in0.0 mm
05:39 AM -12.5°F-24.7°C -16.2°F-26.8°C 83% 4.0 mph WNW6.4 kmh WNW -- 30.33 in1027.1 mb 0.00 in0.0 mm 0.00 in0.0 mm 0.00 in0.0 mm
05:40 AM -12.5°F-24.7°C -16.2°F-26.8°C 83% 3.0 mph NNW4.8 kmh NNW -- 30.33 in1027.1 mb 0.00 in0.0 mm 0.00 in0.0 mm 0.00 in0.0 mm
05:41 AM -12.7°F-24.8°C -16.4°F-26.9°C 83% 4.0 mph WNW6.4 kmh WNW -- 30.33 in1027.1 mb 0.00 in0.0 mm 0.00 in0.0 mm 0.00 in0.0 mm
05:42 AM -12.7°F-24.8°C -16.4°F-26.9°C 83% 4.0 mph NW6.4 kmh NW -- 30.33 in1027.1 mb 0.00 in0.0 mm 0.00 in0.0 mm 0.00 in0.0 mm
05:45 AM -12.7°F-24.8°C -16.4°F-26.9°C 83% 3.0 mph WNW4.8 kmh WNW -- 30.33 in1027.1 mb 0.00 in0.0 mm 0.00 in0.0 mm 0.00 in0.0 mm
05:46 AM -12.7°F-24.8°C -16.4°F-26.9°C 83% 5.0 mph NNW8.0 kmh NNW -- 30.33 in1027.1 mb 0.00 in0.0 mm 0.00 in0.0 mm 0.00 in0.0 mm
05:47 AM -12.7°F-24.8°C -16.4°F-26.9°C 83% 4.0 mph NW6.4 kmh NW -- 30.33 in1027.1 mb 0.00 in0.0 mm 0.00 in0.0 mm 0.00 in0.0 mm
05:48 AM -12.7°F-24.8°C -16.4°F-26.9°C 83% 5.0 mph NW8.0 kmh NW -- 30.33 in1027.1 mb 0.00 in0.0 mm 0.00 in0.0 mm 0.00 in0.0 mm
05:49 AM -12.7°F-24.8°C -15.9°F-26.6°C 85% 4.0 mph NNW6.4 kmh NNW -- 30.34 in1027.4 mb 0.00 in0.0 mm 0.00 in0.0 mm 0.00 in0.0 mm
05:52 AM -12.7°F-24.8°C -15.9°F-26.6°C 85% 4.0 mph NNW6.4 kmh NNW -- 30.33 in1027.1 mb 0.00 in0.0 mm 0.00 in0.0 mm 0.00 in0.0 mm
05:53 AM -12.7°F-24.8°C -15.9°F-26.6°C 85% 5.0 mph 8.0 kmh -- 30.34 in1027.4 mb 0.00 in0.0 mm 0.00 in0.0 mm 0.00 in0.0 mm
05:54 AM -12.7°F-24.8°C -15.9°F-26.6°C 85% 4.0 mph NNW6.4 kmh NNW -- 30.34 in1027.4 mb 0.00 in0.0 mm 0.00 in0.0 mm 0.00 in0.0 mm
05:56 AM -12.7°F-24.8°C -15.9°F-26.6°C 85% 3.0 mph NW4.8 kmh NW -- 30.34 in1027.4 mb 0.00 in0.0 mm 0.00 in0.0 mm 0.00 in0.0 mm
05:57 AM -12.7°F-24.8°C -15.9°F-26.6°C 85% 4.0 mph 6.4 kmh -- 30.34 in1027.4 mb 0.00 in0.0 mm 0.00 in0.0 mm 0.00 in0.0 mm
05:59 AM -12.7°F-24.8°C -15.7°F-26.5°C 86% 4.0 mph NW6.4 kmh NW -- 30.33 in1027.1 mb 0.00 in0.0 mm 0.00 in0.0 mm 0.00 in0.0 mm
06:00 AM -12.7°F-24.8°C -15.7°F-26.5°C 86% 4.0 mph NNW6.4 kmh NNW -- 30.33 in1027.1 mb 0.00 in0.0 mm 0.00 in0.0 mm 0.00 in0.0 mm
06:01 AM -12.7°F-24.8°C -15.7°F-26.5°C 86% 4.0 mph NW6.4 kmh NW -- 30.34 in1027.4 mb 0.00 in0.0 mm 0.00 in0.0 mm 0.00 in0.0 mm
06:04 AM -12.7°F-24.8°C -15.7°F-26.5°C 86% 5.0 mph NW8.0 kmh NW -- 30.34 in1027.4 mb 0.00 in0.0 mm 0.00 in0.0 mm 0.00 in0.0 mm
06:05 AM -12.7°F-24.8°C -15.7°F-26.5°C 86% 5.0 mph NW8.0 kmh NW -- 30.35 in1027.8 mb 0.00 in0.0 mm 0.00 in0.0 mm 0.00 in0.0 mm
06:06 AM -12.7°F-24.8°C -15.7°F-26.5°C 86% 6.0 mph NNW9.7 kmh NNW -- 30.34 in1027.4 mb 0.00 in0.0 mm 0.00 in0.0 mm 0.00 in0.0 mm
06:07 AM -12.7°F-24.8°C -15.7°F-26.5°C 86% 5.0 mph NW8.0 kmh NW -- 30.34 in1027.4 mb 0.00 in0.0 mm 0.00 in0.0 mm 0.00 in0.0 mm
06:09 AM -12.7°F-24.8°C -15.7°F-26.5°C 86% 4.0 mph WNW6.4 kmh WNW -- 30.34 in1027.4 mb 0.00 in0.0 mm 0.00 in0.0 mm 0.00 in0.0 mm
06:10 AM -12.7°F-24.8°C -15.7°F-26.5°C 86% 5.0 mph NNW8.0 kmh NNW -- 30.34 in1027.4 mb 0.00 in0.0 mm 0.00 in0.0 mm 0.00 in0.0 mm
06:11 AM -12.7°F-24.8°C -15.9°F-26.6°C 85% 6.0 mph NW9.7 kmh NW -- 30.35 in1027.8 mb 0.00 in0.0 mm 0.00 in0.0 mm 0.00 in0.0 mm
06:12 AM -12.7°F-24.8°C -15.9°F-26.6°C 85% 5.0 mph WNW8.0 kmh WNW -- 30.34 in1027.4 mb 0.00 in0.0 mm 0.00 in0.0 mm 0.00 in0.0 mm
06:13 AM -12.7°F-24.8°C -15.9°F-26.6°C 85% 3.0 mph NW4.8 kmh NW -- 30.35 in1027.8 mb 0.00 in0.0 mm 0.00 in0.0 mm 0.00 in0.0 mm
06:14 AM -12.9°F-24.9°C -16.1°F-26.7°C 85% 3.0 mph NW4.8 kmh NW -- 30.34 in1027.4 mb 0.00 in0.0 mm 0.00 in0.0 mm 0.00 in0.0 mm
06:15 AM -12.9°F-24.9°C -16.1°F-26.7°C 85% 3.0 mph WNW4.8 kmh WNW -- 30.35 in1027.8 mb 0.00 in0.0 mm 0.00 in0.0 mm 0.00 in0.0 mm
06:16 AM -13.1°F-25.1°C -16.4°F-26.9°C 85% 5.0 mph WNW8.0 kmh WNW -- 30.35 in1027.8 mb 0.00 in0.0 mm 0.00 in0.0 mm 0.00 in0.0 mm
06:17 AM -13.1°F-25.1°C -16.4°F-26.9°C 85% 5.0 mph NW8.0 kmh NW -- 30.35 in1027.8 mb 0.00 in0.0 mm 0.00 in0.0 mm 0.00 in0.0 mm
06:18 AM -13.1°F-25.1°C -16.4°F-26.9°C 85% 4.0 mph WNW6.4 kmh WNW -- 30.35 in1027.8 mb 0.00 in0.0 mm 0.00 in0.0 mm 0.00 in0.0 mm
06:19 AM -13.3°F-25.2°C -16.6°F-27.0°C 85% 3.0 mph WNW4.8 kmh WNW -- 30.35 in1027.8 mb 0.00 in0.0 mm 0.00 in0.0 mm 0.00 in0.0 mm
06:20 AM -13.3°F-25.2°C -16.6°F-27.0°C 85% 5.0 mph NNW8.0 kmh NNW -- 30.35 in1027.8 mb 0.00 in0.0 mm 0.00 in0.0 mm 0.00 in0.0 mm
06:21 AM -13.5°F-25.3°C -16.8°F-27.1°C 85% 4.0 mph NW6.4 kmh NW -- 30.35 in1027.8 mb 0.00 in0.0 mm 0.00 in0.0 mm 0.00 in0.0 mm
06:22 AM -13.5°F-25.3°C -17.2°F-27.3°C 83% 3.0 mph NW4.8 kmh NW -- 30.35 in1027.8 mb 0.00 in0.0 mm 0.00 in0.0 mm 0.00 in0.0 mm
06:23 AM -13.5°F-25.3°C -17.2°F-27.3°C 83% 5.0 mph NNW8.0 kmh NNW -- 30.35 in1027.8 mb 0.00 in0.0 mm 0.00 in0.0 mm 0.00 in0.0 mm
06:24 AM -13.6°F-25.3°C -17.2°F-27.3°C 83% 4.0 mph NW6.4 kmh NW -- 30.35 in1027.8 mb 0.00 in0.0 mm 0.00 in0.0 mm 0.00 in0.0 mm
06:26 AM -13.6°F-25.3°C -17.2°F-27.3°C 83% 5.0 mph NW8.0 kmh NW -- 30.35 in1027.8 mb 0.00 in0.0 mm 0.00 in0.0 mm 0.00 in0.0 mm
06:27 AM -13.6°F-25.3°C -17.2°F-27.3°C 83% 5.0 mph WNW8.0 kmh WNW -- 30.36 in1028.1 mb 0.00 in0.0 mm 0.00 in0.0 mm 0.00 in0.0 mm
06:28 AM -13.6°F-25.3°C -17.2°F-27.3°C 83% 6.0 mph NW9.7 kmh NW -- 30.36 in1028.1 mb 0.00 in0.0 mm 0.00 in0.0 mm 0.00 in0.0 mm
06:29 AM -13.6°F-25.3°C -17.2°F-27.3°C 83% 7.0 mph NNW11.3 kmh NNW -- 30.36 in1028.1 mb 0.00 in0.0 mm 0.00 in0.0 mm 0.00 in0.0 mm
06:30 AM -13.8°F-25.4°C -17.4°F-27.4°C 83% 5.0 mph NW8.0 kmh NW -- 30.36 in1028.1 mb 0.00 in0.0 mm 0.00 in0.0 mm 0.00 in0.0 mm
06:31 AM -13.8°F-25.4°C -17.4°F-27.4°C 83% 4.0 mph WNW6.4 kmh WNW -- 30.36 in1028.1 mb 0.00 in0.0 mm 0.00 in0.0 mm 0.00 in0.0 mm
06:32 AM -13.8°F-25.4°C -17.4°F-27.4°C 83% 4.0 mph NNE6.4 kmh NNE -- 30.36 in1028.1 mb 0.00 in0.0 mm 0.00 in0.0 mm 0.00 in0.0 mm
06:33 AM -13.8°F-25.4°C -17.4°F-27.4°C 83% 6.0 mph NNE9.7 kmh NNE -- 30.37 in1028.4 mb 0.00 in0.0 mm 0.00 in0.0 mm 0.00 in0.0 mm
06:34 AM -13.8°F-25.4°C -17.4°F-27.4°C 83% 4.0 mph NNW6.4 kmh NNW -- 30.37 in1028.4 mb 0.00 in0.0 mm 0.00 in0.0 mm 0.00 in0.0 mm
06:35 AM -13.8°F-25.4°C -17.4°F-27.4°C 83% 6.0 mph NNW9.7 kmh NNW -- 30.37 in1028.4 mb 0.00 in0.0 mm 0.00 in0.0 mm 0.00 in0.0 mm
06:36 AM -13.8°F-25.4°C -17.4°F-27.4°C 83% 4.0 mph WNW6.4 kmh WNW -- 30.37 in1028.4 mb 0.00 in0.0 mm 0.00 in0.0 mm 0.00 in0.0 mm
06:37 AM -13.8°F-25.4°C -17.4°F-27.4°C 83% 7.0 mph NNW11.3 kmh NNW -- 30.37 in1028.4 mb 0.00 in0.0 mm 0.00 in0.0 mm 0.00 in0.0 mm
06:38 AM -13.8°F-25.4°C -17.4°F-27.4°C 83% 6.0 mph NNW9.7 kmh NNW -- 30.37 in1028.4 mb 0.00 in0.0 mm 0.00 in0.0 mm 0.00 in0.0 mm
06:39 AM -13.8°F-25.4°C -16.9°F-27.2°C 85% 5.0 mph NW8.0 kmh NW -- 30.37 in1028.4 mb 0.00 in0.0 mm 0.00 in0.0 mm 0.00 in0.0 mm
06:40 AM -13.8°F-25.4°C -16.9°F-27.2°C 85% 3.0 mph NW4.8 kmh NW -- 30.37 in1028.4 mb 0.00 in0.0 mm 0.00 in0.0 mm 0.00 in0.0 mm
06:41 AM -13.8°F-25.4°C -16.9°F-27.2°C 85% 4.0 mph NNE6.4 kmh NNE -- 30.37 in1028.4 mb 0.00 in0.0 mm 0.00 in0.0 mm 0.00 in0.0 mm
06:43 AM -13.8°F-25.4°C -16.9°F-27.2°C 85% 5.0 mph 8.0 kmh -- 30.37 in1028.4 mb 0.00 in0.0 mm 0.00 in0.0 mm 0.00 in0.0 mm
06:45 AM -13.8°F-25.4°C -16.9°F-27.2°C 85% 5.0 mph WNW8.0 kmh WNW -- 30.37 in1028.4 mb 0.00 in0.0 mm 0.00 in0.0 mm 0.00 in0.0 mm
06:46 AM -13.8°F-25.4°C -16.9°F-27.2°C 85% 3.0 mph NNW4.8 kmh NNW -- 30.38 in1028.8 mb 0.00 in0.0 mm 0.00 in0.0 mm 0.00 in0.0 mm
06:47 AM -13.8°F-25.4°C -16.9°F-27.2°C 85% 3.0 mph WNW4.8 kmh WNW -- 30.37 in1028.4 mb 0.00 in0.0 mm 0.00 in0.0 mm 0.00 in0.0 mm
06:48 AM -13.8°F-25.4°C -16.9°F-27.2°C 85% 5.0 mph NNE8.0 kmh NNE -- 30.37 in1028.4 mb 0.00 in0.0 mm 0.00 in0.0 mm 0.00 in0.0 mm
06:49 AM -13.8°F-25.4°C -16.9°F-27.2°C 85% 4.0 mph NW6.4 kmh NW -- 30.37 in1028.4 mb 0.00 in0.0 mm 0.00 in0.0 mm 0.00 in0.0 mm
06:50 AM -13.8°F-25.4°C -16.9°F-27.2°C 85% 4.0 mph NNW6.4 kmh NNW -- 30.38 in1028.8 mb 0.00 in0.0 mm 0.00 in0.0 mm 0.00 in0.0 mm
06:51 AM -13.8°F-25.4°C -16.9°F-27.2°C 85% 5.0 mph NNW8.0 kmh NNW -- 30.37 in1028.4 mb 0.00 in0.0 mm 0.00 in0.0 mm 0.00 in0.0 mm
06:52 AM -14.1°F-25.6°C -17.3°F-27.4°C 85% 3.0 mph NNE4.8 kmh NNE -- 30.37 in1028.4 mb 0.00 in0.0 mm 0.00 in0.0 mm 0.00 in0.0 mm
06:53 AM -14.1°F-25.6°C -17.3°F-27.4°C 85% 6.0 mph NNE9.7 kmh NNE -- 30.37 in1028.4 mb 0.00 in0.0 mm 0.00 in0.0 mm 0.00 in0.0 mm
06:54 AM -14.1°F-25.6°C -17.3°F-27.4°C 85% 4.0 mph NNW6.4 kmh NNW -- 30.38 in1028.8 mb 0.00 in0.0 mm 0.00 in0.0 mm 0.00 in0.0 mm
06:55 AM -14.1°F-25.6°C -17.3°F-27.4°C 85% 5.0 mph W8.0 kmh W -- 30.38 in1028.8 mb 0.00 in0.0 mm 0.00 in0.0 mm 0.00 in0.0 mm
06:56 AM -14.1°F-25.6°C -17.1°F-27.3°C 86% 3.0 mph 4.8 kmh -- 30.38 in1028.8 mb 0.00 in0.0 mm 0.00 in0.0 mm 0.00 in0.0 mm
06:57 AM -14.3°F-25.7°C -17.2°F-27.3°C 86% 6.0 mph NNW9.7 kmh NNW -- 30.38 in1028.8 mb 0.00 in0.0 mm 0.00 in0.0 mm 0.00 in0.0 mm
06:58 AM -14.3°F-25.7°C -17.2°F-27.3°C 86% 4.0 mph NW6.4 kmh NW -- 30.38 in1028.8 mb 0.00 in0.0 mm 0.00 in0.0 mm 0.00 in0.0 mm
06:59 AM -14.3°F-25.7°C -17.2°F-27.3°C 86% 4.0 mph NNW6.4 kmh NNW -- 30.37 in1028.4 mb 0.00 in0.0 mm 0.00 in0.0 mm 0.00 in0.0 mm
07:00 AM -14.3°F-25.7°C -17.5°F-27.5°C 85% 4.0 mph NNW6.4 kmh NNW -- 30.38 in1028.8 mb 0.00 in0.0 mm 0.00 in0.0 mm 0.00 in0.0 mm
07:02 AM -14.3°F-25.7°C -17.5°F-27.5°C 85% 4.0 mph NNE6.4 kmh NNE -- 30.38 in1028.8 mb 0.00 in0.0 mm 0.00 in0.0 mm 0.00 in0.0 mm
07:03 AM -14.6°F-25.9°C -18.3°F-27.9°C 83% 3.0 mph NW4.8 kmh NW -- 30.38 in1028.8 mb 0.00 in0.0 mm 0.00 in0.0 mm 0.00 in0.0 mm
07:04 AM -14.6°F-25.9°C -18.3°F-27.9°C 83% 3.0 mph NW4.8 kmh NW -- 30.39 in1029.1 mb 0.00 in0.0 mm 0.00 in0.0 mm 0.00 in0.0 mm
07:05 AM -14.8°F-26.0°C -18.5°F-28.1°C 83% 4.0 mph WNW6.4 kmh WNW -- 30.38 in1028.8 mb 0.00 in0.0 mm 0.00 in0.0 mm 0.00 in0.0 mm
07:06 AM -15.0°F-26.1°C -18.6°F-28.1°C 83% 3.0 mph NNW4.8 kmh NNW -- 30.38 in1028.8 mb 0.00 in0.0 mm 0.00 in0.0 mm 0.00 in0.0 mm
07:07 AM -15.0°F-26.1°C -18.6°F-28.1°C 83% 4.0 mph NNW6.4 kmh NNW -- 30.38 in1028.8 mb 0.00 in0.0 mm 0.00 in0.0 mm 0.00 in0.0 mm
07:08 AM -15.0°F-26.1°C -18.6°F-28.1°C 83% 3.0 mph NNW4.8 kmh NNW -- 30.38 in1028.8 mb 0.00 in0.0 mm 0.00 in0.0 mm 0.00 in0.0 mm
07:10 AM -15.1°F-26.2°C -18.8°F-28.2°C 83% 4.0 mph NW6.4 kmh NW -- 30.38 in1028.8 mb 0.00 in0.0 mm 0.00 in0.0 mm 0.00 in0.0 mm
07:11 AM -15.2°F-26.2°C -18.8°F-28.2°C 83% 3.0 mph NNW4.8 kmh NNW -- 30.38 in1028.8 mb 0.00 in0.0 mm 0.00 in0.0 mm 0.00 in0.0 mm
07:13 AM -15.4°F-26.3°C -19.0°F-28.3°C 83% 3.0 mph NW4.8 kmh NW -- 30.38 in1028.8 mb 0.00 in0.0 mm 0.00 in0.0 mm 0.00 in0.0 mm
07:15 AM -15.6°F-26.4°C -19.2°F-28.4°C 83% 3.0 mph NW4.8 kmh NW -- 30.38 in1028.8 mb 0.00 in0.0 mm 0.00 in0.0 mm 0.00 in0.0 mm
07:16 AM -15.6°F-26.4°C -19.2°F-28.4°C 83% 3.0 mph WNW4.8 kmh WNW -- 30.39 in1029.1 mb 0.00 in0.0 mm 0.00 in0.0 mm 0.00 in0.0 mm
07:17 AM -15.8°F-26.6°C -19.5°F-28.6°C 83% 2.0 mph NW3.2 kmh NW -- 30.39 in1029.1 mb 0.00 in0.0 mm 0.00 in0.0 mm 0.00 in0.0 mm
07:18 AM -15.8°F-26.6°C -19.5°F-28.6°C 83% 1.0 mph WNW1.6 kmh WNW -- 30.39 in1029.1 mb 0.00 in0.0 mm 0.00 in0.0 mm 0.00 in0.0 mm
07:19 AM -16.2°F-26.8°C -19.9°F-28.8°C 83% 3.0 mph WNW4.8 kmh WNW -- 30.39 in1029.1 mb 0.00 in0.0 mm 0.00 in0.0 mm 0.00 in0.0 mm
07:20 AM -16.4°F-26.9°C -20.5°F-29.2°C 81% 3.0 mph WNW4.8 kmh WNW -- 30.39 in1029.1 mb 0.00 in0.0 mm 0.00 in0.0 mm 0.00 in0.0 mm
07:21 AM -16.4°F-26.9°C -20.5°F-29.2°C 81% 2.0 mph WNW3.2 kmh WNW -- 30.39 in1029.1 mb 0.00 in0.0 mm 0.00 in0.0 mm 0.00 in0.0 mm
07:22 AM -16.6°F-27.0°C -20.7°F-29.3°C 81% 2.0 mph WNW3.2 kmh WNW -- 30.39 in1029.1 mb 0.00 in0.0 mm 0.00 in0.0 mm 0.00 in0.0 mm
07:23 AM -16.7°F-27.1°C -20.9°F-29.4°C 81% 1.0 mph WNW1.6 kmh WNW -- 30.39 in1029.1 mb 0.00 in0.0 mm 0.00 in0.0 mm 0.00 in0.0 mm
07:24 AM -16.7°F-27.1°C -20.9°F-29.4°C 81% Calm Calm -- 30.39 in1029.1 mb 0.00 in0.0 mm 0.00 in0.0 mm 0.00 in0.0 mm
07:25 AM -17.0°F-27.2°C -21.1°F-29.5°C 81% 3.0 mph W4.8 kmh W -- 30.39 in1029.1 mb 0.00 in0.0 mm 0.00 in0.0 mm 0.00 in0.0 mm
07:26 AM -17.1°F-27.3°C -21.2°F-29.6°C 81% 2.0 mph WNW3.2 kmh WNW -- 30.40 in1029.5 mb 0.00 in0.0 mm 0.00 in0.0 mm 0.00 in0.0 mm
07:27 AM -17.2°F-27.3°C -21.2°F-29.6°C 81% 2.0 mph WNW3.2 kmh WNW -- 30.39 in1029.1 mb 0.00 in0.0 mm 0.00 in0.0 mm 0.00 in0.0 mm
07:28 AM -17.2°F-27.3°C -21.2°F-29.6°C 81% 3.0 mph WNW4.8 kmh WNW -- 30.40 in1029.5 mb 0.00 in0.0 mm 0.00 in0.0 mm 0.00 in0.0 mm
07:29 AM -17.5°F-27.5°C -21.6°F-29.8°C 81% 2.0 mph WNW3.2 kmh WNW -- 30.40 in1029.5 mb 0.00 in0.0 mm 0.00 in0.0 mm 0.00 in0.0 mm
07:30 AM -17.5°F-27.5°C -21.6°F-29.8°C 81% 2.0 mph W3.2 kmh W -- 30.40 in1029.5 mb 0.00 in0.0 mm 0.00 in0.0 mm 0.00 in0.0 mm
07:31 AM -17.7°F-27.6°C -21.8°F-29.9°C 81% 1.0 mph NW1.6 kmh NW -- 30.39 in1029.1 mb 0.00 in0.0 mm 0.00 in0.0 mm 0.00 in0.0 mm
07:32 AM -17.7°F-27.6°C -21.8°F-29.9°C 81% 2.0 mph NW3.2 kmh NW -- 30.39 in1029.1 mb 0.00 in0.0 mm 0.00 in0.0 mm 0.00 in0.0 mm
07:33 AM -17.9°F-27.7°C -21.9°F-29.9°C 81% 3.0 mph NW4.8 kmh NW -- 30.40 in1029.5 mb 0.00 in0.0 mm 0.00 in0.0 mm 0.00 in0.0 mm
07:34 AM -18.2°F-27.9°C -22.3°F-30.2°C 81% 2.0 mph NW3.2 kmh NW -- 30.40 in1029.5 mb 0.00 in0.0 mm 0.00 in0.0 mm 0.00 in0.0 mm
07:35 AM -18.3°F-27.9°C -22.3°F-30.2°C 81% 2.0 mph NW3.2 kmh NW -- 30.40 in1029.5 mb 0.00 in0.0 mm 0.00 in0.0 mm 0.00 in0.0 mm
07:37 AM -18.6°F-28.1°C -22.6°F-30.3°C 81% 2.0 mph NW3.2 kmh NW -- 30.40 in1029.5 mb 0.00 in0.0 mm 0.00 in0.0 mm 0.00 in0.0 mm
07:39 AM -18.7°F-28.2°C -22.8°F-30.4°C 81% 2.0 mph NW3.2 kmh NW -- 30.40 in1029.5 mb 0.00 in0.0 mm 0.00 in0.0 mm 0.00 in0.0 mm
07:41 AM -18.7°F-28.2°C -22.8°F-30.4°C 81% 3.0 mph NW4.8 kmh NW -- 30.40 in1029.5 mb 0.00 in0.0 mm 0.00 in0.0 mm 0.00 in0.0 mm
07:42 AM -18.8°F-28.2°C -22.3°F-30.2°C 83% 2.0 mph NW3.2 kmh NW -- 30.41 in1029.8 mb 0.00 in0.0 mm 0.00 in0.0 mm 0.00 in0.0 mm
07:44 AM -18.8°F-28.2°C -22.3°F-30.2°C 83% 3.0 mph NW4.8 kmh NW -- 30.41 in1029.8 mb 0.00 in0.0 mm 0.00 in0.0 mm 0.00 in0.0 mm
07:45 AM -19.1°F-28.4°C -22.7°F-30.4°C 83% 2.0 mph WNW3.2 kmh WNW -- 30.40 in1029.5 mb 0.00 in0.0 mm 0.00 in0.0 mm 0.00 in0.0 mm
07:46 AM -19.1°F-28.4°C -22.7°F-30.4°C 83% 1.0 mph WNW1.6 kmh WNW -- 30.40 in1029.5 mb 0.00 in0.0 mm 0.00 in0.0 mm 0.00 in0.0 mm
07:47 AM -19.1°F-28.4°C -22.7°F-30.4°C 83% 2.0 mph WNW3.2 kmh WNW -- 30.41 in1029.8 mb 0.00 in0.0 mm 0.00 in0.0 mm 0.00 in0.0 mm
07:48 AM -19.1°F-28.4°C -22.7°F-30.4°C 83% Calm Calm -- 30.41 in1029.8 mb 0.00 in0.0 mm 0.00 in0.0 mm 0.00 in0.0 mm
07:49 AM -19.2°F-28.4°C -22.7°F-30.4°C 83% Calm Calm -- 30.41 in1029.8 mb 0.00 in0.0 mm 0.00 in0.0 mm 0.00 in0.0 mm
07:50 AM -19.2°F-28.4°C -22.7°F-30.4°C 83% 2.0 mph WNW3.2 kmh WNW -- 30.41 in1029.8 mb 0.00 in0.0 mm 0.00 in0.0 mm 0.00 in0.0 mm
07:51 AM -19.5°F-28.6°C -23.1°F-30.6°C 83% Calm Calm -- 30.41 in1029.8 mb 0.00 in0.0 mm 0.00 in0.0 mm 0.00 in0.0 mm
07:52 AM -19.5°F-28.6°C -23.1°F-30.6°C 83% 1.0 mph WNW1.6 kmh WNW -- 30.41 in1029.8 mb 0.00 in0.0 mm 0.00 in0.0 mm 0.00 in0.0 mm
07:53 AM -19.7°F-28.7°C -23.2°F-30.7°C 83% 2.0 mph NNW3.2 kmh NNW -- 30.41 in1029.8 mb 0.00 in0.0 mm 0.00 in0.0 mm 0.00 in0.0 mm
07:54 AM -19.7°F-28.7°C -23.2°F-30.7°C 83% 2.0 mph NW3.2 kmh NW -- 30.41 in1029.8 mb 0.00 in0.0 mm 0.00 in0.0 mm 0.00 in0.0 mm
07:55 AM -19.7°F-28.7°C -23.2°F-30.7°C 83% 2.0 mph WNW3.2 kmh WNW -- 30.41 in1029.8 mb 0.00 in0.0 mm 0.00 in0.0 mm 0.00 in0.0 mm
07:56 AM -20.0°F-28.9°C -23.6°F-30.9°C 83% 2.0 mph WNW3.2 kmh WNW -- 30.41 in1029.8 mb 0.00 in0.0 mm 0.00 in0.0 mm 0.00 in0.0 mm
07:57 AM -20.0°F-28.9°C -23.6°F-30.9°C 83% 2.0 mph NW3.2 kmh NW -- 30.41 in1029.8 mb 0.00 in0.0 mm 0.00 in0.0 mm 0.00 in0.0 mm
07:58 AM -20.0°F-28.9°C -23.6°F-30.9°C 83% 3.0 mph W4.8 kmh W -- 30.41 in1029.8 mb 0.00 in0.0 mm 0.00 in0.0 mm 0.00 in0.0 mm
07:59 AM -20.0°F-28.9°C -23.6°F-30.9°C 83% 3.0 mph WNW4.8 kmh WNW -- 30.41 in1029.8 mb 0.00 in0.0 mm 0.00 in0.0 mm 0.00 in0.0 mm
08:00 AM -20.0°F-28.9°C -23.1°F-30.6°C 85% 2.0 mph WNW3.2 kmh WNW -- 30.41 in1029.8 mb 0.00 in0.0 mm 0.00 in0.0 mm 0.00 in0.0 mm
08:01 AM -20.0°F-28.9°C -23.1°F-30.6°C 85% 4.0 mph WNW6.4 kmh WNW -- 30.41 in1029.8 mb 0.00 in0.0 mm 0.00 in0.0 mm 0.00 in0.0 mm
08:02 AM -20.0°F-28.9°C -23.1°F-30.6°C 85% 3.0 mph WNW4.8 kmh WNW -- 30.41 in1029.8 mb 0.00 in0.0 mm 0.00 in0.0 mm 0.00 in0.0 mm
08:05 AM -19.7°F-28.7°C -22.6°F-30.3°C 86% 3.0 mph WNW4.8 kmh WNW -- 30.41 in1029.8 mb 0.00 in0.0 mm 0.00 in0.0 mm 0.00 in0.0 mm
08:06 AM -19.7°F-28.7°C -22.6°F-30.3°C 86% 3.0 mph W4.8 kmh W -- 30.41 in1029.8 mb 0.00 in0.0 mm 0.00 in0.0 mm 0.00 in0.0 mm
08:07 AM -19.7°F-28.7°C -22.6°F-30.3°C 86% 4.0 mph NW6.4 kmh NW -- 30.41 in1029.8 mb 0.00 in0.0 mm 0.00 in0.0 mm 0.00 in0.0 mm
08:08 AM -19.7°F-28.7°C -22.6°F-30.3°C 86% 3.0 mph NW4.8 kmh NW -- 30.41 in1029.8 mb 0.00 in0.0 mm 0.00 in0.0 mm 0.00 in0.0 mm
08:09 AM -19.5°F-28.6°C -22.4°F-30.2°C 86% 3.0 mph WNW4.8 kmh WNW -- 30.41 in1029.8 mb 0.00 in0.0 mm 0.00 in0.0 mm 0.00 in0.0 mm
08:10 AM -19.5°F-28.6°C -22.4°F-30.2°C 86% 2.0 mph W3.2 kmh W -- 30.41 in1029.8 mb 0.00 in0.0 mm 0.00 in0.0 mm 0.00 in0.0 mm
08:11 AM -19.5°F-28.6°C -22.4°F-30.2°C 86% 3.0 mph WNW4.8 kmh WNW -- 30.41 in1029.8 mb 0.00 in0.0 mm 0.00 in0.0 mm 0.00 in0.0 mm
08:12 AM -19.5°F-28.6°C -22.4°F-30.2°C 86% 3.0 mph NW4.8 kmh NW -- 30.41 in1029.8 mb 0.00 in0.0 mm 0.00 in0.0 mm 0.00 in0.0 mm
08:13 AM -19.5°F-28.6°C -22.4°F-30.2°C 86% 4.0 mph NW6.4 kmh NW -- 30.41 in1029.8 mb 0.00 in0.0 mm 0.00 in0.0 mm 0.00 in0.0 mm
08:14 AM -19.5°F-28.6°C -22.4°F-30.2°C 86% 3.0 mph WNW4.8 kmh WNW -- 30.41 in1029.8 mb 0.00 in0.0 mm 0.00 in0.0 mm 0.00 in0.0 mm
08:16 AM -19.5°F-28.6°C -22.4°F-30.2°C 86% 3.0 mph W4.8 kmh W -- 30.42 in1030.1 mb 0.00 in0.0 mm 0.00 in0.0 mm 0.00 in0.0 mm
08:17 AM -19.2°F-28.4°C -22.0°F-30.0°C 86% 4.0 mph NW6.4 kmh NW -- 30.42 in1030.1 mb 0.00 in0.0 mm 0.00 in0.0 mm 0.00 in0.0 mm
08:18 AM -19.2°F-28.4°C -22.0°F-30.0°C 86% 3.0 mph WNW4.8 kmh WNW -- 30.41 in1029.8 mb 0.00 in0.0 mm 0.00 in0.0 mm 0.00 in0.0 mm
08:20 AM -19.1°F-28.4°C -22.0°F-30.0°C 86% 3.0 mph W4.8 kmh W -- 30.41 in1029.8 mb 0.00 in0.0 mm 0.00 in0.0 mm 0.00 in0.0 mm
08:21 AM -19.1°F-28.4°C -22.0°F-30.0°C 86% 4.0 mph W6.4 kmh W -- 30.42 in1030.1 mb 0.00 in0.0 mm 0.00 in0.0 mm 0.00 in0.0 mm
08:22 AM -18.8°F-28.2°C -21.7°F-29.8°C 86% 3.0 mph NW4.8 kmh NW -- 30.41 in1029.8 mb 0.00 in0.0 mm 0.00 in0.0 mm 0.00 in0.0 mm
08:23 AM -18.8°F-28.2°C -21.7°F-29.8°C 86% 4.0 mph NW6.4 kmh NW -- 30.42 in1030.1 mb 0.00 in0.0 mm 0.00 in0.0 mm 0.00 in0.0 mm
08:24 AM -18.8°F-28.2°C -21.7°F-29.8°C 86% 5.0 mph W8.0 kmh W -- 30.41 in1029.8 mb 0.00 in0.0 mm 0.00 in0.0 mm 0.00 in0.0 mm
08:25 AM -18.7°F-28.2°C -21.7°F-29.8°C 86% 3.0 mph WNW4.8 kmh WNW -- 30.42 in1030.1 mb 0.00 in0.0 mm 0.00 in0.0 mm 0.00 in0.0 mm
08:26 AM -18.7°F-28.2°C -21.7°F-29.8°C 86% 4.0 mph WNW6.4 kmh WNW -- 30.41 in1029.8 mb 0.00 in0.0 mm 0.00 in0.0 mm 0.00 in0.0 mm
08:27 AM -18.7°F-28.2°C -21.7°F-29.8°C 86% 3.0 mph W4.8 kmh W -- 30.42 in1030.1 mb 0.00 in0.0 mm 0.00 in0.0 mm 0.00 in0.0 mm
08:29 AM -18.7°F-28.2°C -21.7°F-29.8°C 86% 3.0 mph WNW4.8 kmh WNW -- 30.42 in1030.1 mb 0.00 in0.0 mm 0.00 in0.0 mm 0.00 in0.0 mm
08:30 AM -18.7°F-28.2°C -21.7°F-29.8°C 86% 2.0 mph W3.2 kmh W -- 30.41 in1029.8 mb 0.00 in0.0 mm 0.00 in0.0 mm 0.00 in0.0 mm
08:31 AM -18.7°F-28.2°C -21.7°F-29.8°C 86% 2.0 mph W3.2 kmh W -- 30.42 in1030.1 mb 0.00 in0.0 mm 0.00 in0.0 mm 0.00 in0.0 mm
08:32 AM -18.7°F-28.2°C -21.7°F-29.8°C 86% 3.0 mph WNW4.8 kmh WNW -- 30.42 in1030.1 mb 0.00 in0.0 mm 0.00 in0.0 mm 0.00 in0.0 mm
08:33 AM -18.7°F-28.2°C -21.7°F-29.8°C 86% 2.0 mph W3.2 kmh W -- 30.42 in1030.1 mb 0.00 in0.0 mm 0.00 in0.0 mm 0.00 in0.0 mm
08:34 AM -18.7°F-28.2°C -21.7°F-29.8°C 86% 3.0 mph W4.8 kmh W -- 30.42 in1030.1 mb 0.00 in0.0 mm 0.00 in0.0 mm 0.00 in0.0 mm
08:35 AM -18.7°F-28.2°C -21.7°F-29.8°C 86% 3.0 mph NW4.8 kmh NW -- 30.42 in1030.1 mb 0.00 in0.0 mm 0.00 in0.0 mm 0.00 in0.0 mm
08:36 AM -18.7°F-28.2°C -21.7°F-29.8°C 86% 3.0 mph WNW4.8 kmh WNW -- 30.42 in1030.1 mb 0.00 in0.0 mm 0.00 in0.0 mm 0.00 in0.0 mm
08:37 AM -18.7°F-28.2°C -21.7°F-29.8°C 86% 4.0 mph NW6.4 kmh NW -- 30.42 in1030.1 mb 0.00 in0.0 mm 0.00 in0.0 mm 0.00 in0.0 mm
08:38 AM -18.7°F-28.2°C -21.7°F-29.8°C 86% 3.0 mph WSW4.8 kmh WSW -- 30.42 in1030.1 mb 0.00 in0.0 mm 0.00 in0.0 mm 0.00 in0.0 mm
08:39 AM -18.8°F-28.2°C -21.9°F-29.9°C 85% 3.0 mph WNW4.8 kmh WNW -- 30.42 in1030.1 mb 0.00 in0.0 mm 0.00 in0.0 mm 0.00 in0.0 mm
08:40 AM -19.1°F-28.4°C -22.2°F-30.1°C 85% 2.0 mph WNW3.2 kmh WNW -- 30.42 in1030.1 mb 0.00 in0.0 mm 0.00 in0.0 mm 0.00 in0.0 mm
08:41 AM -19.2°F-28.4°C -22.2°F-30.1°C 85% 3.0 mph NW4.8 kmh NW -- 30.42 in1030.1 mb 0.00 in0.0 mm 0.00 in0.0 mm 0.00 in0.0 mm
08:42 AM -19.5°F-28.6°C -23.1°F-30.6°C 83% 3.0 mph NW4.8 kmh NW -- 30.42 in1030.1 mb 0.00 in0.0 mm 0.00 in0.0 mm 0.00 in0.0 mm
08:43 AM -19.5°F-28.6°C -23.1°F-30.6°C 83% 3.0 mph WNW4.8 kmh WNW -- 30.42 in1030.1 mb 0.00 in0.0 mm 0.00 in0.0 mm 0.00 in0.0 mm
08:44 AM -19.7°F-28.7°C -23.2°F-30.7°C 83% 4.0 mph WNW6.4 kmh WNW -- 30.42 in1030.1 mb 0.00 in0.0 mm 0.00 in0.0 mm 0.00 in0.0 mm
08:45 AM -19.7°F-28.7°C -23.2°F-30.7°C 83% 2.0 mph WNW3.2 kmh WNW -- 30.42 in1030.1 mb 0.00 in0.0 mm 0.00 in0.0 mm 0.00 in0.0 mm
08:47 AM -19.7°F-28.7°C -23.2°F-30.7°C 83% 3.0 mph WNW4.8 kmh WNW -- 30.42 in1030.1 mb 0.00 in0.0 mm 0.00 in0.0 mm 0.00 in0.0 mm
08:48 AM -19.7°F-28.7°C -23.2°F-30.7°C 83% 2.0 mph WNW3.2 kmh WNW -- 30.43 in1030.5 mb 0.00 in0.0 mm 0.00 in0.0 mm 0.00 in0.0 mm
08:49 AM -19.7°F-28.7°C -23.2°F-30.7°C 83% 4.0 mph W6.4 kmh W -- 30.43 in1030.5 mb 0.00 in0.0 mm 0.00 in0.0 mm 0.00 in0.0 mm
08:50 AM -19.7°F-28.7°C -23.2°F-30.7°C 83% 4.0 mph WNW6.4 kmh WNW -- 30.43 in1030.5 mb 0.00 in0.0 mm 0.00 in0.0 mm 0.00 in0.0 mm
08:51 AM -19.5°F-28.6°C -23.1°F-30.6°C 83% 3.0 mph W4.8 kmh W -- 30.43 in1030.5 mb 0.00 in0.0 mm 0.00 in0.0 mm 0.00 in0.0 mm
08:52 AM -19.5°F-28.6°C -23.1°F-30.6°C 83% 4.0 mph WNW6.4 kmh WNW -- 30.43 in1030.5 mb 0.00 in0.0 mm 0.00 in0.0 mm 0.00 in0.0 mm
08:54 AM -19.2°F-28.4°C -22.7°F-30.4°C 83% 3.0 mph WNW4.8 kmh WNW -- 30.43 in1030.5 mb 0.00 in0.0 mm 0.00 in0.0 mm 0.00 in0.0 mm
08:55 AM -19.1°F-28.4°C -22.7°F-30.4°C 83% 2.0 mph WNW3.2 kmh WNW -- 30.43 in1030.5 mb 0.00 in0.0 mm 0.00 in0.0 mm 0.00 in0.0 mm
08:56 AM -18.7°F-28.2°C -22.3°F-30.2°C 83% 3.0 mph NW4.8 kmh NW -- 30.43 in1030.5 mb 0.00 in0.0 mm 0.00 in0.0 mm 0.00 in0.0 mm
08:57 AM -18.6°F-28.1°C -22.2°F-30.1°C 83% 3.0 mph W4.8 kmh W -- 30.43 in1030.5 mb 0.00 in0.0 mm 0.00 in0.0 mm 0.00 in0.0 mm
08:58 AM -18.3°F-27.9°C -21.8°F-29.9°C 83% 2.0 mph NW3.2 kmh NW -- 30.43 in1030.5 mb 0.00 in0.0 mm 0.00 in0.0 mm 0.00 in0.0 mm
08:59 AM -18.3°F-27.9°C -21.8°F-29.9°C 83% 4.0 mph NW6.4 kmh NW -- 30.44 in1030.8 mb 0.00 in0.0 mm 0.00 in0.0 mm 0.00 in0.0 mm
09:00 AM -18.3°F-27.9°C -21.8°F-29.9°C 83% 4.0 mph NW6.4 kmh NW -- 30.43 in1030.5 mb 0.00 in0.0 mm 0.00 in0.0 mm 0.00 in0.0 mm
09:01 AM -18.3°F-27.9°C -21.8°F-29.9°C 83% 3.0 mph WNW4.8 kmh WNW -- 30.43 in1030.5 mb 0.00 in0.0 mm 0.00 in0.0 mm 0.00 in0.0 mm
09:02 AM -18.6°F-28.1°C -22.2°F-30.1°C 83% 4.0 mph NW6.4 kmh NW -- 30.43 in1030.5 mb 0.00 in0.0 mm 0.00 in0.0 mm 0.00 in0.0 mm
09:03 AM -18.6°F-28.1°C -22.2°F-30.1°C 83% 4.0 mph WNW6.4 kmh WNW -- 30.43 in1030.5 mb 0.00 in0.0 mm 0.00 in0.0 mm 0.00 in0.0 mm
09:04 AM -18.3°F-27.9°C -21.8°F-29.9°C 83% 2.0 mph W3.2 kmh W -- 30.44 in1030.8 mb 0.00 in0.0 mm 0.00 in0.0 mm 0.00 in0.0 mm
09:05 AM -18.2°F-27.9°C -21.8°F-29.9°C 83% 3.0 mph WNW4.8 kmh WNW -- 30.44 in1030.8 mb 0.00 in0.0 mm 0.00 in0.0 mm 0.00 in0.0 mm
09:06 AM -17.9°F-27.7°C -21.5°F-29.7°C 83% 3.0 mph WNW4.8 kmh WNW -- 30.44 in1030.8 mb 0.00 in0.0 mm 0.00 in0.0 mm 0.00 in0.0 mm
09:07 AM -17.8°F-27.7°C -21.5°F-29.7°C 83% 2.0 mph NNW3.2 kmh NNW -- 30.45 in1031.2 mb 0.00 in0.0 mm 0.00 in0.0 mm 0.00 in0.0 mm
09:08 AM -17.7°F-27.6°C -21.3°F-29.6°C 83% 3.0 mph WNW4.8 kmh WNW -- 30.44 in1030.8 mb 0.00 in0.0 mm 0.00 in0.0 mm 0.00 in0.0 mm
09:09 AM -17.5°F-27.5°C -21.1°F-29.5°C 83% 4.0 mph NW6.4 kmh NW -- 30.44 in1030.8 mb 0.00 in0.0 mm 0.00 in0.0 mm 0.00 in0.0 mm
09:10 AM -17.5°F-27.5°C -21.1°F-29.5°C 83% 2.0 mph W3.2 kmh W -- 30.44 in1030.8 mb 0.00 in0.0 mm 0.00 in0.0 mm 0.00 in0.0 mm
09:11 AM -17.5°F-27.5°C -21.6°F-29.8°C 81% 3.0 mph W4.8 kmh W -- 30.44 in1030.8 mb 0.00 in0.0 mm 0.00 in0.0 mm 0.00 in0.0 mm
09:12 AM -17.2°F-27.3°C -21.2°F-29.6°C 81% 3.0 mph WNW4.8 kmh WNW -- 30.44 in1030.8 mb 0.00 in0.0 mm 0.00 in0.0 mm 0.00 in0.0 mm
09:13 AM -17.2°F-27.3°C -21.2°F-29.6°C 81% 5.0 mph NW8.0 kmh NW -- 30.45 in1031.2 mb 0.00 in0.0 mm 0.00 in0.0 mm 0.00 in0.0 mm
09:14 AM -17.0°F-27.2°C -21.1°F-29.5°C 81% 4.0 mph WNW6.4 kmh WNW -- 30.45 in1031.2 mb 0.00 in0.0 mm 0.00 in0.0 mm 0.00 in0.0 mm
09:15 AM -17.0°F-27.2°C -21.1°F-29.5°C 81% 4.0 mph NNW6.4 kmh NNW -- 30.45 in1031.2 mb 0.00 in0.0 mm 0.00 in0.0 mm 0.00 in0.0 mm
09:16 AM -17.0°F-27.2°C -21.1°F-29.5°C 81% 4.0 mph WNW6.4 kmh WNW -- 30.45 in1031.2 mb 0.00 in0.0 mm 0.00 in0.0 mm 0.00 in0.0 mm
09:17 AM -17.2°F-27.3°C -21.5°F-29.7°C 80% 3.0 mph W4.8 kmh W -- 30.45 in1031.2 mb 0.00 in0.0 mm 0.00 in0.0 mm 0.00 in0.0 mm
09:18 AM -17.2°F-27.3°C -21.5°F-29.7°C 80% 3.0 mph WNW4.8 kmh WNW -- 30.45 in1031.2 mb 0.00 in0.0 mm 0.00 in0.0 mm 0.00 in0.0 mm
09:20 AM -17.2°F-27.3°C -21.5°F-29.7°C 80% 3.0 mph W4.8 kmh W -- 30.45 in1031.2 mb 0.00 in0.0 mm 0.00 in0.0 mm 0.00 in0.0 mm
09:21 AM -17.2°F-27.3°C -21.5°F-29.7°C 80% 4.0 mph WNW6.4 kmh WNW -- 30.45 in1031.2 mb 0.00 in0.0 mm 0.00 in0.0 mm 0.00 in0.0 mm
09:22 AM -17.0°F-27.2°C -21.3°F-29.6°C 80% 3.0 mph WNW4.8 kmh WNW -- 30.45 in1031.2 mb 0.00 in0.0 mm 0.00 in0.0 mm 0.00 in0.0 mm
09:24 AM -17.0°F-27.2°C -21.3°F-29.6°C 80% 4.0 mph WNW6.4 kmh WNW -- 30.45 in1031.2 mb 0.00 in0.0 mm 0.00 in0.0 mm 0.00 in0.0 mm
09:25 AM -16.7°F-27.1°C -21.4°F-29.7°C 79% 4.0 mph NW6.4 kmh NW -- 30.45 in1031.2 mb 0.00 in0.0 mm 0.00 in0.0 mm 0.00 in0.0 mm
09:26 AM -16.7°F-27.1°C -21.4°F-29.7°C 79% 5.0 mph WNW8.0 kmh WNW -- 30.45 in1031.2 mb 0.00 in0.0 mm 0.00 in0.0 mm 0.00 in0.0 mm
09:27 AM -16.7°F-27.1°C -21.6°F-29.8°C 78% 2.0 mph W3.2 kmh W -- 30.46 in1031.5 mb 0.00 in0.0 mm 0.00 in0.0 mm 0.00 in0.0 mm
09:28 AM -16.7°F-27.1°C -21.6°F-29.8°C 78% 3.0 mph NW4.8 kmh NW -- 30.45 in1031.2 mb 0.00 in0.0 mm 0.00 in0.0 mm 0.00 in0.0 mm
09:29 AM -16.7°F-27.1°C -21.6°F-29.8°C 78% 2.0 mph W3.2 kmh W -- 30.45 in1031.2 mb 0.00 in0.0 mm 0.00 in0.0 mm 0.00 in0.0 mm
09:30 AM -16.7°F-27.1°C -21.6°F-29.8°C 78% 2.0 mph WNW3.2 kmh WNW -- 30.45 in1031.2 mb 0.00 in0.0 mm 0.00 in0.0 mm 0.00 in0.0 mm
09:31 AM -16.7°F-27.1°C -21.6°F-29.8°C 78% 3.0 mph W4.8 kmh W -- 30.45 in1031.2 mb 0.00 in0.0 mm 0.00 in0.0 mm 0.00 in0.0 mm
09:32 AM -16.4°F-26.9°C -21.3°F-29.6°C 78% 4.0 mph WNW6.4 kmh WNW -- 30.46 in1031.5 mb 0.00 in0.0 mm 0.00 in0.0 mm 0.00 in0.0 mm
09:33 AM -16.1°F-26.7°C -20.9°F-29.4°C 78% 5.0 mph WNW8.0 kmh WNW -- 30.46 in1031.5 mb 0.00 in0.0 mm 0.00 in0.0 mm 0.00 in0.0 mm
09:34 AM -15.8°F-26.6°C -21.2°F-29.6°C 76% 5.0 mph NW8.0 kmh NW -- 30.46 in1031.5 mb 0.00 in0.0 mm 0.00 in0.0 mm 0.00 in0.0 mm
09:35 AM -15.6°F-26.4°C -20.9°F-29.4°C 76% 3.0 mph WNW4.8 kmh WNW -- 30.46 in1031.5 mb 0.00 in0.0 mm 0.00 in0.0 mm 0.00 in0.0 mm
09:37 AM -15.4°F-26.3°C -20.7°F-29.3°C 76% 4.0 mph WNW6.4 kmh WNW -- 30.46 in1031.5 mb 0.00 in0.0 mm 0.00 in0.0 mm 0.00 in0.0 mm
09:38 AM -15.2°F-26.2°C -20.5°F-29.2°C 76% 3.0 mph NW4.8 kmh NW -- 30.47 in1031.8 mb 0.00 in0.0 mm 0.00 in0.0 mm 0.00 in0.0 mm
09:39 AM -15.2°F-26.2°C -20.8°F-29.3°C 75% 4.0 mph NW6.4 kmh NW -- 30.46 in1031.5 mb 0.00 in0.0 mm 0.00 in0.0 mm 0.00 in0.0 mm
09:40 AM -15.2°F-26.2°C -20.8°F-29.3°C 75% 3.0 mph WNW4.8 kmh WNW -- 30.47 in1031.8 mb 0.00 in0.0 mm 0.00 in0.0 mm 0.00 in0.0 mm
09:41 AM -15.2°F-26.2°C -20.8°F-29.3°C 75% 3.0 mph WNW4.8 kmh WNW -- 30.46 in1031.5 mb 0.00 in0.0 mm 0.00 in0.0 mm 0.00 in0.0 mm
09:42 AM -15.2°F-26.2°C -20.8°F-29.3°C 75% 3.0 mph NW4.8 kmh NW -- 30.47 in1031.8 mb 0.00 in0.0 mm 0.00 in0.0 mm 0.00 in0.0 mm
09:44 AM -15.1°F-26.2°C -20.8°F-29.3°C 75% 3.0 mph NW4.8 kmh NW -- 30.47 in1031.8 mb 0.00 in0.0 mm 0.00 in0.0 mm 0.00 in0.0 mm
09:45 AM -15.1°F-26.2°C -20.8°F-29.3°C 75% 3.0 mph WNW4.8 kmh WNW -- 30.47 in1031.8 mb 0.00 in0.0 mm 0.00 in0.0 mm 0.00 in0.0 mm
09:46 AM -15.0°F-26.1°C -20.6°F-29.2°C 75% 3.0 mph WNW4.8 kmh WNW -- 30.47 in1031.8 mb 0.00 in0.0 mm 0.00 in0.0 mm 0.00 in0.0 mm
09:47 AM -15.1°F-26.2°C -20.8°F-29.3°C 75% 3.0 mph WNW4.8 kmh WNW -- 30.47 in1031.8 mb 0.00 in0.0 mm 0.00 in0.0 mm 0.00 in0.0 mm
09:48 AM -15.1°F-26.2°C -20.8°F-29.3°C 75% 3.0 mph NW4.8 kmh NW -- 30.47 in1031.8 mb 0.00 in0.0 mm 0.00 in0.0 mm 0.00 in0.0 mm
09:49 AM -15.0°F-26.1°C -20.6°F-29.2°C 75% 2.0 mph NW3.2 kmh NW -- 30.48 in1032.2 mb 0.00 in0.0 mm 0.00 in0.0 mm 0.00 in0.0 mm
09:50 AM -14.6°F-25.9°C -20.3°F-29.1°C 75% 3.0 mph NW4.8 kmh NW -- 30.47 in1031.8 mb 0.00 in0.0 mm 0.00 in0.0 mm 0.00 in0.0 mm
09:51 AM -14.3°F-25.7°C -19.9°F-28.8°C 75% 3.0 mph NNW4.8 kmh NNW -- 30.47 in1031.8 mb 0.00 in0.0 mm 0.00 in0.0 mm 0.00 in0.0 mm
09:52 AM -14.3°F-25.7°C -20.2°F-29.0°C 74% 2.0 mph NNW3.2 kmh NNW -- 30.48 in1032.2 mb 0.00 in0.0 mm 0.00 in0.0 mm 0.00 in0.0 mm
09:53 AM -14.3°F-25.7°C -20.2°F-29.0°C 74% 4.0 mph WNW6.4 kmh WNW -- 30.48 in1032.2 mb 0.00 in0.0 mm 0.00 in0.0 mm 0.00 in0.0 mm
09:54 AM -14.3°F-25.7°C -20.2°F-29.0°C 74% 3.0 mph NW4.8 kmh NW -- 30.48 in1032.2 mb 0.00 in0.0 mm 0.00 in0.0 mm 0.00 in0.0 mm
09:56 AM -14.6°F-25.9°C -20.5°F-29.2°C 74% 5.0 mph W8.0 kmh W -- 30.48 in1032.2 mb 0.00 in0.0 mm 0.00 in0.0 mm 0.00 in0.0 mm
09:57 AM -14.3°F-25.7°C -20.2°F-29.0°C 74% 4.0 mph WNW6.4 kmh WNW -- 30.48 in1032.2 mb 0.00 in0.0 mm 0.00 in0.0 mm 0.00 in0.0 mm
09:58 AM -14.3°F-25.7°C -20.2°F-29.0°C 74% 3.0 mph NW4.8 kmh NW -- 30.48 in1032.2 mb 0.00 in0.0 mm 0.00 in0.0 mm 0.00 in0.0 mm
09:59 AM -14.1°F-25.6°C -20.0°F-28.9°C 74% 3.0 mph NW4.8 kmh NW -- 30.48 in1032.2 mb 0.00 in0.0 mm 0.00 in0.0 mm 0.00 in0.0 mm
10:00 AM -14.1°F-25.6°C -20.3°F-29.1°C 73% 3.0 mph SW4.8 kmh SW -- 30.47 in1031.8 mb 0.00 in0.0 mm 0.00 in0.0 mm 0.00 in0.0 mm
10:01 AM -13.8°F-25.4°C -19.9°F-28.8°C 73% 6.0 mph SW9.7 kmh SW -- 30.47 in1031.8 mb 0.00 in0.0 mm 0.00 in0.0 mm 0.00 in0.0 mm
10:02 AM -13.6°F-25.3°C -19.7°F-28.7°C 73% 5.0 mph NW8.0 kmh NW -- 30.48 in1032.2 mb 0.00 in0.0 mm 0.00 in0.0 mm 0.00 in0.0 mm
10:03 AM -13.6°F-25.3°C -19.7°F-28.7°C 73% 6.0 mph WNW9.7 kmh WNW -- 30.48 in1032.2 mb 0.00 in0.0 mm 0.00 in0.0 mm 0.00 in0.0 mm
10:04 AM -13.5°F-25.3°C -19.7°F-28.7°C 73% 7.0 mph WNW11.3 kmh WNW -- 30.48 in1032.2 mb 0.00 in0.0 mm 0.00 in0.0 mm 0.00 in0.0 mm
10:05 AM -13.3°F-25.2°C -20.1°F-28.9°C 71% 4.0 mph NW6.4 kmh NW -- 30.47 in1031.8 mb 0.00 in0.0 mm 0.00 in0.0 mm 0.00 in0.0 mm
10:06 AM -13.5°F-25.3°C -20.3°F-29.1°C 71% 6.0 mph WNW9.7 kmh WNW -- 30.48 in1032.2 mb 0.00 in0.0 mm 0.00 in0.0 mm 0.00 in0.0 mm
10:07 AM -13.3°F-25.2°C -20.1°F-28.9°C 71% 5.0 mph WNW8.0 kmh WNW -- 30.47 in1031.8 mb 0.00 in0.0 mm 0.00 in0.0 mm 0.00 in0.0 mm
10:08 AM -13.1°F-25.1°C -19.9°F-28.8°C 71% 4.0 mph W6.4 kmh W -- 30.48 in1032.2 mb 0.00 in0.0 mm 0.00 in0.0 mm 0.00 in0.0 mm
10:09 AM -13.1°F-25.1°C -19.9°F-28.8°C 71% 6.0 mph NW9.7 kmh NW -- 30.48 in1032.2 mb 0.00 in0.0 mm 0.00 in0.0 mm 0.00 in0.0 mm
10:11 AM -12.9°F-24.9°C -19.9°F-28.8°C 70% 6.0 mph NNW9.7 kmh NNW -- 30.48 in1032.2 mb 0.00 in0.0 mm 0.00 in0.0 mm 0.00 in0.0 mm
10:12 AM -12.9°F-24.9°C -19.9°F-28.8°C 70% 5.0 mph NNW8.0 kmh NNW -- 30.48 in1032.2 mb 0.00 in0.0 mm 0.00 in0.0 mm 0.00 in0.0 mm
10:13 AM -12.9°F-24.9°C -19.9°F-28.8°C 70% 3.0 mph NNW4.8 kmh NNW -- 30.47 in1031.8 mb 0.00 in0.0 mm 0.00 in0.0 mm 0.00 in0.0 mm
10:14 AM -12.9°F-24.9°C -19.9°F-28.8°C 70% 6.0 mph WNW9.7 kmh WNW -- 30.48 in1032.2 mb 0.00 in0.0 mm 0.00 in0.0 mm 0.00 in0.0 mm
10:15 AM -12.9°F-24.9°C -19.9°F-28.8°C 70% 4.0 mph WNW6.4 kmh WNW -- 30.48 in1032.2 mb 0.00 in0.0 mm 0.00 in0.0 mm 0.00 in0.0 mm
10:16 AM -12.9°F-24.9°C -19.9°F-28.8°C 70% 3.0 mph WSW4.8 kmh WSW -- 30.48 in1032.2 mb 0.00 in0.0 mm 0.00 in0.0 mm 0.00 in0.0 mm
10:17 AM -12.9°F-24.9°C -19.9°F-28.8°C 70% 3.0 mph NNW4.8 kmh NNW -- 30.48 in1032.2 mb 0.00 in0.0 mm 0.00 in0.0 mm 0.00 in0.0 mm
10:18 AM -12.9°F-24.9°C -19.9°F-28.8°C 70% 4.0 mph W6.4 kmh W -- 30.48 in1032.2 mb 0.00 in0.0 mm 0.00 in0.0 mm 0.00 in0.0 mm
10:19 AM -12.9°F-24.9°C -19.9°F-28.8°C 70% 5.0 mph NNW8.0 kmh NNW -- 30.48 in1032.2 mb 0.00 in0.0 mm 0.00 in0.0 mm 0.00 in0.0 mm
10:20 AM -12.7°F-24.8°C -19.7°F-28.7°C 70% 4.0 mph WNW6.4 kmh WNW -- 30.48 in1032.2 mb 0.00 in0.0 mm 0.00 in0.0 mm 0.00 in0.0 mm
10:21 AM -12.5°F-24.7°C -19.5°F-28.6°C 70% 5.0 mph NW8.0 kmh NW -- 30.48 in1032.2 mb 0.00 in0.0 mm 0.00 in0.0 mm 0.00 in0.0 mm
10:22 AM -12.7°F-24.8°C -19.7°F-28.7°C 70% 6.0 mph W9.7 kmh W -- 30.48 in1032.2 mb 0.00 in0.0 mm 0.00 in0.0 mm 0.00 in0.0 mm
10:23 AM -12.7°F-24.8°C -19.7°F-28.7°C 70% 6.0 mph NW9.7 kmh NW -- 30.48 in1032.2 mb 0.00 in0.0 mm 0.00 in0.0 mm 0.00 in0.0 mm
10:24 AM -12.5°F-24.7°C -19.5°F-28.6°C 70% 5.0 mph NNW8.0 kmh NNW -- 30.48 in1032.2 mb 0.00 in0.0 mm 0.00 in0.0 mm 0.00 in0.0 mm
10:25 AM -12.5°F-24.7°C -19.5°F-28.6°C 70% 7.0 mph NW11.3 kmh NW -- 30.48 in1032.2 mb 0.00 in0.0 mm 0.00 in0.0 mm 0.00 in0.0 mm
10:26 AM -12.5°F-24.7°C -19.5°F-28.6°C 70% 5.0 mph NNW8.0 kmh NNW -- 30.48 in1032.2 mb 0.00 in0.0 mm 0.00 in0.0 mm 0.00 in0.0 mm
10:27 AM -12.5°F-24.7°C -19.8°F-28.8°C 69% 5.0 mph NNE8.0 kmh NNE -- 30.48 in1032.2 mb 0.00 in0.0 mm 0.00 in0.0 mm 0.00 in0.0 mm
10:28 AM -12.7°F-24.8°C -20.0°F-28.9°C 69% 6.0 mph NW9.7 kmh NW -- 30.48 in1032.2 mb 0.00 in0.0 mm 0.00 in0.0 mm 0.00 in0.0 mm
10:29 AM -12.7°F-24.8°C -20.0°F-28.9°C 69% 4.0 mph NW6.4 kmh NW -- 30.48 in1032.2 mb 0.00 in0.0 mm 0.00 in0.0 mm 0.00 in0.0 mm
10:30 AM -12.5°F-24.7°C -19.8°F-28.8°C 69% 4.0 mph NW6.4 kmh NW -- 30.48 in1032.2 mb 0.00 in0.0 mm 0.00 in0.0 mm 0.00 in0.0 mm
10:31 AM -12.5°F-24.7°C -19.8°F-28.8°C 69% 6.0 mph NW9.7 kmh NW -- 30.48 in1032.2 mb 0.00 in0.0 mm 0.00 in0.0 mm 0.00 in0.0 mm
10:32 AM -12.3°F-24.6°C -19.6°F-28.7°C 69% 5.0 mph WNW8.0 kmh WNW -- 30.48 in1032.2 mb 0.00 in0.0 mm 0.00 in0.0 mm 0.00 in0.0 mm
10:35 AM -12.3°F-24.6°C -19.6°F-28.7°C 69% 7.0 mph NW11.3 kmh NW -- 30.48 in1032.2 mb 0.00 in0.0 mm 0.00 in0.0 mm 0.00 in0.0 mm
10:36 AM -12.1°F-24.5°C -19.4°F-28.6°C 69% 6.0 mph NW9.7 kmh NW -- 30.48 in1032.2 mb 0.00 in0.0 mm 0.00 in0.0 mm 0.00 in0.0 mm
10:40 AM -12.1°F-24.5°C -19.4°F-28.6°C 69% 6.0 mph WNW9.7 kmh WNW -- 30.48 in1032.2 mb 0.00 in0.0 mm 0.00 in0.0 mm 0.00 in0.0 mm
10:41 AM -12.1°F-24.5°C -19.4°F-28.6°C 69% 7.0 mph NW11.3 kmh NW -- 30.48 in1032.2 mb 0.00 in0.0 mm 0.00 in0.0 mm 0.00 in0.0 mm
10:42 AM -11.6°F-24.2°C -19.2°F-28.4°C 68% 9.0 mph NW14.5 kmh NW -- 30.48 in1032.2 mb 0.00 in0.0 mm 0.00 in0.0 mm 0.00 in0.0 mm
10:46 AM -11.6°F-24.2°C -19.8°F-28.8°C 66% 7.0 mph NW11.3 kmh NW -- 30.48 in1032.2 mb 0.00 in0.0 mm 0.00 in0.0 mm 0.00 in0.0 mm
10:50 AM -11.3°F-24.1°C -19.6°F-28.7°C 66% 7.0 mph NNW11.3 kmh NNW -- 30.48 in1032.2 mb 0.00 in0.0 mm 0.00 in0.0 mm 0.00 in0.0 mm
10:51 AM -11.2°F-24.0°C -19.4°F-28.6°C 66% 7.0 mph NW11.3 kmh NW -- 30.48 in1032.2 mb 0.00 in0.0 mm 0.00 in0.0 mm 0.00 in0.0 mm
10:52 AM -11.2°F-24.0°C -19.4°F-28.6°C 66% 6.0 mph WNW9.7 kmh WNW -- 30.48 in1032.2 mb 0.00 in0.0 mm 0.00 in0.0 mm 0.00 in0.0 mm
10:55 AM -11.2°F-24.0°C -19.4°F-28.6°C 66% 8.0 mph WNW12.9 kmh WNW -- 30.48 in1032.2 mb 0.00 in0.0 mm 0.00 in0.0 mm 0.00 in0.0 mm
10:57 AM -11.2°F-24.0°C -19.4°F-28.6°C 66% 4.0 mph WNW6.4 kmh WNW -- 30.48 in1032.2 mb 0.00 in0.0 mm 0.00 in0.0 mm 0.00 in0.0 mm
11:00 AM -11.2°F-24.0°C -19.4°F-28.6°C 66% 9.0 mph NW14.5 kmh NW -- 30.48 in1032.2 mb 0.00 in0.0 mm 0.00 in0.0 mm 0.00 in0.0 mm
11:02 AM -11.0°F-23.9°C -19.0°F-28.3°C 67% 6.0 mph W9.7 kmh W -- 30.48 in1032.2 mb 0.00 in0.0 mm 0.00 in0.0 mm 0.00 in0.0 mm
11:03 AM -10.8°F-23.8°C -19.1°F-28.4°C 66% 5.0 mph W8.0 kmh W -- 30.49 in1032.5 mb 0.00 in0.0 mm 0.00 in0.0 mm 0.00 in0.0 mm
11:04 AM -10.8°F-23.8°C -19.1°F-28.4°C 66% 4.0 mph W6.4 kmh W -- 30.49 in1032.5 mb 0.00 in0.0 mm 0.00 in0.0 mm 0.00 in0.0 mm
11:05 AM -10.6°F-23.7°C -18.9°F-28.3°C 66% 6.0 mph NW9.7 kmh NW -- 30.49 in1032.5 mb 0.00 in0.0 mm 0.00 in0.0 mm 0.00 in0.0 mm
11:06 AM -10.6°F-23.7°C -18.9°F-28.3°C 66% 8.0 mph W12.9 kmh W -- 30.49 in1032.5 mb 0.00 in0.0 mm 0.00 in0.0 mm 0.00 in0.0 mm
11:07 AM -10.6°F-23.7°C -18.9°F-28.3°C 66% 9.0 mph NW14.5 kmh NW -- 30.48 in1032.2 mb 0.00 in0.0 mm 0.00 in0.0 mm 0.00 in0.0 mm
11:08 AM -10.4°F-23.6°C -18.7°F-28.2°C 66% 8.0 mph NNW12.9 kmh NNW -- 30.48 in1032.2 mb 0.00 in0.0 mm 0.00 in0.0 mm 0.00 in0.0 mm
11:09 AM -10.2°F-23.4°C -18.4°F-28.0°C 66% 7.0 mph NW11.3 kmh NW -- 30.48 in1032.2 mb 0.00 in0.0 mm 0.00 in0.0 mm 0.00 in0.0 mm
11:10 AM -10.2°F-23.4°C -18.7°F-28.2°C 65% 8.0 mph NW12.9 kmh NW -- 30.48 in1032.2 mb 0.00 in0.0 mm 0.00 in0.0 mm 0.00 in0.0 mm
11:11 AM -10.2°F-23.4°C -18.7°F-28.2°C 65% 8.0 mph WNW12.9 kmh WNW -- 30.49 in1032.5 mb 0.00 in0.0 mm 0.00 in0.0 mm 0.00 in0.0 mm
11:12 AM -10.2°F-23.4°C -18.7°F-28.2°C 65% 7.0 mph WNW11.3 kmh WNW -- 30.49 in1032.5 mb 0.00 in0.0 mm 0.00 in0.0 mm 0.00 in0.0 mm
11:13 AM -10.2°F-23.4°C -18.7°F-28.2°C 65% 4.0 mph WNW6.4 kmh WNW -- 30.49 in1032.5 mb 0.00 in0.0 mm 0.00 in0.0 mm 0.00 in0.0 mm
11:14 AM -10.2°F-23.4°C -18.7°F-28.2°C 65% 5.0 mph NNW8.0 kmh NNW -- 30.49 in1032.5 mb 0.00 in0.0 mm 0.00 in0.0 mm 0.00 in0.0 mm
11:15 AM -10.2°F-23.4°C -18.7°F-28.2°C 65% 9.0 mph WNW14.5 kmh WNW -- 30.49 in1032.5 mb 0.00 in0.0 mm 0.00 in0.0 mm 0.00 in0.0 mm
11:16 AM -10.0°F-23.3°C -18.5°F-28.1°C 65% 8.0 mph WNW12.9 kmh WNW -- 30.49 in1032.5 mb 0.00 in0.0 mm 0.00 in0.0 mm 0.00 in0.0 mm
11:17 AM -10.0°F-23.3°C -18.5°F-28.1°C 65% 5.0 mph W8.0 kmh W -- 30.49 in1032.5 mb 0.00 in0.0 mm 0.00 in0.0 mm 0.00 in0.0 mm
11:18 AM -9.8°F-23.2°C -18.4°F-28.0°C 65% 4.0 mph W6.4 kmh W -- 30.49 in1032.5 mb 0.00 in0.0 mm 0.00 in0.0 mm 0.00 in0.0 mm
11:20 AM -9.8°F-23.2°C -18.4°F-28.0°C 65% 5.0 mph NW8.0 kmh NW -- 30.49 in1032.5 mb 0.00 in0.0 mm 0.00 in0.0 mm 0.00 in0.0 mm
11:21 AM -9.8°F-23.2°C -18.4°F-28.0°C 65% 7.0 mph WNW11.3 kmh WNW -- 30.50 in1032.8 mb 0.00 in0.0 mm 0.00 in0.0 mm 0.00 in0.0 mm
11:22 AM -9.8°F-23.2°C -18.4°F-28.0°C 65% 7.0 mph W11.3 kmh W -- 30.50 in1032.8 mb 0.00 in0.0 mm 0.00 in0.0 mm 0.00 in0.0 mm
11:23 AM -9.8°F-23.2°C -18.4°F-28.0°C 65% 8.0 mph W12.9 kmh W -- 30.50 in1032.8 mb 0.00 in0.0 mm 0.00 in0.0 mm 0.00 in0.0 mm
11:24 AM -9.8°F-23.2°C -18.4°F-28.0°C 65% 4.0 mph W6.4 kmh W -- 30.50 in1032.8 mb 0.00 in0.0 mm 0.00 in0.0 mm 0.00 in0.0 mm
11:26 AM -9.6°F-23.1°C -18.2°F-27.9°C 65% 5.0 mph W8.0 kmh W -- 30.50 in1032.8 mb 0.00 in0.0 mm 0.00 in0.0 mm 0.00 in0.0 mm
11:27 AM -9.6°F-23.1°C -18.2°F-27.9°C 65% 6.0 mph W9.7 kmh W -- 30.50 in1032.8 mb 0.00 in0.0 mm 0.00 in0.0 mm 0.00 in0.0 mm
11:28 AM -9.6°F-23.1°C -18.2°F-27.9°C 65% 5.0 mph WNW8.0 kmh WNW -- 30.50 in1032.8 mb 0.00 in0.0 mm 0.00 in0.0 mm 0.00 in0.0 mm
11:34 AM -9.3°F-22.9°C -17.8°F-27.7°C 65% 4.0 mph NW6.4 kmh NW -- 30.50 in1032.8 mb 0.00 in0.0 mm 0.00 in0.0 mm 0.00 in0.0 mm
11:36 AM -9.3°F-22.9°C -17.8°F-27.7°C 65% 8.0 mph WNW12.9 kmh WNW -- 30.50 in1032.8 mb 0.00 in0.0 mm 0.00 in0.0 mm 0.00 in0.0 mm
11:37 AM -9.0°F-22.8°C -18.0°F-27.8°C 64% 7.0 mph WNW11.3 kmh WNW -- 30.50 in1032.8 mb 0.00 in0.0 mm 0.00 in0.0 mm 0.00 in0.0 mm
11:40 AM -8.8°F-22.7°C -18.1°F-27.8°C 63% 8.0 mph WNW12.9 kmh WNW -- 30.50 in1032.8 mb 0.00 in0.0 mm 0.00 in0.0 mm 0.00 in0.0 mm
11:43 AM -8.6°F-22.6°C -17.9°F-27.7°C 63% 4.0 mph WNW6.4 kmh WNW -- 30.50 in1032.8 mb 0.00 in0.0 mm 0.00 in0.0 mm 0.00 in0.0 mm
11:45 AM -8.6°F-22.6°C -17.9°F-27.7°C 63% 6.0 mph WNW9.7 kmh WNW -- 30.50 in1032.8 mb 0.00 in0.0 mm 0.00 in0.0 mm 0.00 in0.0 mm
11:46 AM -8.6°F-22.6°C -17.9°F-27.7°C 63% 5.0 mph WNW8.0 kmh WNW -- 30.50 in1032.8 mb 0.00 in0.0 mm 0.00 in0.0 mm 0.00 in0.0 mm
11:47 AM -8.9°F-22.7°C -17.8°F-27.7°C 64% 7.0 mph W11.3 kmh W -- 30.50 in1032.8 mb 0.00 in0.0 mm 0.00 in0.0 mm 0.00 in0.0 mm
11:48 AM -8.3°F-22.4°C -17.6°F-27.6°C 63% 6.0 mph W9.7 kmh W -- 30.51 in1033.2 mb 0.00 in0.0 mm 0.00 in0.0 mm 0.00 in0.0 mm
11:49 AM -8.1°F-22.3°C -17.4°F-27.4°C 63% 6.0 mph W9.7 kmh W -- 30.51 in1033.2 mb 0.00 in0.0 mm 0.00 in0.0 mm 0.00 in0.0 mm
11:51 AM -8.3°F-22.4°C -17.6°F-27.6°C 63% 8.0 mph W12.9 kmh W -- 30.51 in1033.2 mb 0.00 in0.0 mm 0.00 in0.0 mm 0.00 in0.0 mm
11:52 AM -8.5°F-22.5°C -17.5°F-27.5°C 64% 7.0 mph W11.3 kmh W -- 30.51 in1033.2 mb 0.00 in0.0 mm 0.00 in0.0 mm 0.00 in0.0 mm
11:53 AM -8.5°F-22.5°C -17.5°F-27.5°C 64% 6.0 mph WNW9.7 kmh WNW -- 30.51 in1033.2 mb 0.00 in0.0 mm 0.00 in0.0 mm 0.00 in0.0 mm
11:54 AM -8.5°F-22.5°C -17.5°F-27.5°C 64% 9.0 mph WNW14.5 kmh WNW -- 30.50 in1032.8 mb 0.00 in0.0 mm 0.00 in0.0 mm 0.00 in0.0 mm
11:55 AM -8.8°F-22.7°C -18.1°F-27.8°C 63% 7.0 mph WNW11.3 kmh WNW -- 30.51 in1033.2 mb 0.00 in0.0 mm 0.00 in0.0 mm 0.00 in0.0 mm
11:57 AM -8.9°F-22.7°C -17.8°F-27.7°C 64% 5.0 mph WNW8.0 kmh WNW -- 30.51 in1033.2 mb 0.00 in0.0 mm 0.00 in0.0 mm 0.00 in0.0 mm
11:58 AM -8.9°F-22.7°C -17.8°F-27.7°C 64% 8.0 mph W12.9 kmh W -- 30.51 in1033.2 mb 0.00 in0.0 mm 0.00 in0.0 mm 0.00 in0.0 mm
12:00 PM -8.8°F-22.7°C -17.5°F-27.5°C 65% 6.0 mph W9.7 kmh W -- 30.50 in1032.8 mb 0.00 in0.0 mm 0.00 in0.0 mm 0.00 in0.0 mm
12:01 PM -8.8°F-22.7°C -17.5°F-27.5°C 65% 7.0 mph WNW11.3 kmh WNW -- 30.50 in1032.8 mb 0.00 in0.0 mm 0.00 in0.0 mm 0.00 in0.0 mm
12:02 PM -8.9°F-22.7°C -17.5°F-27.5°C 65% 8.0 mph W12.9 kmh W -- 30.51 in1033.2 mb 0.00 in0.0 mm 0.00 in0.0 mm 0.00 in0.0 mm
12:04 PM -8.9°F-22.7°C -17.5°F-27.5°C 65% 6.0 mph W9.7 kmh W -- 30.51 in1033.2 mb 0.00 in0.0 mm 0.00 in0.0 mm 0.00 in0.0 mm
12:05 PM -9.1°F-22.8°C -17.7°F-27.6°C 65% 5.0 mph W8.0 kmh W -- 30.50 in1032.8 mb 0.00 in0.0 mm 0.00 in0.0 mm 0.00 in0.0 mm
12:07 PM -9.0°F-22.8°C -17.4°F-27.4°C 66% 4.0 mph W6.4 kmh W -- 30.50 in1032.8 mb 0.00 in0.0 mm 0.00 in0.0 mm 0.00 in0.0 mm
12:11 PM -9.1°F-22.8°C -17.7°F-27.6°C 65% 8.0 mph W12.9 kmh W -- 30.51 in1033.2 mb 0.00 in0.0 mm 0.00 in0.0 mm 0.00 in0.0 mm
12:12 PM -9.3°F-22.9°C -17.8°F-27.7°C 65% 7.0 mph W11.3 kmh W -- 30.51 in1033.2 mb 0.00 in0.0 mm 0.00 in0.0 mm 0.00 in0.0 mm
12:14 PM -9.3°F-22.9°C -17.8°F-27.7°C 65% 10.0 mph W16.1 kmh W -- 30.50 in1032.8 mb 0.00 in0.0 mm 0.00 in0.0 mm 0.00 in0.0 mm
12:16 PM -9.1°F-22.8°C -17.7°F-27.6°C 65% 6.0 mph W9.7 kmh W -- 30.51 in1033.2 mb 0.00 in0.0 mm 0.00 in0.0 mm 0.00 in0.0 mm
12:17 PM -9.2°F-22.9°C -17.8°F-27.7°C 65% 7.0 mph WSW11.3 kmh WSW -- 30.51 in1033.2 mb 0.00 in0.0 mm 0.00 in0.0 mm 0.00 in0.0 mm
12:18 PM -9.0°F-22.8°C -17.7°F-27.6°C 65% 9.0 mph WSW14.5 kmh WSW -- 30.51 in1033.2 mb 0.00 in0.0 mm 0.00 in0.0 mm 0.00 in0.0 mm
12:20 PM -8.8°F-22.7°C -17.5°F-27.5°C 65% 7.0 mph W11.3 kmh W -- 30.51 in1033.2 mb 0.00 in0.0 mm 0.00 in0.0 mm 0.00 in0.0 mm
12:21 PM -8.6°F-22.6°C -17.3°F-27.4°C 65% 7.0 mph W11.3 kmh W -- 30.51 in1033.2 mb 0.00 in0.0 mm 0.00 in0.0 mm 0.00 in0.0 mm
12:22 PM -8.5°F-22.5°C -17.2°F-27.3°C 65% 6.0 mph W9.7 kmh W -- 30.51 in1033.2 mb 0.00 in0.0 mm 0.00 in0.0 mm 0.00 in0.0 mm
12:23 PM -8.5°F-22.5°C -17.2°F-27.3°C 65% 6.0 mph WNW9.7 kmh WNW -- 30.52 in1033.5 mb 0.00 in0.0 mm 0.00 in0.0 mm 0.00 in0.0 mm
12:24 PM -8.3°F-22.4°C -17.0°F-27.2°C 65% 10.0 mph W16.1 kmh W -- 30.51 in1033.2 mb 0.00 in0.0 mm 0.00 in0.0 mm 0.00 in0.0 mm
12:25 PM -8.3°F-22.4°C -17.0°F-27.2°C 65% 6.0 mph W9.7 kmh W -- 30.51 in1033.2 mb 0.00 in0.0 mm 0.00 in0.0 mm 0.00 in0.0 mm
12:26 PM -8.3°F-22.4°C -17.0°F-27.2°C 65% 5.0 mph W8.0 kmh W -- 30.51 in1033.2 mb 0.00 in0.0 mm 0.00 in0.0 mm 0.00 in0.0 mm
12:27 PM -8.3°F-22.4°C -17.0°F-27.2°C 65% 6.0 mph W9.7 kmh W -- 30.52 in1033.5 mb 0.00 in0.0 mm 0.00 in0.0 mm 0.00 in0.0 mm
12:28 PM -8.3°F-22.4°C -17.0°F-27.2°C 65% 6.0 mph NNW9.7 kmh NNW -- 30.52 in1033.5 mb 0.00 in0.0 mm 0.00 in0.0 mm 0.00 in0.0 mm
12:29 PM -8.3°F-22.4°C -17.0°F-27.2°C 65% 7.0 mph W11.3 kmh W -- 30.52 in1033.5 mb 0.00 in0.0 mm 0.00 in0.0 mm 0.00 in0.0 mm
12:30 PM -8.3°F-22.4°C -17.0°F-27.2°C 65% 5.0 mph W8.0 kmh W -- 30.51 in1033.2 mb 0.00 in0.0 mm 0.00 in0.0 mm 0.00 in0.0 mm
12:31 PM -8.1°F-22.3°C -16.8°F-27.1°C 65% 7.0 mph W11.3 kmh W -- 30.51 in1033.2 mb 0.00 in0.0 mm 0.00 in0.0 mm 0.00 in0.0 mm
12:32 PM -8.3°F-22.4°C -17.0°F-27.2°C 65% 9.0 mph W14.5 kmh W -- 30.51 in1033.2 mb 0.00 in0.0 mm 0.00 in0.0 mm 0.00 in0.0 mm
12:33 PM -8.3°F-22.4°C -17.0°F-27.2°C 65% 4.0 mph W6.4 kmh W -- 30.51 in1033.2 mb 0.00 in0.0 mm 0.00 in0.0 mm 0.00 in0.0 mm
12:34 PM -8.3°F-22.4°C -17.0°F-27.2°C 65% 8.0 mph WNW12.9 kmh WNW -- 30.51 in1033.2 mb 0.00 in0.0 mm 0.00 in0.0 mm 0.00 in0.0 mm
12:35 PM -8.5°F-22.5°C -17.2°F-27.3°C 65% 5.0 mph W8.0 kmh W -- 30.51 in1033.2 mb 0.00 in0.0 mm 0.00 in0.0 mm 0.00 in0.0 mm
12:36 PM -8.5°F-22.5°C -17.2°F-27.3°C 65% 9.0 mph W14.5 kmh W -- 30.51 in1033.2 mb 0.00 in0.0 mm 0.00 in0.0 mm 0.00 in0.0 mm
12:37 PM -8.5°F-22.5°C -17.2°F-27.3°C 65% 8.0 mph W12.9 kmh W -- 30.52 in1033.5 mb 0.00 in0.0 mm 0.00 in0.0 mm 0.00 in0.0 mm
12:38 PM -8.3°F-22.4°C -17.0°F-27.2°C 65% 6.0 mph WNW9.7 kmh WNW -- 30.52 in1033.5 mb 0.00 in0.0 mm 0.00 in0.0 mm 0.00 in0.0 mm
12:39 PM -8.1°F-22.3°C -16.8°F-27.1°C 65% 5.0 mph ESE8.0 kmh ESE -- 30.52 in1033.5 mb 0.00 in0.0 mm 0.00 in0.0 mm 0.00 in0.0 mm
12:40 PM -8.1°F-22.3°C -16.8°F-27.1°C 65% 6.0 mph WNW9.7 kmh WNW -- 30.52 in1033.5 mb 0.00 in0.0 mm 0.00 in0.0 mm 0.00 in0.0 mm
12:41 PM -7.8°F-22.1°C -17.1°F-27.3°C 63% 5.0 mph WNW8.0 kmh WNW -- 30.52 in1033.5 mb 0.00 in0.0 mm 0.00 in0.0 mm 0.00 in0.0 mm
12:42 PM -7.5°F-21.9°C -16.7°F-27.1°C 63% 7.0 mph W11.3 kmh W -- 30.52 in1033.5 mb 0.00 in0.0 mm 0.00 in0.0 mm 0.00 in0.0 mm
12:43 PM -7.5°F-21.9°C -16.7°F-27.1°C 63% 5.0 mph WSW8.0 kmh WSW -- 30.52 in1033.5 mb 0.00 in0.0 mm 0.00 in0.0 mm 0.00 in0.0 mm
12:44 PM -7.8°F-22.1°C -17.1°F-27.3°C 63% 5.0 mph W8.0 kmh W -- 30.52 in1033.5 mb 0.00 in0.0 mm 0.00 in0.0 mm 0.00 in0.0 mm
12:45 PM -7.5°F-21.9°C -16.7°F-27.1°C 63% 7.0 mph WNW11.3 kmh WNW -- 30.52 in1033.5 mb 0.00 in0.0 mm 0.00 in0.0 mm 0.00 in0.0 mm
12:46 PM -7.5°F-21.9°C -16.7°F-27.1°C 63% 4.0 mph W6.4 kmh W -- 30.52 in1033.5 mb 0.00 in0.0 mm 0.00 in0.0 mm 0.00 in0.0 mm
12:47 PM -7.5°F-21.9°C -16.7°F-27.1°C 63% 5.0 mph WNW8.0 kmh WNW -- 30.52 in1033.5 mb 0.00 in0.0 mm 0.00 in0.0 mm 0.00 in0.0 mm
12:48 PM -7.5°F-21.9°C -16.7°F-27.1°C 63% 4.0 mph W6.4 kmh W -- 30.52 in1033.5 mb 0.00 in0.0 mm 0.00 in0.0 mm 0.00 in0.0 mm
12:49 PM -7.5°F-21.9°C -16.7°F-27.1°C 63% 8.0 mph W12.9 kmh W -- 30.52 in1033.5 mb 0.00 in0.0 mm 0.00 in0.0 mm 0.00 in0.0 mm
12:50 PM -7.5°F-21.9°C -16.7°F-27.1°C 63% 7.0 mph W11.3 kmh W -- 30.52 in1033.5 mb 0.00 in0.0 mm 0.00 in0.0 mm 0.00 in0.0 mm
12:51 PM -7.5°F-21.9°C -16.7°F-27.1°C 63% 4.0 mph SW6.4 kmh SW -- 30.52 in1033.5 mb 0.00 in0.0 mm 0.00 in0.0 mm 0.00 in0.0 mm
12:52 PM -7.0°F-21.7°C -16.4°F-26.9°C 63% 6.0 mph W9.7 kmh W -- 30.53 in1033.9 mb 0.00 in0.0 mm 0.00 in0.0 mm 0.00 in0.0 mm
12:53 PM -7.0°F-21.7°C -16.4°F-26.9°C 63% 7.0 mph W11.3 kmh W -- 30.53 in1033.9 mb 0.00 in0.0 mm 0.00 in0.0 mm 0.00 in0.0 mm
12:54 PM -7.0°F-21.7°C -16.4°F-26.9°C 63% 9.0 mph W14.5 kmh W -- 30.53 in1033.9 mb 0.00 in0.0 mm 0.00 in0.0 mm 0.00 in0.0 mm
12:55 PM -7.4°F-21.9°C -16.7°F-27.1°C 63% 8.0 mph NW12.9 kmh NW -- 30.52 in1033.5 mb 0.00 in0.0 mm 0.00 in0.0 mm 0.00 in0.0 mm
12:56 PM -7.5°F-21.9°C -16.7°F-27.1°C 63% 10.0 mph WNW16.1 kmh WNW -- 30.53 in1033.9 mb 0.00 in0.0 mm 0.00 in0.0 mm 0.00 in0.0 mm
12:57 PM -7.5°F-21.9°C -16.7°F-27.1°C 63% 5.0 mph W8.0 kmh W -- 30.53 in1033.9 mb 0.00 in0.0 mm 0.00 in0.0 mm 0.00 in0.0 mm
12:58 PM -7.5°F-21.9°C -16.7°F-27.1°C 63% 9.0 mph W14.5 kmh W -- 30.53 in1033.9 mb 0.00 in0.0 mm 0.00 in0.0 mm 0.00 in0.0 mm
12:59 PM -7.4°F-21.9°C -16.7°F-27.1°C 63% 6.0 mph WSW9.7 kmh WSW -- 30.52 in1033.5 mb 0.00 in0.0 mm 0.00 in0.0 mm 0.00 in0.0 mm
01:00 PM -7.1°F-21.7°C -16.4°F-26.9°C 63% 5.0 mph WNW8.0 kmh WNW -- 30.52 in1033.5 mb 0.00 in0.0 mm 0.00 in0.0 mm 0.00 in0.0 mm
01:01 PM -6.9°F-21.6°C -16.2°F-26.8°C 63% 6.0 mph WSW9.7 kmh WSW -- 30.53 in1033.9 mb 0.00 in0.0 mm 0.00 in0.0 mm 0.00 in0.0 mm
01:02 PM -6.6°F-21.4°C -15.9°F-26.6°C 63% 4.0 mph W6.4 kmh W -- 30.53 in1033.9 mb 0.00 in0.0 mm 0.00 in0.0 mm 0.00 in0.0 mm
01:03 PM -6.6°F-21.4°C -15.9°F-26.6°C 63% 6.0 mph W9.7 kmh W -- 30.53 in1033.9 mb 0.00 in0.0 mm 0.00 in0.0 mm 0.00 in0.0 mm
01:05 PM -6.3°F-21.3°C -15.7°F-26.5°C 63% 5.0 mph NW8.0 kmh NW -- 30.53 in1033.9 mb 0.00 in0.0 mm 0.00 in0.0 mm 0.00 in0.0 mm
01:06 PM -6.3°F-21.3°C -15.7°F-26.5°C 63% 8.0 mph WNW12.9 kmh WNW -- 30.53 in1033.9 mb 0.00 in0.0 mm 0.00 in0.0 mm 0.00 in0.0 mm
01:07 PM -6.5°F-21.4°C -16.5°F-26.9°C 61% 9.0 mph WNW14.5 kmh WNW -- 30.53 in1033.9 mb 0.00 in0.0 mm 0.00 in0.0 mm 0.00 in0.0 mm
01:08 PM -6.5°F-21.4°C -16.5°F-26.9°C 61% 7.0 mph NW11.3 kmh NW -- 30.53 in1033.9 mb 0.00 in0.0 mm 0.00 in0.0 mm 0.00 in0.0 mm
01:09 PM -6.6°F-21.4°C -16.5°F-26.9°C 61% 7.0 mph WNW11.3 kmh WNW -- 30.52 in1033.5 mb 0.00 in0.0 mm 0.00 in0.0 mm 0.00 in0.0 mm
01:10 PM -6.6°F-21.4°C -16.5°F-26.9°C 61% 6.0 mph WNW9.7 kmh WNW -- 30.52 in1033.5 mb 0.00 in0.0 mm 0.00 in0.0 mm 0.00 in0.0 mm
01:11 PM -6.6°F-21.4°C -16.5°F-26.9°C 61% 6.0 mph W9.7 kmh W -- 30.52 in1033.5 mb 0.00 in0.0 mm 0.00 in0.0 mm 0.00 in0.0 mm
01:12 PM -6.6°F-21.4°C -16.5°F-26.9°C 61% 8.0 mph NW12.9 kmh NW -- 30.52 in1033.5 mb 0.00 in0.0 mm 0.00 in0.0 mm 0.00 in0.0 mm
01:13 PM -6.9°F-21.6°C -16.9°F-27.2°C 61% 6.0 mph WNW9.7 kmh WNW -- 30.52 in1033.5 mb 0.00 in0.0 mm 0.00 in0.0 mm 0.00 in0.0 mm
01:14 PM -6.9°F-21.6°C -16.9°F-27.2°C 61% 9.0 mph WNW14.5 kmh WNW -- 30.52 in1033.5 mb 0.00 in0.0 mm 0.00 in0.0 mm 0.00 in0.0 mm
01:15 PM -6.9°F-21.6°C -16.9°F-27.2°C 61% 8.0 mph W12.9 kmh W -- 30.52 in1033.5 mb 0.00 in0.0 mm 0.00 in0.0 mm 0.00 in0.0 mm
01:16 PM -7.0°F-21.7°C -17.0°F-27.2°C 61% 6.0 mph W9.7 kmh W -- 30.52 in1033.5 mb 0.00 in0.0 mm 0.00 in0.0 mm 0.00 in0.0 mm
01:17 PM -7.0°F-21.7°C -16.4°F-26.9°C 63% 7.0 mph W11.3 kmh W -- 30.53 in1033.9 mb 0.00 in0.0 mm 0.00 in0.0 mm 0.00 in0.0 mm
01:18 PM -7.0°F-21.7°C -16.4°F-26.9°C 63% 9.0 mph W14.5 kmh W -- 30.52 in1033.5 mb 0.00 in0.0 mm 0.00 in0.0 mm 0.00 in0.0 mm
01:19 PM -7.1°F-21.7°C -16.4°F-26.9°C 63% 6.0 mph NW9.7 kmh NW -- 30.53 in1033.9 mb 0.00 in0.0 mm 0.00 in0.0 mm 0.00 in0.0 mm
01:20 PM -7.1°F-21.7°C -16.4°F-26.9°C 63% 10.0 mph WNW16.1 kmh WNW -- 30.52 in1033.5 mb 0.00 in0.0 mm 0.00 in0.0 mm 0.00 in0.0 mm
01:21 PM -7.1°F-21.7°C -16.4°F-26.9°C 63% 8.0 mph W12.9 kmh W -- 30.53 in1033.9 mb 0.00 in0.0 mm 0.00 in0.0 mm 0.00 in0.0 mm
01:22 PM -7.0°F-21.7°C -16.4°F-26.9°C 63% 9.0 mph W14.5 kmh W -- 30.53 in1033.9 mb 0.00 in0.0 mm 0.00 in0.0 mm 0.00 in0.0 mm
01:23 PM -7.0°F-21.7°C -16.4°F-26.9°C 63% 6.0 mph W9.7 kmh W -- 30.53 in1033.9 mb 0.00 in0.0 mm 0.00 in0.0 mm 0.00 in0.0 mm
01:24 PM -7.0°F-21.7°C -16.4°F-26.9°C 63% 7.0 mph W11.3 kmh W -- 30.52 in1033.5 mb 0.00 in0.0 mm 0.00 in0.0 mm 0.00 in0.0 mm
01:25 PM -7.1°F-21.7°C -16.4°F-26.9°C 63% 11.0 mph WNW17.7 kmh WNW -- 30.52 in1033.5 mb 0.00 in0.0 mm 0.00 in0.0 mm 0.00 in0.0 mm
01:26 PM -7.4°F-21.9°C -16.7°F-27.1°C 63% 7.0 mph W11.3 kmh W -- 30.53 in1033.9 mb 0.00 in0.0 mm 0.00 in0.0 mm 0.00 in0.0 mm
01:29 PM -7.1°F-21.7°C -16.4°F-26.9°C 63% 6.0 mph SW9.7 kmh SW -- 30.53 in1033.9 mb 0.00 in0.0 mm 0.00 in0.0 mm 0.00 in0.0 mm
01:30 PM -7.0°F-21.7°C -16.4°F-26.9°C 63% 7.0 mph W11.3 kmh W -- 30.53 in1033.9 mb 0.00 in0.0 mm 0.00 in0.0 mm 0.00 in0.0 mm
01:31 PM -7.0°F-21.7°C -16.4°F-26.9°C 63% 6.0 mph W9.7 kmh W -- 30.53 in1033.9 mb 0.00 in0.0 mm 0.00 in0.0 mm 0.00 in0.0 mm
01:32 PM -6.6°F-21.4°C -15.9°F-26.6°C 63% 7.0 mph W11.3 kmh W -- 30.53 in1033.9 mb 0.00 in0.0 mm 0.00 in0.0 mm 0.00 in0.0 mm
01:33 PM -6.6°F-21.4°C -15.9°F-26.6°C 63% 7.0 mph WSW11.3 kmh WSW -- 30.53 in1033.9 mb 0.00 in0.0 mm 0.00 in0.0 mm 0.00 in0.0 mm
01:34 PM -6.5°F-21.4°C -15.9°F-26.6°C 63% 7.0 mph NW11.3 kmh NW -- 30.53 in1033.9 mb 0.00 in0.0 mm 0.00 in0.0 mm 0.00 in0.0 mm
01:35 PM -6.6°F-21.4°C -15.9°F-26.6°C 63% 9.0 mph WNW14.5 kmh WNW -- 30.53 in1033.9 mb 0.00 in0.0 mm 0.00 in0.0 mm 0.00 in0.0 mm
01:36 PM -6.9°F-21.6°C -16.2°F-26.8°C 63% 8.0 mph W12.9 kmh W -- 30.53 in1033.9 mb 0.00 in0.0 mm 0.00 in0.0 mm 0.00 in0.0 mm
01:37 PM -6.9°F-21.6°C -16.2°F-26.8°C 63% 10.0 mph W16.1 kmh W -- 30.53 in1033.9 mb 0.00 in0.0 mm 0.00 in0.0 mm 0.00 in0.0 mm
01:38 PM -7.0°F-21.7°C -16.4°F-26.9°C 63% 9.0 mph W14.5 kmh W -- 30.53 in1033.9 mb 0.00 in0.0 mm 0.00 in0.0 mm 0.00 in0.0 mm
01:39 PM -7.0°F-21.7°C -16.4°F-26.9°C 63% 7.0 mph W11.3 kmh W -- 30.53 in1033.9 mb 0.00 in0.0 mm 0.00 in0.0 mm 0.00 in0.0 mm
01:40 PM -7.0°F-21.7°C -16.4°F-26.9°C 63% 10.0 mph W16.1 kmh W -- 30.52 in1033.5 mb 0.00 in0.0 mm 0.00 in0.0 mm 0.00 in0.0 mm
01:41 PM -7.0°F-21.7°C -16.4°F-26.9°C 63% 7.0 mph W11.3 kmh W -- 30.53 in1033.9 mb 0.00 in0.0 mm 0.00 in0.0 mm 0.00 in0.0 mm
01:42 PM -7.0°F-21.7°C -16.4°F-26.9°C 63% 5.0 mph W8.0 kmh W -- 30.53 in1033.9 mb 0.00 in0.0 mm 0.00 in0.0 mm 0.00 in0.0 mm
01:43 PM -6.9°F-21.6°C -16.2°F-26.8°C 63% 8.0 mph W12.9 kmh W -- 30.53 in1033.9 mb 0.00 in0.0 mm 0.00 in0.0 mm 0.00 in0.0 mm
01:44 PM -6.6°F-21.4°C -15.9°F-26.6°C 63% 7.0 mph WNW11.3 kmh WNW -- 30.52 in1033.5 mb 0.00 in0.0 mm 0.00 in0.0 mm 0.00 in0.0 mm
01:45 PM -6.6°F-21.4°C -15.9°F-26.6°C 63% 6.0 mph W9.7 kmh W -- 30.53 in1033.9 mb 0.00 in0.0 mm 0.00 in0.0 mm 0.00 in0.0 mm
01:46 PM -6.6°F-21.4°C -15.9°F-26.6°C 63% 8.0 mph WNW12.9 kmh WNW -- 30.52 in1033.5 mb 0.00 in0.0 mm 0.00 in0.0 mm 0.00 in0.0 mm
01:47 PM -6.9°F-21.6°C -16.2°F-26.8°C 63% 7.0 mph WNW11.3 kmh WNW -- 30.53 in1033.9 mb 0.00 in0.0 mm 0.00 in0.0 mm 0.00 in0.0 mm
01:48 PM -6.9°F-21.6°C -16.2°F-26.8°C 63% 11.0 mph WNW17.7 kmh WNW -- 30.52 in1033.5 mb 0.00 in0.0 mm 0.00 in0.0 mm 0.00 in0.0 mm
01:49 PM -7.1°F-21.7°C -16.4°F-26.9°C 63% 12.0 mph W19.3 kmh W -- 30.53 in1033.9 mb 0.00 in0.0 mm 0.00 in0.0 mm 0.00 in0.0 mm
01:50 PM -7.4°F-21.9°C -17.4°F-27.4°C 61% 7.0 mph WNW11.3 kmh WNW -- 30.53 in1033.9 mb 0.00 in0.0 mm 0.00 in0.0 mm 0.00 in0.0 mm
01:51 PM -7.1°F-21.7°C -16.4°F-26.9°C 63% 9.0 mph NW14.5 kmh NW -- 30.53 in1033.9 mb 0.00 in0.0 mm 0.00 in0.0 mm 0.00 in0.0 mm
01:52 PM -6.9°F-21.6°C -16.2°F-26.8°C 63% 7.0 mph W11.3 kmh W -- 30.53 in1033.9 mb 0.00 in0.0 mm 0.00 in0.0 mm 0.00 in0.0 mm
01:53 PM -6.6°F-21.4°C -15.9°F-26.6°C 63% 5.0 mph W8.0 kmh W -- 30.53 in1033.9 mb 0.00 in0.0 mm 0.00 in0.0 mm 0.00 in0.0 mm
01:54 PM -6.5°F-21.4°C -15.9°F-26.6°C 63% 6.0 mph W9.7 kmh W -- 30.53 in1033.9 mb 0.00 in0.0 mm 0.00 in0.0 mm 0.00 in0.0 mm
01:55 PM -6.5°F-21.4°C -15.9°F-26.6°C 63% 10.0 mph WNW16.1 kmh WNW -- 30.53 in1033.9 mb 0.00 in0.0 mm 0.00 in0.0 mm 0.00 in0.0 mm
01:56 PM -6.6°F-21.4°C -15.9°F-26.6°C 63% 10.0 mph W16.1 kmh W -- 30.53 in1033.9 mb 0.00 in0.0 mm 0.00 in0.0 mm 0.00 in0.0 mm
01:57 PM -6.9°F-21.6°C -16.9°F-27.2°C 61% 8.0 mph W12.9 kmh W -- 30.53 in1033.9 mb 0.00 in0.0 mm 0.00 in0.0 mm 0.00 in0.0 mm
01:58 PM -7.1°F-21.7°C -17.0°F-27.2°C 61% 7.0 mph W11.3 kmh W -- 30.52 in1033.5 mb 0.00 in0.0 mm 0.00 in0.0 mm 0.00 in0.0 mm
01:59 PM -7.1°F-21.7°C -17.0°F-27.2°C 61% 11.0 mph NW17.7 kmh NW -- 30.53 in1033.9 mb 0.00 in0.0 mm 0.00 in0.0 mm 0.00 in0.0 mm
02:00 PM -7.1°F-21.7°C -17.0°F-27.2°C 61% 5.0 mph NW8.0 kmh NW -- 30.53 in1033.9 mb 0.00 in0.0 mm 0.00 in0.0 mm 0.00 in0.0 mm
02:01 PM -6.9°F-21.6°C -16.9°F-27.2°C 61% 7.0 mph W11.3 kmh W -- 30.53 in1033.9 mb 0.00 in0.0 mm 0.00 in0.0 mm 0.00 in0.0 mm
02:02 PM -6.5°F-21.4°C -16.5°F-26.9°C 61% 7.0 mph WNW11.3 kmh WNW -- 30.53 in1033.9 mb 0.00 in0.0 mm 0.00 in0.0 mm 0.00 in0.0 mm
02:03 PM -6.3°F-21.3°C -15.7°F-26.5°C 63% 6.0 mph WNW9.7 kmh WNW -- 30.53 in1033.9 mb 0.00 in0.0 mm 0.00 in0.0 mm 0.00 in0.0 mm
02:04 PM -6.3°F-21.3°C -15.7°F-26.5°C 63% 8.0 mph W12.9 kmh W -- 30.53 in1033.9 mb 0.00 in0.0 mm 0.00 in0.0 mm 0.00 in0.0 mm
02:05 PM -6.3°F-21.3°C -15.7°F-26.5°C 63% 10.0 mph W16.1 kmh W -- 30.53 in1033.9 mb 0.00 in0.0 mm 0.00 in0.0 mm 0.00 in0.0 mm
02:06 PM -6.5°F-21.4°C -16.5°F-26.9°C 61% 6.0 mph W9.7 kmh W -- 30.53 in1033.9 mb 0.00 in0.0 mm 0.00 in0.0 mm 0.00 in0.0 mm
02:07 PM -6.7°F-21.5°C -16.4°F-26.9°C 62% 7.0 mph WNW11.3 kmh WNW -- 30.53 in1033.9 mb 0.00 in0.0 mm 0.00 in0.0 mm 0.00 in0.0 mm
02:08 PM -6.3°F-21.3°C -16.4°F-26.9°C 61% 9.0 mph W14.5 kmh W -- 30.53 in1033.9 mb 0.00 in0.0 mm 0.00 in0.0 mm 0.00 in0.0 mm
02:09 PM -6.5°F-21.4°C -16.5°F-26.9°C 61% 6.0 mph W9.7 kmh W -- 30.52 in1033.5 mb 0.00 in0.0 mm 0.00 in0.0 mm 0.00 in0.0 mm
02:10 PM -6.5°F-21.4°C -16.5°F-26.9°C 61% 9.0 mph W14.5 kmh W -- 30.53 in1033.9 mb 0.00 in0.0 mm 0.00 in0.0 mm 0.00 in0.0 mm
02:11 PM -6.5°F-21.4°C -16.5°F-26.9°C 61% 5.0 mph SSW8.0 kmh SSW -- 30.53 in1033.9 mb 0.00 in0.0 mm 0.00 in0.0 mm 0.00 in0.0 mm
02:12 PM -6.1°F-21.2°C -15.5°F-26.4°C 63% 7.0 mph W11.3 kmh W -- 30.53 in1033.9 mb 0.00 in0.0 mm 0.00 in0.0 mm 0.00 in0.0 mm
02:13 PM -6.0°F-21.1°C -15.4°F-26.3°C 63% 6.0 mph W9.7 kmh W -- 30.53 in1033.9 mb 0.00 in0.0 mm 0.00 in0.0 mm 0.00 in0.0 mm
02:14 PM -5.5°F-20.8°C -14.9°F-26.1°C 63% 10.0 mph SSW16.1 kmh SSW -- 30.53 in1033.9 mb 0.00 in0.0 mm 0.00 in0.0 mm 0.00 in0.0 mm
02:15 PM -5.5°F-20.8°C -15.5°F-26.4°C 61% 6.0 mph W9.7 kmh W -- 30.52 in1033.5 mb 0.00 in0.0 mm 0.00 in0.0 mm 0.00 in0.0 mm
02:16 PM -5.8°F-21.0°C -15.8°F-26.6°C 61% 7.0 mph NW11.3 kmh NW -- 30.53 in1033.9 mb 0.00 in0.0 mm 0.00 in0.0 mm 0.00 in0.0 mm
02:17 PM -5.8°F-21.0°C -15.8°F-26.6°C 61% 5.0 mph WNW8.0 kmh WNW -- 30.52 in1033.5 mb 0.00 in0.0 mm 0.00 in0.0 mm 0.00 in0.0 mm
02:18 PM -5.4°F-20.8°C -15.5°F-26.4°C 61% 5.0 mph W8.0 kmh W -- 30.53 in1033.9 mb 0.00 in0.0 mm 0.00 in0.0 mm 0.00 in0.0 mm
02:19 PM -5.4°F-20.8°C -15.5°F-26.4°C 61% 10.0 mph W16.1 kmh W -- 30.53 in1033.9 mb 0.00 in0.0 mm 0.00 in0.0 mm 0.00 in0.0 mm
02:20 PM -5.8°F-21.0°C -16.2°F-26.8°C 60% 8.0 mph W12.9 kmh W -- 30.53 in1033.9 mb 0.00 in0.0 mm 0.00 in0.0 mm 0.00 in0.0 mm
02:21 PM -5.8°F-21.0°C -16.2°F-26.8°C 60% 6.0 mph W9.7 kmh W -- 30.52 in1033.5 mb 0.00 in0.0 mm 0.00 in0.0 mm 0.00 in0.0 mm
02:22 PM -5.8°F-21.0°C -16.2°F-26.8°C 60% 9.0 mph W14.5 kmh W -- 30.53 in1033.9 mb 0.00 in0.0 mm 0.00 in0.0 mm 0.00 in0.0 mm
02:23 PM -5.5°F-20.8°C -15.8°F-26.6°C 60% 9.0 mph W14.5 kmh W -- 30.53 in1033.9 mb 0.00 in0.0 mm 0.00 in0.0 mm 0.00 in0.0 mm
02:24 PM -5.8°F-21.0°C -16.2°F-26.8°C 60% 8.0 mph WNW12.9 kmh WNW -- 30.52 in1033.5 mb 0.00 in0.0 mm 0.00 in0.0 mm 0.00 in0.0 mm
02:25 PM -5.8°F-21.0°C -16.2°F-26.8°C 60% 9.0 mph W14.5 kmh W -- 30.53 in1033.9 mb 0.00 in0.0 mm 0.00 in0.0 mm 0.00 in0.0 mm
02:26 PM -6.0°F-21.1°C -16.3°F-26.8°C 60% 8.0 mph WSW12.9 kmh WSW -- 30.53 in1033.9 mb 0.00 in0.0 mm 0.00 in0.0 mm 0.00 in0.0 mm
02:27 PM -6.0°F-21.1°C -16.3°F-26.8°C 60% 7.0 mph WNW11.3 kmh WNW -- 30.52 in1033.5 mb 0.00 in0.0 mm 0.00 in0.0 mm 0.00 in0.0 mm
02:28 PM -5.8°F-21.0°C -16.2°F-26.8°C 60% 8.0 mph NW12.9 kmh NW -- 30.53 in1033.9 mb 0.00 in0.0 mm 0.00 in0.0 mm 0.00 in0.0 mm
02:29 PM -5.8°F-21.0°C -15.8°F-26.6°C 61% 12.0 mph W19.3 kmh W -- 30.53 in1033.9 mb 0.00 in0.0 mm 0.00 in0.0 mm 0.00 in0.0 mm
02:30 PM -5.8°F-21.0°C -15.8°F-26.6°C 61% 6.0 mph W9.7 kmh W -- 30.53 in1033.9 mb 0.00 in0.0 mm 0.00 in0.0 mm 0.00 in0.0 mm
02:31 PM -6.0°F-21.1°C -16.3°F-26.8°C 60% 11.0 mph W17.7 kmh W -- 30.52 in1033.5 mb 0.00 in0.0 mm 0.00 in0.0 mm 0.00 in0.0 mm
02:32 PM -6.0°F-21.1°C -16.3°F-26.8°C 60% 9.0 mph WNW14.5 kmh WNW -- 30.52 in1033.5 mb 0.00 in0.0 mm 0.00 in0.0 mm 0.00 in0.0 mm
02:33 PM -6.1°F-21.2°C -16.8°F-27.1°C 59% 5.0 mph NW8.0 kmh NW -- 30.53 in1033.9 mb 0.00 in0.0 mm 0.00 in0.0 mm 0.00 in0.0 mm
02:34 PM -6.0°F-21.1°C -16.7°F-27.1°C 59% 10.0 mph W16.1 kmh W -- 30.53 in1033.9 mb 0.00 in0.0 mm 0.00 in0.0 mm 0.00 in0.0 mm
02:35 PM -6.1°F-21.2°C -16.8°F-27.1°C 59% 12.0 mph W19.3 kmh W -- 30.52 in1033.5 mb 0.00 in0.0 mm 0.00 in0.0 mm 0.00 in0.0 mm
02:36 PM -6.3°F-21.3°C -17.0°F-27.2°C 59% 7.0 mph W11.3 kmh W -- 30.52 in1033.5 mb 0.00 in0.0 mm 0.00 in0.0 mm 0.00 in0.0 mm
02:37 PM -6.3°F-21.3°C -17.0°F-27.2°C 59% 10.0 mph WNW16.1 kmh WNW -- 30.52 in1033.5 mb 0.00 in0.0 mm 0.00 in0.0 mm 0.00 in0.0 mm
02:38 PM -6.3°F-21.3°C -16.7°F-27.1°C 60% 7.0 mph W11.3 kmh W -- 30.52 in1033.5 mb 0.00 in0.0 mm 0.00 in0.0 mm 0.00 in0.0 mm
02:39 PM -6.1°F-21.2°C -16.5°F-26.9°C 60% 9.0 mph W14.5 kmh W -- 30.53 in1033.9 mb 0.00 in0.0 mm 0.00 in0.0 mm 0.00 in0.0 mm
02:40 PM -6.1°F-21.2°C -16.5°F-26.9°C 60% 7.0 mph W11.3 kmh W -- 30.53 in1033.9 mb 0.00 in0.0 mm 0.00 in0.0 mm 0.00 in0.0 mm
02:42 PM -5.8°F-21.0°C -16.2°F-26.8°C 60% 5.0 mph WNW8.0 kmh WNW -- 30.52 in1033.5 mb 0.00 in0.0 mm 0.00 in0.0 mm 0.00 in0.0 mm
02:43 PM -5.8°F-21.0°C -16.2°F-26.8°C 60% 8.0 mph WNW12.9 kmh WNW -- 30.52 in1033.5 mb 0.00 in0.0 mm 0.00 in0.0 mm 0.00 in0.0 mm
02:45 PM -5.5°F-20.8°C -15.8°F-26.6°C 60% 8.0 mph W12.9 kmh W -- 30.52 in1033.5 mb 0.00 in0.0 mm 0.00 in0.0 mm 0.00 in0.0 mm
02:46 PM -5.5°F-20.8°C -15.8°F-26.6°C 60% 6.0 mph WNW9.7 kmh WNW -- 30.52 in1033.5 mb 0.00 in0.0 mm 0.00 in0.0 mm 0.00 in0.0 mm
02:47 PM -5.5°F-20.8°C -15.8°F-26.6°C 60% 6.0 mph W9.7 kmh W -- 30.52 in1033.5 mb 0.00 in0.0 mm 0.00 in0.0 mm 0.00 in0.0 mm
02:48 PM -5.5°F-20.8°C -15.8°F-26.6°C 60% 5.0 mph W8.0 kmh W -- 30.52 in1033.5 mb 0.00 in0.0 mm 0.00 in0.0 mm 0.00 in0.0 mm
02:49 PM -5.5°F-20.8°C -15.8°F-26.6°C 60% 7.0 mph WNW11.3 kmh WNW -- 30.52 in1033.5 mb 0.00 in0.0 mm 0.00 in0.0 mm 0.00 in0.0 mm
02:50 PM -5.5°F-20.8°C -15.8°F-26.6°C 60% 8.0 mph W12.9 kmh W -- 30.52 in1033.5 mb 0.00 in0.0 mm 0.00 in0.0 mm 0.00 in0.0 mm
02:51 PM -5.5°F-20.8°C -15.8°F-26.6°C 60% 10.0 mph W16.1 kmh W -- 30.52 in1033.5 mb 0.00 in0.0 mm 0.00 in0.0 mm 0.00 in0.0 mm
02:52 PM -5.5°F-20.8°C -15.8°F-26.6°C 60% 6.0 mph WNW9.7 kmh WNW -- 30.52 in1033.5 mb 0.00 in0.0 mm 0.00 in0.0 mm 0.00 in0.0 mm
02:53 PM -5.4°F-20.8°C -15.8°F-26.6°C 60% 9.0 mph WNW14.5 kmh WNW -- 30.53 in1033.9 mb 0.00 in0.0 mm 0.00 in0.0 mm 0.00 in0.0 mm
02:54 PM -5.8°F-21.0°C -16.2°F-26.8°C 60% 8.0 mph W12.9 kmh W -- 30.52 in1033.5 mb 0.00 in0.0 mm 0.00 in0.0 mm 0.00 in0.0 mm
02:55 PM -5.8°F-21.0°C -16.2°F-26.8°C 60% 11.0 mph W17.7 kmh W -- 30.52 in1033.5 mb 0.00 in0.0 mm 0.00 in0.0 mm 0.00 in0.0 mm
02:56 PM -5.5°F-20.8°C -15.8°F-26.6°C 60% 7.0 mph W11.3 kmh W -- 30.52 in1033.5 mb 0.00 in0.0 mm 0.00 in0.0 mm 0.00 in0.0 mm
02:57 PM -5.4°F-20.8°C -15.8°F-26.6°C 60% 5.0 mph W8.0 kmh W -- 30.52 in1033.5 mb 0.00 in0.0 mm 0.00 in0.0 mm 0.00 in0.0 mm
02:58 PM -5.4°F-20.8°C -15.8°F-26.6°C 60% 11.0 mph W17.7 kmh W -- 30.52 in1033.5 mb 0.00 in0.0 mm 0.00 in0.0 mm 0.00 in0.0 mm
03:00 PM -5.5°F-20.8°C -16.2°F-26.8°C 59% 10.0 mph W16.1 kmh W -- 30.52 in1033.5 mb 0.00 in0.0 mm 0.00 in0.0 mm 0.00 in0.0 mm
03:01 PM -5.8°F-21.0°C -16.5°F-26.9°C 59% 7.0 mph SW11.3 kmh SW -- 30.52 in1033.5 mb 0.00 in0.0 mm 0.00 in0.0 mm 0.00 in0.0 mm
03:02 PM -5.5°F-20.8°C -16.2°F-26.8°C 59% 9.0 mph WNW14.5 kmh WNW -- 30.52 in1033.5 mb 0.00 in0.0 mm 0.00 in0.0 mm 0.00 in0.0 mm
03:03 PM -5.5°F-20.8°C -16.2°F-26.8°C 59% 6.0 mph W9.7 kmh W -- 30.52 in1033.5 mb 0.00 in0.0 mm 0.00 in0.0 mm 0.00 in0.0 mm
03:04 PM -5.5°F-20.8°C -16.2°F-26.8°C 59% 3.0 mph WNW4.8 kmh WNW -- 30.52 in1033.5 mb 0.00 in0.0 mm 0.00 in0.0 mm 0.00 in0.0 mm
03:05 PM -5.5°F-20.8°C -16.2°F-26.8°C 59% 10.0 mph W16.1 kmh W -- 30.52 in1033.5 mb 0.00 in0.0 mm 0.00 in0.0 mm 0.00 in0.0 mm
03:06 PM -4.6°F-20.3°C -15.0°F-26.1°C 60% 8.0 mph WSW12.9 kmh WSW -- 30.52 in1033.5 mb 0.00 in0.0 mm 0.00 in0.0 mm 0.00 in0.0 mm
03:07 PM -4.6°F-20.3°C -15.0°F-26.1°C 60% 8.0 mph W12.9 kmh W -- 30.52 in1033.5 mb 0.00 in0.0 mm 0.00 in0.0 mm 0.00 in0.0 mm
03:08 PM -5.0°F-20.6°C -15.8°F-26.6°C 59% 4.0 mph W6.4 kmh W -- 30.52 in1033.5 mb 0.00 in0.0 mm 0.00 in0.0 mm 0.00 in0.0 mm
03:09 PM -5.0°F-20.6°C -15.8°F-26.6°C 59% 9.0 mph W14.5 kmh W -- 30.52 in1033.5 mb 0.00 in0.0 mm 0.00 in0.0 mm 0.00 in0.0 mm
03:11 PM -5.0°F-20.6°C -15.8°F-26.6°C 59% 4.0 mph W6.4 kmh W -- 30.52 in1033.5 mb 0.00 in0.0 mm 0.00 in0.0 mm 0.00 in0.0 mm
03:12 PM -4.9°F-20.5°C -15.6°F-26.4°C 59% 8.0 mph W12.9 kmh W -- 30.52 in1033.5 mb 0.00 in0.0 mm 0.00 in0.0 mm 0.00 in0.0 mm
03:13 PM -4.6°F-20.3°C -15.3°F-26.3°C 59% 6.0 mph WNW9.7 kmh WNW -- 30.52 in1033.5 mb 0.00 in0.0 mm 0.00 in0.0 mm 0.00 in0.0 mm
03:14 PM -4.6°F-20.3°C -15.3°F-26.3°C 59% 5.0 mph W8.0 kmh W -- 30.52 in1033.5 mb 0.00 in0.0 mm 0.00 in0.0 mm 0.00 in0.0 mm
03:15 PM -4.6°F-20.3°C -15.3°F-26.3°C 59% 8.0 mph W12.9 kmh W -- 30.52 in1033.5 mb 0.00 in0.0 mm 0.00 in0.0 mm 0.00 in0.0 mm
03:16 PM -4.6°F-20.3°C -15.3°F-26.3°C 59% 7.0 mph WNW11.3 kmh WNW -- 30.52 in1033.5 mb 0.00 in0.0 mm 0.00 in0.0 mm 0.00 in0.0 mm
03:17 PM -4.6°F-20.3°C -15.3°F-26.3°C 59% 8.0 mph SW12.9 kmh SW -- 30.52 in1033.5 mb 0.00 in0.0 mm 0.00 in0.0 mm 0.00 in0.0 mm
03:18 PM -4.9°F-20.5°C -15.6°F-26.4°C 59% 6.0 mph WSW9.7 kmh WSW -- 30.52 in1033.5 mb 0.00 in0.0 mm 0.00 in0.0 mm 0.00 in0.0 mm
03:19 PM -4.9°F-20.5°C -15.6°F-26.4°C 59% 5.0 mph SW8.0 kmh SW -- 30.52 in1033.5 mb 0.00 in0.0 mm 0.00 in0.0 mm 0.00 in0.0 mm
03:20 PM -4.6°F-20.3°C -15.3°F-26.3°C 59% 6.0 mph W9.7 kmh W -- 30.52 in1033.5 mb 0.00 in0.0 mm 0.00 in0.0 mm 0.00 in0.0 mm
03:21 PM -4.5°F-20.3°C -15.3°F-26.3°C 59% 4.0 mph W6.4 kmh W -- 30.52 in1033.5 mb 0.00 in0.0 mm 0.00 in0.0 mm 0.00 in0.0 mm
03:22 PM -4.0°F-20.0°C -14.8°F-26.0°C 59% 8.0 mph W12.9 kmh W -- 30.51 in1033.2 mb 0.00 in0.0 mm 0.00 in0.0 mm 0.00 in0.0 mm
03:23 PM -4.1°F-20.1°C -15.3°F-26.3°C 58% 9.0 mph W14.5 kmh W -- 30.52 in1033.5 mb 0.00 in0.0 mm 0.00 in0.0 mm 0.00 in0.0 mm
03:24 PM -4.4°F-20.2°C -15.5°F-26.4°C 58% 5.0 mph S8.0 kmh S -- 30.52 in1033.5 mb 0.00 in0.0 mm 0.00 in0.0 mm 0.00 in0.0 mm
03:25 PM -4.4°F-20.2°C -16.2°F-26.8°C 56% 6.0 mph WNW9.7 kmh WNW -- 30.52 in1033.5 mb 0.00 in0.0 mm 0.00 in0.0 mm 0.00 in0.0 mm
03:26 PM -4.5°F-20.3°C -16.3°F-26.8°C 56% 7.0 mph WNW11.3 kmh WNW -- 30.52 in1033.5 mb 0.00 in0.0 mm 0.00 in0.0 mm 0.00 in0.0 mm
03:27 PM -4.5°F-20.3°C -16.3°F-26.8°C 56% 8.0 mph WNW12.9 kmh WNW -- 30.52 in1033.5 mb 0.00 in0.0 mm 0.00 in0.0 mm 0.00 in0.0 mm
03:28 PM -4.6°F-20.3°C -16.3°F-26.8°C 56% 10.0 mph WSW16.1 kmh WSW -- 30.52 in1033.5 mb 0.00 in0.0 mm 0.00 in0.0 mm 0.00 in0.0 mm
03:29 PM -5.0°F-20.6°C -16.8°F-27.1°C 56% 6.0 mph WNW9.7 kmh WNW -- 30.53 in1033.9 mb 0.00 in0.0 mm 0.00 in0.0 mm 0.00 in0.0 mm
03:30 PM -4.9°F-20.5°C -16.0°F-26.7°C 58% 6.0 mph W9.7 kmh W -- 30.52 in1033.5 mb 0.00 in0.0 mm 0.00 in0.0 mm 0.00 in0.0 mm
03:31 PM -4.6°F-20.3°C -15.6°F-26.4°C 58% 7.0 mph W11.3 kmh W -- 30.52 in1033.5 mb 0.00 in0.0 mm 0.00 in0.0 mm 0.00 in0.0 mm
03:32 PM -4.6°F-20.3°C -15.6°F-26.4°C 58% 9.0 mph W14.5 kmh W -- 30.52 in1033.5 mb 0.00 in0.0 mm 0.00 in0.0 mm 0.00 in0.0 mm
03:33 PM -4.5°F-20.3°C -15.6°F-26.4°C 58% 6.0 mph NW9.7 kmh NW -- 30.52 in1033.5 mb 0.00 in0.0 mm 0.00 in0.0 mm 0.00 in0.0 mm
03:34 PM -4.5°F-20.3°C -15.6°F-26.4°C 58% 5.0 mph W8.0 kmh W -- 30.52 in1033.5 mb 0.00 in0.0 mm 0.00 in0.0 mm 0.00 in0.0 mm
03:35 PM -4.4°F-20.2°C -15.5°F-26.4°C 58% 7.0 mph W11.3 kmh W -- 30.52 in1033.5 mb 0.00 in0.0 mm 0.00 in0.0 mm 0.00 in0.0 mm
03:36 PM -4.5°F-20.3°C -16.3°F-26.8°C 56% 10.0 mph WNW16.1 kmh WNW -- 30.52 in1033.5 mb 0.00 in0.0 mm 0.00 in0.0 mm 0.00 in0.0 mm
03:37 PM -4.6°F-20.3°C -16.3°F-26.8°C 56% 10.0 mph W16.1 kmh W -- 30.52 in1033.5 mb 0.00 in0.0 mm 0.00 in0.0 mm 0.00 in0.0 mm
03:38 PM -4.6°F-20.3°C -16.3°F-26.8°C 56% 7.0 mph W11.3 kmh W -- 30.52 in1033.5 mb 0.00 in0.0 mm 0.00 in0.0 mm 0.00 in0.0 mm
03:39 PM -5.0°F-20.6°C -16.8°F-27.1°C 56% 9.0 mph W14.5 kmh W -- 30.52 in1033.5 mb 0.00 in0.0 mm 0.00 in0.0 mm 0.00 in0.0 mm
03:40 PM -5.0°F-20.6°C -16.8°F-27.1°C 56% 5.0 mph SW8.0 kmh SW -- 30.52 in1033.5 mb 0.00 in0.0 mm 0.00 in0.0 mm 0.00 in0.0 mm
03:41 PM -4.9°F-20.5°C -16.0°F-26.7°C 58% 7.0 mph WNW11.3 kmh WNW -- 30.52 in1033.5 mb 0.00 in0.0 mm 0.00 in0.0 mm 0.00 in0.0 mm
03:42 PM -4.9°F-20.5°C -16.0°F-26.7°C 58% 10.0 mph WNW16.1 kmh WNW -- 30.53 in1033.9 mb 0.00 in0.0 mm 0.00 in0.0 mm 0.00 in0.0 mm
03:43 PM -4.9°F-20.5°C -16.0°F-26.7°C 58% 8.0 mph W12.9 kmh W -- 30.52 in1033.5 mb 0.00 in0.0 mm 0.00 in0.0 mm 0.00 in0.0 mm
03:44 PM -4.9°F-20.5°C -16.0°F-26.7°C 58% 11.0 mph W17.7 kmh W -- 30.53 in1033.9 mb 0.00 in0.0 mm 0.00 in0.0 mm 0.00 in0.0 mm
03:45 PM -4.9°F-20.5°C -16.0°F-26.7°C 58% 6.0 mph SSE9.7 kmh SSE -- 30.52 in1033.5 mb 0.00 in0.0 mm 0.00 in0.0 mm 0.00 in0.0 mm
03:46 PM -4.6°F-20.3°C -15.6°F-26.4°C 58% 8.0 mph WNW12.9 kmh WNW -- 30.53 in1033.9 mb 0.00 in0.0 mm 0.00 in0.0 mm 0.00 in0.0 mm
03:47 PM -4.5°F-20.3°C -15.6°F-26.4°C 58% 10.0 mph WNW16.1 kmh WNW -- 30.53 in1033.9 mb 0.00 in0.0 mm 0.00 in0.0 mm 0.00 in0.0 mm
03:48 PM -4.5°F-20.3°C -15.6°F-26.4°C 58% 9.0 mph W14.5 kmh W -- 30.53 in1033.9 mb 0.00 in0.0 mm 0.00 in0.0 mm 0.00 in0.0 mm
03:49 PM -4.6°F-20.3°C -16.3°F-26.8°C 56% 5.0 mph W8.0 kmh W -- 30.52 in1033.5 mb 0.00 in0.0 mm 0.00 in0.0 mm 0.00 in0.0 mm
03:51 PM -4.6°F-20.3°C -15.6°F-26.4°C 58% 6.0 mph WNW9.7 kmh WNW -- 30.52 in1033.5 mb 0.00 in0.0 mm 0.00 in0.0 mm 0.00 in0.0 mm
03:52 PM -4.5°F-20.3°C -15.6°F-26.4°C 58% 7.0 mph W11.3 kmh W -- 30.52 in1033.5 mb 0.00 in0.0 mm 0.00 in0.0 mm 0.00 in0.0 mm
03:53 PM -4.4°F-20.2°C -16.2°F-26.8°C 56% 9.0 mph W14.5 kmh W -- 30.53 in1033.9 mb 0.00 in0.0 mm 0.00 in0.0 mm 0.00 in0.0 mm
03:54 PM -4.4°F-20.2°C -16.2°F-26.8°C 56% 5.0 mph W8.0 kmh W -- 30.52 in1033.5 mb 0.00 in0.0 mm 0.00 in0.0 mm 0.00 in0.0 mm
03:55 PM -4.4°F-20.2°C -16.2°F-26.8°C 56% 7.0 mph NW11.3 kmh NW -- 30.52 in1033.5 mb 0.00 in0.0 mm 0.00 in0.0 mm 0.00 in0.0 mm
03:56 PM -4.4°F-20.2°C -16.2°F-26.8°C 56% 6.0 mph WSW9.7 kmh WSW -- 30.52 in1033.5 mb 0.00 in0.0 mm 0.00 in0.0 mm 0.00 in0.0 mm
03:57 PM -4.1°F-20.1°C -16.0°F-26.7°C 56% 8.0 mph W12.9 kmh W -- 30.52 in1033.5 mb 0.00 in0.0 mm 0.00 in0.0 mm 0.00 in0.0 mm
03:58 PM -4.1°F-20.1°C -16.0°F-26.7°C 56% 13.0 mph W20.9 kmh W -- 30.52 in1033.5 mb 0.00 in0.0 mm 0.00 in0.0 mm 0.00 in0.0 mm
03:59 PM -4.1°F-20.1°C -16.0°F-26.7°C 56% 7.0 mph NNE11.3 kmh NNE -- 30.53 in1033.9 mb 0.00 in0.0 mm 0.00 in0.0 mm 0.00 in0.0 mm
04:00 PM -4.4°F-20.2°C -16.2°F-26.8°C 56% 4.0 mph W6.4 kmh W -- 30.53 in1033.9 mb 0.00 in0.0 mm 0.00 in0.0 mm 0.00 in0.0 mm
04:01 PM -4.4°F-20.2°C -16.2°F-26.8°C 56% 6.0 mph W9.7 kmh W -- 30.53 in1033.9 mb 0.00 in0.0 mm 0.00 in0.0 mm 0.00 in0.0 mm
04:02 PM -4.0°F-20.0°C -15.1°F-26.2°C 58% 7.0 mph WNW11.3 kmh WNW -- 30.53 in1033.9 mb 0.00 in0.0 mm 0.00 in0.0 mm 0.00 in0.0 mm
04:03 PM -4.0°F-20.0°C -15.8°F-26.6°C 56% 5.0 mph WNW8.0 kmh WNW -- 30.53 in1033.9 mb 0.00 in0.0 mm 0.00 in0.0 mm 0.00 in0.0 mm
04:04 PM -4.1°F-20.1°C -16.0°F-26.7°C 56% 7.0 mph W11.3 kmh W -- 30.53 in1033.9 mb 0.00 in0.0 mm 0.00 in0.0 mm 0.00 in0.0 mm
04:05 PM -4.1°F-20.1°C -16.0°F-26.7°C 56% 10.0 mph W16.1 kmh W -- 30.53 in1033.9 mb 0.00 in0.0 mm 0.00 in0.0 mm 0.00 in0.0 mm
04:06 PM -4.4°F-20.2°C -16.2°F-26.8°C 56% 8.0 mph WNW12.9 kmh WNW -- 30.53 in1033.9 mb 0.00 in0.0 mm 0.00 in0.0 mm 0.00 in0.0 mm
04:07 PM -4.4°F-20.2°C -16.2°F-26.8°C 56% 9.0 mph W14.5 kmh W -- 30.53 in1033.9 mb 0.00 in0.0 mm 0.00 in0.0 mm 0.00 in0.0 mm
04:08 PM -4.4°F-20.2°C -16.2°F-26.8°C 56% 9.0 mph WNW14.5 kmh WNW -- 30.53 in1033.9 mb 0.00 in0.0 mm 0.00 in0.0 mm 0.00 in0.0 mm
04:09 PM -4.5°F-20.3°C -16.3°F-26.8°C 56% 6.0 mph WNW9.7 kmh WNW -- 30.53 in1033.9 mb 0.00 in0.0 mm 0.00 in0.0 mm 0.00 in0.0 mm
04:10 PM -4.5°F-20.3°C -16.3°F-26.8°C 56% 9.0 mph WNW14.5 kmh WNW -- 30.53 in1033.9 mb 0.00 in0.0 mm 0.00 in0.0 mm 0.00 in0.0 mm
04:11 PM -4.5°F-20.3°C -16.3°F-26.8°C 56% 9.0 mph W14.5 kmh W -- 30.53 in1033.9 mb 0.00 in0.0 mm 0.00 in0.0 mm 0.00 in0.0 mm
04:12 PM -4.5°F-20.3°C -16.3°F-26.8°C 56% 7.0 mph W11.3 kmh W -- 30.53 in1033.9 mb 0.00 in0.0 mm 0.00 in0.0 mm 0.00 in0.0 mm
04:13 PM -4.5°F-20.3°C -16.3°F-26.8°C 56% 5.0 mph NNW8.0 kmh NNW -- 30.53 in1033.9 mb 0.00 in0.0 mm 0.00 in0.0 mm 0.00 in0.0 mm
04:14 PM -4.4°F-20.2°C -15.5°F-26.4°C 58% 9.0 mph WNW14.5 kmh WNW -- 30.53 in1033.9 mb 0.00 in0.0 mm 0.00 in0.0 mm 0.00 in0.0 mm
04:15 PM -4.4°F-20.2°C -15.5°F-26.4°C 58% 3.0 mph SSW4.8 kmh SSW -- 30.53 in1033.9 mb 0.00 in0.0 mm 0.00 in0.0 mm 0.00 in0.0 mm
04:16 PM -4.1°F-20.1°C -15.3°F-26.3°C 58% 6.0 mph SSW9.7 kmh SSW -- 30.53 in1033.9 mb 0.00 in0.0 mm 0.00 in0.0 mm 0.00 in0.0 mm
04:17 PM -4.0°F-20.0°C -15.1°F-26.2°C 58% 10.0 mph NNW16.1 kmh NNW -- 30.53 in1033.9 mb 0.00 in0.0 mm 0.00 in0.0 mm 0.00 in0.0 mm
04:18 PM -4.0°F-20.0°C -15.1°F-26.2°C 58% 8.0 mph W12.9 kmh W -- 30.53 in1033.9 mb 0.00 in0.0 mm 0.00 in0.0 mm 0.00 in0.0 mm
04:19 PM -4.0°F-20.0°C -15.1°F-26.2°C 58% 6.0 mph W9.7 kmh W -- 30.53 in1033.9 mb 0.00 in0.0 mm 0.00 in0.0 mm 0.00 in0.0 mm
04:20 PM -4.1°F-20.1°C -15.3°F-26.3°C 58% 5.0 mph WNW8.0 kmh WNW -- 30.53 in1033.9 mb 0.00 in0.0 mm 0.00 in0.0 mm 0.00 in0.0 mm
04:22 PM -4.1°F-20.1°C -15.3°F-26.3°C 58% 7.0 mph NW11.3 kmh NW -- 30.53 in1033.9 mb 0.00 in0.0 mm 0.00 in0.0 mm 0.00 in0.0 mm
04:23 PM -4.1°F-20.1°C -15.3°F-26.3°C 58% 7.0 mph WNW11.3 kmh WNW -- 30.53 in1033.9 mb 0.00 in0.0 mm 0.00 in0.0 mm 0.00 in0.0 mm
04:24 PM -4.1°F-20.1°C -15.3°F-26.3°C 58% 7.0 mph W11.3 kmh W -- 30.52 in1033.5 mb 0.00 in0.0 mm 0.00 in0.0 mm 0.00 in0.0 mm
04:25 PM -4.1°F-20.1°C -15.3°F-26.3°C 58% 6.0 mph W9.7 kmh W -- 30.53 in1033.9 mb 0.00 in0.0 mm 0.00 in0.0 mm 0.00 in0.0 mm
04:26 PM -4.1°F-20.1°C -15.3°F-26.3°C 58% 6.0 mph W9.7 kmh W -- 30.52 in1033.5 mb 0.00 in0.0 mm 0.00 in0.0 mm 0.00 in0.0 mm
04:27 PM -4.4°F-20.2°C -15.5°F-26.4°C 58% 5.0 mph W8.0 kmh W -- 30.52 in1033.5 mb 0.00 in0.0 mm 0.00 in0.0 mm 0.00 in0.0 mm
04:28 PM -4.1°F-20.1°C -15.0°F-26.1°C 59% 4.0 mph W6.4 kmh W -- 30.52 in1033.5 mb 0.00 in0.0 mm 0.00 in0.0 mm 0.00 in0.0 mm
04:29 PM -4.1°F-20.1°C -15.0°F-26.1°C 59% 8.0 mph W12.9 kmh W -- 30.52 in1033.5 mb 0.00 in0.0 mm 0.00 in0.0 mm 0.00 in0.0 mm
04:30 PM -4.1°F-20.1°C -15.0°F-26.1°C 59% 10.0 mph W16.1 kmh W -- 30.53 in1033.9 mb 0.00 in0.0 mm 0.00 in0.0 mm 0.00 in0.0 mm
04:31 PM -4.4°F-20.2°C -15.1°F-26.2°C 59% 6.0 mph W9.7 kmh W -- 30.53 in1033.9 mb 0.00 in0.0 mm 0.00 in0.0 mm 0.00 in0.0 mm
04:32 PM -4.4°F-20.2°C -15.1°F-26.2°C 59% 8.0 mph W12.9 kmh W -- 30.53 in1033.9 mb 0.00 in0.0 mm 0.00 in0.0 mm 0.00 in0.0 mm
04:33 PM -4.1°F-20.1°C -15.0°F-26.1°C 59% 8.0 mph W12.9 kmh W -- 30.53 in1033.9 mb 0.00 in0.0 mm 0.00 in0.0 mm 0.00 in0.0 mm
04:34 PM -4.1°F-20.1°C -15.3°F-26.3°C 58% 6.0 mph NNW9.7 kmh NNW -- 30.53 in1033.9 mb 0.00 in0.0 mm 0.00 in0.0 mm 0.00 in0.0 mm
04:35 PM -4.4°F-20.2°C -15.5°F-26.4°C 58% 5.0 mph W8.0 kmh W -- 30.53 in1033.9 mb 0.00 in0.0 mm 0.00 in0.0 mm 0.00 in0.0 mm
04:37 PM -4.4°F-20.2°C -15.5°F-26.4°C 58% 4.0 mph NW6.4 kmh NW -- 30.53 in1033.9 mb 0.00 in0.0 mm 0.00 in0.0 mm 0.00 in0.0 mm
04:38 PM -4.0°F-20.0°C -14.8°F-26.0°C 59% 6.0 mph W9.7 kmh W -- 30.53 in1033.9 mb 0.00 in0.0 mm 0.00 in0.0 mm 0.00 in0.0 mm
04:39 PM -4.1°F-20.1°C -15.0°F-26.1°C 59% 5.0 mph WNW8.0 kmh WNW -- 30.53 in1033.9 mb 0.00 in0.0 mm 0.00 in0.0 mm 0.00 in0.0 mm
04:40 PM -4.1°F-20.1°C -15.0°F-26.1°C 59% 8.0 mph W12.9 kmh W -- 30.53 in1033.9 mb 0.00 in0.0 mm 0.00 in0.0 mm 0.00 in0.0 mm
04:41 PM -4.1°F-20.1°C -15.0°F-26.1°C 59% 4.0 mph WNW6.4 kmh WNW -- 30.52 in1033.5 mb 0.00 in0.0 mm 0.00 in0.0 mm 0.00 in0.0 mm
04:42 PM -4.0°F-20.0°C -14.8°F-26.0°C 59% 7.0 mph WSW11.3 kmh WSW -- 30.52 in1033.5 mb 0.00 in0.0 mm 0.00 in0.0 mm 0.00 in0.0 mm
04:43 PM -4.0°F-20.0°C -15.1°F-26.2°C 58% 7.0 mph W11.3 kmh W -- 30.53 in1033.9 mb 0.00 in0.0 mm 0.00 in0.0 mm 0.00 in0.0 mm
04:44 PM -4.1°F-20.1°C -16.0°F-26.7°C 56% 6.0 mph W9.7 kmh W -- 30.53 in1033.9 mb 0.00 in0.0 mm 0.00 in0.0 mm 0.00 in0.0 mm
04:45 PM -4.4°F-20.2°C -16.2°F-26.8°C 56% 6.0 mph WNW9.7 kmh WNW -- 30.53 in1033.9 mb 0.00 in0.0 mm 0.00 in0.0 mm 0.00 in0.0 mm
04:46 PM -4.5°F-20.3°C -15.6°F-26.4°C 58% 6.0 mph W9.7 kmh W -- 30.53 in1033.9 mb 0.00 in0.0 mm 0.00 in0.0 mm 0.00 in0.0 mm
04:47 PM -4.5°F-20.3°C -15.3°F-26.3°C 59% 3.0 mph W4.8 kmh W -- 30.53 in1033.9 mb 0.00 in0.0 mm 0.00 in0.0 mm 0.00 in0.0 mm
04:48 PM -4.5°F-20.3°C -15.3°F-26.3°C 59% 9.0 mph W14.5 kmh W -- 30.53 in1033.9 mb 0.00 in0.0 mm 0.00 in0.0 mm 0.00 in0.0 mm
04:49 PM -4.1°F-20.1°C -15.3°F-26.3°C 58% 9.0 mph W14.5 kmh W -- 30.53 in1033.9 mb 0.00 in0.0 mm 0.00 in0.0 mm 0.00 in0.0 mm
04:50 PM -4.5°F-20.3°C -15.6°F-26.4°C 58% 4.0 mph W6.4 kmh W -- 30.53 in1033.9 mb 0.00 in0.0 mm 0.00 in0.0 mm 0.00 in0.0 mm
04:51 PM -4.5°F-20.3°C -15.6°F-26.4°C 58% 8.0 mph WNW12.9 kmh WNW -- 30.53 in1033.9 mb 0.00 in0.0 mm 0.00 in0.0 mm 0.00 in0.0 mm
04:52 PM -4.5°F-20.3°C -15.3°F-26.3°C 59% 7.0 mph W11.3 kmh W -- 30.53 in1033.9 mb 0.00 in0.0 mm 0.00 in0.0 mm 0.00 in0.0 mm
04:53 PM -4.4°F-20.2°C -15.1°F-26.2°C 59% 4.0 mph W6.4 kmh W -- 30.53 in1033.9 mb 0.00 in0.0 mm 0.00 in0.0 mm 0.00 in0.0 mm
04:54 PM -4.1°F-20.1°C -15.0°F-26.1°C 59% 7.0 mph W11.3 kmh W -- 30.53 in1033.9 mb 0.00 in0.0 mm 0.00 in0.0 mm 0.00 in0.0 mm
04:55 PM -4.1°F-20.1°C -15.0°F-26.1°C 59% 4.0 mph WNW6.4 kmh WNW -- 30.53 in1033.9 mb 0.00 in0.0 mm 0.00 in0.0 mm 0.00 in0.0 mm
04:56 PM -4.1°F-20.1°C -15.0°F-26.1°C 59% 6.0 mph W9.7 kmh W -- 30.53 in1033.9 mb 0.00 in0.0 mm 0.00 in0.0 mm 0.00 in0.0 mm
04:57 PM -4.0°F-20.0°C -14.8°F-26.0°C 59% 6.0 mph WNW9.7 kmh WNW -- 30.53 in1033.9 mb 0.00 in0.0 mm 0.00 in0.0 mm 0.00 in0.0 mm
04:58 PM -4.1°F-20.1°C -15.0°F-26.1°C 59% 6.0 mph W9.7 kmh W -- 30.52 in1033.5 mb 0.00 in0.0 mm 0.00 in0.0 mm 0.00 in0.0 mm
04:59 PM -4.4°F-20.2°C -15.1°F-26.2°C 59% 5.0 mph W8.0 kmh W -- 30.52 in1033.5 mb 0.00 in0.0 mm 0.00 in0.0 mm 0.00 in0.0 mm
05:00 PM -4.4°F-20.2°C -15.1°F-26.2°C 59% 5.0 mph NW8.0 kmh NW -- 30.53 in1033.9 mb 0.00 in0.0 mm 0.00 in0.0 mm 0.00 in0.0 mm
05:01 PM -4.5°F-20.3°C -15.3°F-26.3°C 59% 6.0 mph W9.7 kmh W -- 30.53 in1033.9 mb 0.00 in0.0 mm 0.00 in0.0 mm 0.00 in0.0 mm
05:02 PM -4.5°F-20.3°C -15.3°F-26.3°C 59% 5.0 mph WNW8.0 kmh WNW -- 30.53 in1033.9 mb 0.00 in0.0 mm 0.00 in0.0 mm 0.00 in0.0 mm
05:03 PM -4.6°F-20.3°C -15.3°F-26.3°C 59% 4.0 mph W6.4 kmh W -- 30.53 in1033.9 mb 0.00 in0.0 mm 0.00 in0.0 mm 0.00 in0.0 mm
05:04 PM -4.5°F-20.3°C -15.3°F-26.3°C 59% 8.0 mph W12.9 kmh W -- 30.53 in1033.9 mb 0.00 in0.0 mm 0.00 in0.0 mm 0.00 in0.0 mm
05:05 PM -4.5°F-20.3°C -15.3°F-26.3°C 59% 9.0 mph W14.5 kmh W -- 30.52 in1033.5 mb 0.00 in0.0 mm 0.00 in0.0 mm 0.00 in0.0 mm
05:06 PM -4.5°F-20.3°C -15.3°F-26.3°C 59% 7.0 mph W11.3 kmh W -- 30.52 in1033.5 mb 0.00 in0.0 mm 0.00 in0.0 mm 0.00 in0.0 mm
05:07 PM -4.6°F-20.3°C -15.6°F-26.4°C 58% 5.0 mph W8.0 kmh W -- 30.52 in1033.5 mb 0.00 in0.0 mm 0.00 in0.0 mm 0.00 in0.0 mm
05:08 PM -4.6°F-20.3°C -15.6°F-26.4°C 58% 7.0 mph WNW11.3 kmh WNW -- 30.52 in1033.5 mb 0.00 in0.0 mm 0.00 in0.0 mm 0.00 in0.0 mm
05:09 PM -4.9°F-20.5°C -15.6°F-26.4°C 59% 5.0 mph WNW8.0 kmh WNW -- 30.52 in1033.5 mb 0.00 in0.0 mm 0.00 in0.0 mm 0.00 in0.0 mm
05:10 PM -4.6°F-20.3°C -15.3°F-26.3°C 59% 4.0 mph W6.4 kmh W -- 30.53 in1033.9 mb 0.00 in0.0 mm 0.00 in0.0 mm 0.00 in0.0 mm
05:11 PM -4.9°F-20.5°C -15.6°F-26.4°C 59% 6.0 mph W9.7 kmh W -- 30.53 in1033.9 mb 0.00 in0.0 mm 0.00 in0.0 mm 0.00 in0.0 mm
05:12 PM -4.9°F-20.5°C -15.6°F-26.4°C 59% 5.0 mph WNW8.0 kmh WNW -- 30.53 in1033.9 mb 0.00 in0.0 mm 0.00 in0.0 mm 0.00 in0.0 mm
05:13 PM -4.5°F-20.3°C -15.3°F-26.3°C 59% 6.0 mph W9.7 kmh W -- 30.53 in1033.9 mb 0.00 in0.0 mm 0.00 in0.0 mm 0.00 in0.0 mm
05:15 PM -4.6°F-20.3°C -15.3°F-26.3°C 59% 5.0 mph W8.0 kmh W -- 30.53 in1033.9 mb 0.00 in0.0 mm 0.00 in0.0 mm 0.00 in0.0 mm
05:16 PM -4.9°F-20.5°C -15.6°F-26.4°C 59% 7.0 mph W11.3 kmh W -- 30.53 in1033.9 mb 0.00 in0.0 mm 0.00 in0.0 mm 0.00 in0.0 mm
05:17 PM -4.9°F-20.5°C -15.6°F-26.4°C 59% 4.0 mph WNW6.4 kmh WNW -- 30.53 in1033.9 mb 0.00 in0.0 mm 0.00 in0.0 mm 0.00 in0.0 mm
05:18 PM -4.9°F-20.5°C -15.6°F-26.4°C 59% 4.0 mph W6.4 kmh W -- 30.53 in1033.9 mb 0.00 in0.0 mm 0.00 in0.0 mm 0.00 in0.0 mm
05:19 PM -4.9°F-20.5°C -15.6°F-26.4°C 59% 5.0 mph W8.0 kmh W -- 30.53 in1033.9 mb 0.00 in0.0 mm 0.00 in0.0 mm 0.00 in0.0 mm
05:20 PM -5.3°F-20.7°C -16.0°F-26.7°C 59% 4.0 mph WNW6.4 kmh WNW -- 30.53 in1033.9 mb 0.00 in0.0 mm 0.00 in0.0 mm 0.00 in0.0 mm
05:21 PM -4.9°F-20.5°C -15.6°F-26.4°C 59% 5.0 mph W8.0 kmh W -- 30.53 in1033.9 mb 0.00 in0.0 mm 0.00 in0.0 mm 0.00 in0.0 mm
05:22 PM -4.9°F-20.5°C -15.6°F-26.4°C 59% 6.0 mph W9.7 kmh W -- 30.53 in1033.9 mb 0.00 in0.0 mm 0.00 in0.0 mm 0.00 in0.0 mm
05:23 PM -4.9°F-20.5°C -15.6°F-26.4°C 59% 5.0 mph W8.0 kmh W -- 30.53 in1033.9 mb 0.00 in0.0 mm 0.00 in0.0 mm 0.00 in0.0 mm
05:24 PM -5.4°F-20.8°C -16.2°F-26.8°C 59% 4.0 mph W6.4 kmh W -- 30.53 in1033.9 mb 0.00 in0.0 mm 0.00 in0.0 mm 0.00 in0.0 mm
05:25 PM -5.4°F-20.8°C -16.2°F-26.8°C 59% 6.0 mph W9.7 kmh W -- 30.53 in1033.9 mb 0.00 in0.0 mm 0.00 in0.0 mm 0.00 in0.0 mm
05:26 PM -5.3°F-20.7°C -16.0°F-26.7°C 59% 5.0 mph W8.0 kmh W -- 30.53 in1033.9 mb 0.00 in0.0 mm 0.00 in0.0 mm 0.00 in0.0 mm
05:27 PM -5.3°F-20.7°C -16.3°F-26.8°C 58% 5.0 mph W8.0 kmh W -- 30.53 in1033.9 mb 0.00 in0.0 mm 0.00 in0.0 mm 0.00 in0.0 mm
05:28 PM -5.4°F-20.8°C -16.5°F-26.9°C 58% 7.0 mph W11.3 kmh W -- 30.53 in1033.9 mb 0.00 in0.0 mm 0.00 in0.0 mm 0.00 in0.0 mm
05:29 PM -5.4°F-20.8°C -16.5°F-26.9°C 58% 8.0 mph W12.9 kmh W -- 30.53 in1033.9 mb 0.00 in0.0 mm 0.00 in0.0 mm 0.00 in0.0 mm
05:30 PM -5.4°F-20.8°C -16.5°F-26.9°C 58% 7.0 mph W11.3 kmh W -- 30.53 in1033.9 mb 0.00 in0.0 mm 0.00 in0.0 mm 0.00 in0.0 mm
05:31 PM -5.4°F-20.8°C -16.5°F-26.9°C 58% 4.0 mph W6.4 kmh W -- 30.53 in1033.9 mb 0.00 in0.0 mm 0.00 in0.0 mm 0.00 in0.0 mm
05:32 PM -5.4°F-20.8°C -16.5°F-26.9°C 58% 9.0 mph W14.5 kmh W -- 30.53 in1033.9 mb 0.00 in0.0 mm 0.00 in0.0 mm 0.00 in0.0 mm
05:33 PM -5.4°F-20.8°C -16.5°F-26.9°C 58% 5.0 mph W8.0 kmh W -- 30.53 in1033.9 mb 0.00 in0.0 mm 0.00 in0.0 mm 0.00 in0.0 mm
05:34 PM -5.5°F-20.8°C -16.5°F-26.9°C 58% 5.0 mph W8.0 kmh W -- 30.53 in1033.9 mb 0.00 in0.0 mm 0.00 in0.0 mm 0.00 in0.0 mm
05:35 PM -5.5°F-20.8°C -16.2°F-26.8°C 59% 6.0 mph W9.7 kmh W -- 30.53 in1033.9 mb 0.00 in0.0 mm 0.00 in0.0 mm 0.00 in0.0 mm
05:36 PM -5.5°F-20.8°C -16.2°F-26.8°C 59% 7.0 mph W11.3 kmh W -- 30.54 in1034.2 mb 0.00 in0.0 mm 0.00 in0.0 mm 0.00 in0.0 mm
05:37 PM -5.8°F-21.0°C -16.5°F-26.9°C 59% 6.0 mph W9.7 kmh W -- 30.54 in1034.2 mb 0.00 in0.0 mm 0.00 in0.0 mm 0.00 in0.0 mm
05:38 PM -5.8°F-21.0°C -16.5°F-26.9°C 59% 6.0 mph W9.7 kmh W -- 30.53 in1033.9 mb 0.00 in0.0 mm 0.00 in0.0 mm 0.00 in0.0 mm
05:39 PM -6.0°F-21.1°C -16.7°F-27.1°C 59% 6.0 mph W9.7 kmh W -- 30.53 in1033.9 mb 0.00 in0.0 mm 0.00 in0.0 mm 0.00 in0.0 mm
05:40 PM -6.0°F-21.1°C -16.7°F-27.1°C 59% 8.0 mph W12.9 kmh W -- 30.53 in1033.9 mb 0.00 in0.0 mm 0.00 in0.0 mm 0.00 in0.0 mm
05:41 PM -6.0°F-21.1°C -16.7°F-27.1°C 59% 6.0 mph W9.7 kmh W -- 30.53 in1033.9 mb 0.00 in0.0 mm 0.00 in0.0 mm 0.00 in0.0 mm
05:43 PM -6.1°F-21.2°C -16.8°F-27.1°C 59% 5.0 mph W8.0 kmh W -- 30.53 in1033.9 mb 0.00 in0.0 mm 0.00 in0.0 mm 0.00 in0.0 mm
05:45 PM -6.3°F-21.3°C -16.7°F-27.1°C 60% 4.0 mph W6.4 kmh W -- 30.53 in1033.9 mb 0.00 in0.0 mm 0.00 in0.0 mm 0.00 in0.0 mm
05:46 PM -6.3°F-21.3°C -16.7°F-27.1°C 60% 5.0 mph W8.0 kmh W -- 30.53 in1033.9 mb 0.00 in0.0 mm 0.00 in0.0 mm 0.00 in0.0 mm
05:47 PM -6.1°F-21.2°C -16.5°F-26.9°C 60% 3.0 mph W4.8 kmh W -- 30.53 in1033.9 mb 0.00 in0.0 mm 0.00 in0.0 mm 0.00 in0.0 mm
05:48 PM -6.3°F-21.3°C -16.7°F-27.1°C 60% 4.0 mph W6.4 kmh W -- 30.53 in1033.9 mb 0.00 in0.0 mm 0.00 in0.0 mm 0.00 in0.0 mm
05:49 PM -6.1°F-21.2°C -16.5°F-26.9°C 60% 5.0 mph W8.0 kmh W -- 30.53 in1033.9 mb 0.00 in0.0 mm 0.00 in0.0 mm 0.00 in0.0 mm
05:51 PM -6.1°F-21.2°C -16.5°F-26.9°C 60% 5.0 mph W8.0 kmh W -- 30.54 in1034.2 mb 0.00 in0.0 mm 0.00 in0.0 mm 0.00 in0.0 mm
05:52 PM -6.1°F-21.2°C -16.5°F-26.9°C 60% 6.0 mph W9.7 kmh W -- 30.53 in1033.9 mb 0.00 in0.0 mm 0.00 in0.0 mm 0.00 in0.0 mm
05:53 PM -6.3°F-21.3°C -16.7°F-27.1°C 60% 4.0 mph W6.4 kmh W -- 30.53 in1033.9 mb 0.00 in0.0 mm 0.00 in0.0 mm 0.00 in0.0 mm
05:54 PM -6.3°F-21.3°C -16.7°F-27.1°C 60% 3.0 mph WSW4.8 kmh WSW -- 30.53 in1033.9 mb 0.00 in0.0 mm 0.00 in0.0 mm 0.00 in0.0 mm
05:55 PM -6.3°F-21.3°C -16.7°F-27.1°C 60% 3.0 mph W4.8 kmh W -- 30.53 in1033.9 mb 0.00 in0.0 mm 0.00 in0.0 mm 0.00 in0.0 mm
05:56 PM -6.3°F-21.3°C -16.7°F-27.1°C 60% 4.0 mph W6.4 kmh W -- 30.53 in1033.9 mb 0.00 in0.0 mm 0.00 in0.0 mm 0.00 in0.0 mm
05:58 PM -6.3°F-21.3°C -16.7°F-27.1°C 60% 5.0 mph WSW8.0 kmh WSW -- 30.53 in1033.9 mb 0.00 in0.0 mm 0.00 in0.0 mm 0.00 in0.0 mm
05:59 PM -6.3°F-21.3°C -16.7°F-27.1°C 60% 4.0 mph WNW6.4 kmh WNW -- 30.53 in1033.9 mb 0.00 in0.0 mm 0.00 in0.0 mm 0.00 in0.0 mm
06:00 PM -6.3°F-21.3°C -16.7°F-27.1°C 60% 6.0 mph W9.7 kmh W -- 30.53 in1033.9 mb 0.00 in0.0 mm 0.00 in0.0 mm 0.00 in0.0 mm
06:01 PM -6.3°F-21.3°C -16.7°F-27.1°C 60% 3.0 mph W4.8 kmh W -- 30.53 in1033.9 mb 0.00 in0.0 mm 0.00 in0.0 mm 0.00 in0.0 mm
06:02 PM -6.5°F-21.4°C -16.8°F-27.1°C 60% 4.0 mph W6.4 kmh W -- 30.53 in1033.9 mb 0.00 in0.0 mm 0.00 in0.0 mm 0.00 in0.0 mm
06:03 PM -6.5°F-21.4°C -16.8°F-27.1°C 60% 4.0 mph WNW6.4 kmh WNW -- 30.53 in1033.9 mb 0.00 in0.0 mm 0.00 in0.0 mm 0.00 in0.0 mm
06:04 PM -6.5°F-21.4°C -16.8°F-27.1°C 60% 5.0 mph WNW8.0 kmh WNW -- 30.53 in1033.9 mb 0.00 in0.0 mm 0.00 in0.0 mm 0.00 in0.0 mm
06:05 PM -6.5°F-21.4°C -16.8°F-27.1°C 60% 5.0 mph W8.0 kmh W -- 30.53 in1033.9 mb 0.00 in0.0 mm 0.00 in0.0 mm 0.00 in0.0 mm
06:06 PM -6.5°F-21.4°C -16.8°F-27.1°C 60% 4.0 mph W6.4 kmh W -- 30.53 in1033.9 mb 0.00 in0.0 mm 0.00 in0.0 mm 0.00 in0.0 mm
06:07 PM -6.6°F-21.4°C -16.8°F-27.1°C 60% 3.0 mph W4.8 kmh W -- 30.53 in1033.9 mb 0.00 in0.0 mm 0.00 in0.0 mm 0.00 in0.0 mm
06:08 PM -6.6°F-21.4°C -16.8°F-27.1°C 60% 4.0 mph WNW6.4 kmh WNW -- 30.53 in1033.9 mb 0.00 in0.0 mm 0.00 in0.0 mm 0.00 in0.0 mm
06:09 PM -6.6°F-21.4°C -16.8°F-27.1°C 60% 6.0 mph W9.7 kmh W -- 30.53 in1033.9 mb 0.00 in0.0 mm 0.00 in0.0 mm 0.00 in0.0 mm
06:10 PM -6.6°F-21.4°C -16.8°F-27.1°C 60% 4.0 mph W6.4 kmh W -- 30.53 in1033.9 mb 0.00 in0.0 mm 0.00 in0.0 mm 0.00 in0.0 mm
06:11 PM -6.6°F-21.4°C -16.8°F-27.1°C 60% 5.0 mph W8.0 kmh W -- 30.53 in1033.9 mb 0.00 in0.0 mm 0.00 in0.0 mm 0.00 in0.0 mm
06:12 PM -6.9°F-21.6°C -17.2°F-27.3°C 60% 6.0 mph W9.7 kmh W -- 30.53 in1033.9 mb 0.00 in0.0 mm 0.00 in0.0 mm 0.00 in0.0 mm
06:13 PM -7.0°F-21.7°C -17.4°F-27.4°C 60% 3.0 mph W4.8 kmh W -- 30.53 in1033.9 mb 0.00 in0.0 mm 0.00 in0.0 mm 0.00 in0.0 mm
06:14 PM -7.0°F-21.7°C -17.4°F-27.4°C 60% 4.0 mph W6.4 kmh W -- 30.53 in1033.9 mb 0.00 in0.0 mm 0.00 in0.0 mm 0.00 in0.0 mm
06:15 PM -7.0°F-21.7°C -17.0°F-27.2°C 61% 4.0 mph W6.4 kmh W -- 30.53 in1033.9 mb 0.00 in0.0 mm 0.00 in0.0 mm 0.00 in0.0 mm
06:16 PM -7.0°F-21.7°C -17.0°F-27.2°C 61% 5.0 mph W8.0 kmh W -- 30.53 in1033.9 mb 0.00 in0.0 mm 0.00 in0.0 mm 0.00 in0.0 mm
06:17 PM -7.1°F-21.7°C -17.0°F-27.2°C 61% 4.0 mph W6.4 kmh W -- 30.53 in1033.9 mb 0.00 in0.0 mm 0.00 in0.0 mm 0.00 in0.0 mm
06:19 PM -7.4°F-21.9°C -17.4°F-27.4°C 61% 3.0 mph WNW4.8 kmh WNW -- 30.53 in1033.9 mb 0.00 in0.0 mm 0.00 in0.0 mm 0.00 in0.0 mm
06:20 PM -7.1°F-21.7°C -17.0°F-27.2°C 61% 3.0 mph WNW4.8 kmh WNW -- 30.53 in1033.9 mb 0.00 in0.0 mm 0.00 in0.0 mm 0.00 in0.0 mm
06:21 PM -7.1°F-21.7°C -17.0°F-27.2°C 61% 3.0 mph W4.8 kmh W -- 30.53 in1033.9 mb 0.00 in0.0 mm 0.00 in0.0 mm 0.00 in0.0 mm
06:22 PM -7.4°F-21.9°C -17.4°F-27.4°C 61% 2.0 mph W3.2 kmh W -- 30.54 in1034.2 mb 0.00 in0.0 mm 0.00 in0.0 mm 0.00 in0.0 mm
06:23 PM -7.4°F-21.9°C -17.4°F-27.4°C 61% 3.0 mph W4.8 kmh W -- 30.54 in1034.2 mb 0.00 in0.0 mm 0.00 in0.0 mm 0.00 in0.0 mm
06:24 PM -7.4°F-21.9°C -17.4°F-27.4°C 61% 3.0 mph W4.8 kmh W -- 30.53 in1033.9 mb 0.00 in0.0 mm 0.00 in0.0 mm 0.00 in0.0 mm
06:25 PM -7.5°F-21.9°C -17.4°F-27.4°C 61% 3.0 mph W4.8 kmh W -- 30.54 in1034.2 mb 0.00 in0.0 mm 0.00 in0.0 mm 0.00 in0.0 mm
06:26 PM -8.0°F-22.2°C -17.9°F-27.7°C 61% 3.0 mph W4.8 kmh W -- 30.53 in1033.9 mb 0.00 in0.0 mm 0.00 in0.0 mm 0.00 in0.0 mm
06:27 PM -8.0°F-22.2°C -17.9°F-27.7°C 61% 4.0 mph W6.4 kmh W -- 30.53 in1033.9 mb 0.00 in0.0 mm 0.00 in0.0 mm 0.00 in0.0 mm
06:28 PM -8.0°F-22.2°C -17.9°F-27.7°C 61% 3.0 mph WNW4.8 kmh WNW -- 30.53 in1033.9 mb 0.00 in0.0 mm 0.00 in0.0 mm 0.00 in0.0 mm
06:29 PM -8.0°F-22.2°C -17.9°F-27.7°C 61% 4.0 mph W6.4 kmh W -- 30.54 in1034.2 mb 0.00 in0.0 mm 0.00 in0.0 mm 0.00 in0.0 mm
06:30 PM -8.1°F-22.3°C -18.1°F-27.8°C 61% 2.0 mph W3.2 kmh W -- 30.54 in1034.2 mb 0.00 in0.0 mm 0.00 in0.0 mm 0.00 in0.0 mm
06:31 PM -8.3°F-22.4°C -18.2°F-27.9°C 61% 3.0 mph W4.8 kmh W -- 30.54 in1034.2 mb 0.00 in0.0 mm 0.00 in0.0 mm 0.00 in0.0 mm
06:32 PM -8.3°F-22.4°C -17.9°F-27.7°C 62% 4.0 mph W6.4 kmh W -- 30.53 in1033.9 mb 0.00 in0.0 mm 0.00 in0.0 mm 0.00 in0.0 mm
06:33 PM -8.5°F-22.5°C -18.4°F-28.0°C 61% 3.0 mph W4.8 kmh W -- 30.54 in1034.2 mb 0.00 in0.0 mm 0.00 in0.0 mm 0.00 in0.0 mm
06:34 PM -8.5°F-22.5°C -17.8°F-27.7°C 63% 2.0 mph W3.2 kmh W -- 30.54 in1034.2 mb 0.00 in0.0 mm 0.00 in0.0 mm 0.00 in0.0 mm
06:35 PM -8.5°F-22.5°C -17.8°F-27.7°C 63% 3.0 mph W4.8 kmh W -- 30.54 in1034.2 mb 0.00 in0.0 mm 0.00 in0.0 mm 0.00 in0.0 mm
06:36 PM -8.5°F-22.5°C -17.8°F-27.7°C 63% 2.0 mph W3.2 kmh W -- 30.54 in1034.2 mb 0.00 in0.0 mm 0.00 in0.0 mm 0.00 in0.0 mm
06:37 PM -8.8°F-22.7°C -18.1°F-27.8°C 63% 3.0 mph W4.8 kmh W -- 30.54 in1034.2 mb 0.00 in0.0 mm 0.00 in0.0 mm 0.00 in0.0 mm
06:38 PM -9.0°F-22.8°C -18.3°F-27.9°C 63% 3.0 mph W4.8 kmh W -- 30.53 in1033.9 mb 0.00 in0.0 mm 0.00 in0.0 mm 0.00 in0.0 mm
06:39 PM -9.0°F-22.8°C -18.3°F-27.9°C 63% 3.0 mph WNW4.8 kmh WNW -- 30.53 in1033.9 mb 0.00 in0.0 mm 0.00 in0.0 mm 0.00 in0.0 mm
06:40 PM -9.1°F-22.8°C -18.3°F-27.9°C 63% 2.0 mph W3.2 kmh W -- 30.53 in1033.9 mb 0.00 in0.0 mm 0.00 in0.0 mm 0.00 in0.0 mm
06:41 PM -9.1°F-22.8°C -18.3°F-27.9°C 63% 2.0 mph W3.2 kmh W -- 30.54 in1034.2 mb 0.00 in0.0 mm 0.00 in0.0 mm 0.00 in0.0 mm
06:42 PM -9.1°F-22.8°C -18.3°F-27.9°C 63% 2.0 mph W3.2 kmh W -- 30.53 in1033.9 mb 0.00 in0.0 mm 0.00 in0.0 mm 0.00 in0.0 mm
06:44 PM -9.3°F-22.9°C -18.5°F-28.1°C 63% 2.0 mph W3.2 kmh W -- 30.54 in1034.2 mb 0.00 in0.0 mm 0.00 in0.0 mm 0.00 in0.0 mm
06:45 PM -9.3°F-22.9°C -18.5°F-28.1°C 63% 3.0 mph W4.8 kmh W -- 30.54 in1034.2 mb 0.00 in0.0 mm 0.00 in0.0 mm 0.00 in0.0 mm
06:46 PM -9.6°F-23.1°C -18.8°F-28.2°C 63% 4.0 mph W6.4 kmh W -- 30.54 in1034.2 mb 0.00 in0.0 mm 0.00 in0.0 mm 0.00 in0.0 mm
06:47 PM -9.8°F-23.2°C -19.0°F-28.3°C 63% 3.0 mph W4.8 kmh W -- 30.54 in1034.2 mb 0.00 in0.0 mm 0.00 in0.0 mm 0.00 in0.0 mm
06:48 PM -10.0°F-23.3°C -19.1°F-28.4°C 63% 2.0 mph W3.2 kmh W -- 30.54 in1034.2 mb 0.00 in0.0 mm 0.00 in0.0 mm 0.00 in0.0 mm
06:50 PM -10.0°F-23.3°C -18.5°F-28.1°C 65% 3.0 mph W4.8 kmh W -- 30.54 in1034.2 mb 0.00 in0.0 mm 0.00 in0.0 mm 0.00 in0.0 mm
06:51 PM -10.2°F-23.4°C -18.7°F-28.2°C 65% 3.0 mph W4.8 kmh W -- 30.54 in1034.2 mb 0.00 in0.0 mm 0.00 in0.0 mm 0.00 in0.0 mm
06:52 PM -10.4°F-23.6°C -19.0°F-28.3°C 65% 3.0 mph W4.8 kmh W -- 30.54 in1034.2 mb 0.00 in0.0 mm 0.00 in0.0 mm 0.00 in0.0 mm
06:53 PM -10.4°F-23.6°C -19.0°F-28.3°C 65% 2.0 mph W3.2 kmh W -- 30.54 in1034.2 mb 0.00 in0.0 mm 0.00 in0.0 mm 0.00 in0.0 mm
06:54 PM -10.6°F-23.7°C -19.2°F-28.4°C 65% 5.0 mph W8.0 kmh W -- 30.54 in1034.2 mb 0.00 in0.0 mm 0.00 in0.0 mm 0.00 in0.0 mm
06:55 PM -10.6°F-23.7°C -19.2°F-28.4°C 65% 4.0 mph W6.4 kmh W -- 30.54 in1034.2 mb 0.00 in0.0 mm 0.00 in0.0 mm 0.00 in0.0 mm
06:56 PM -10.2°F-23.4°C -18.7°F-28.2°C 65% 4.0 mph W6.4 kmh W -- 30.54 in1034.2 mb 0.00 in0.0 mm 0.00 in0.0 mm 0.00 in0.0 mm
06:57 PM -10.0°F-23.3°C -18.5°F-28.1°C 65% 5.0 mph W8.0 kmh W -- 30.53 in1033.9 mb 0.00 in0.0 mm 0.00 in0.0 mm 0.00 in0.0 mm
06:58 PM -9.8°F-23.2°C -19.0°F-28.3°C 63% 4.0 mph W6.4 kmh W -- 30.53 in1033.9 mb 0.00 in0.0 mm 0.00 in0.0 mm 0.00 in0.0 mm
06:59 PM -9.8°F-23.2°C -19.0°F-28.3°C 63% 6.0 mph WNW9.7 kmh WNW -- 30.53 in1033.9 mb 0.00 in0.0 mm 0.00 in0.0 mm 0.00 in0.0 mm
07:00 PM -9.8°F-23.2°C -19.0°F-28.3°C 63% 5.0 mph W8.0 kmh W -- 30.53 in1033.9 mb 0.00 in0.0 mm 0.00 in0.0 mm 0.00 in0.0 mm
07:01 PM -10.2°F-23.4°C -19.3°F-28.5°C 63% 4.0 mph WNW6.4 kmh WNW -- 30.53 in1033.9 mb 0.00 in0.0 mm 0.00 in0.0 mm 0.00 in0.0 mm
07:02 PM -10.6°F-23.7°C -19.8°F-28.8°C 63% 5.0 mph WNW8.0 kmh WNW -- 30.54 in1034.2 mb 0.00 in0.0 mm 0.00 in0.0 mm 0.00 in0.0 mm
07:03 PM -10.8°F-23.8°C -20.0°F-28.9°C 63% 4.0 mph W6.4 kmh W -- 30.54 in1034.2 mb 0.00 in0.0 mm 0.00 in0.0 mm 0.00 in0.0 mm
07:04 PM -10.8°F-23.8°C -20.0°F-28.9°C 63% 4.0 mph W6.4 kmh W -- 30.53 in1033.9 mb 0.00 in0.0 mm 0.00 in0.0 mm 0.00 in0.0 mm
07:05 PM -11.3°F-24.1°C -20.5°F-29.2°C 63% 4.0 mph W6.4 kmh W -- 30.53 in1033.9 mb 0.00 in0.0 mm 0.00 in0.0 mm 0.00 in0.0 mm
07:06 PM -11.6°F-24.2°C -20.1°F-28.9°C 65% 4.0 mph W6.4 kmh W -- 30.53 in1033.9 mb 0.00 in0.0 mm 0.00 in0.0 mm 0.00 in0.0 mm
07:07 PM -11.6°F-24.2°C -20.1°F-28.9°C 65% 4.0 mph WNW6.4 kmh WNW -- 30.54 in1034.2 mb 0.00 in0.0 mm 0.00 in0.0 mm 0.00 in0.0 mm
07:08 PM -11.8°F-24.3°C -20.2°F-29.0°C 65% 4.0 mph W6.4 kmh W -- 30.53 in1033.9 mb 0.00 in0.0 mm 0.00 in0.0 mm 0.00 in0.0 mm
07:09 PM -11.8°F-24.3°C -20.2°F-29.0°C 65% 4.0 mph WNW6.4 kmh WNW -- 30.53 in1033.9 mb 0.00 in0.0 mm 0.00 in0.0 mm 0.00 in0.0 mm
07:10 PM -12.1°F-24.5°C -20.6°F-29.2°C 65% 5.0 mph W8.0 kmh W -- 30.53 in1033.9 mb 0.00 in0.0 mm 0.00 in0.0 mm 0.00 in0.0 mm
07:11 PM -12.3°F-24.6°C -20.8°F-29.3°C 65% 6.0 mph W9.7 kmh W -- 30.53 in1033.9 mb 0.00 in0.0 mm 0.00 in0.0 mm 0.00 in0.0 mm
07:12 PM -12.5°F-24.7°C -20.6°F-29.2°C 66% 4.0 mph WNW6.4 kmh WNW -- 30.53 in1033.9 mb 0.00 in0.0 mm 0.00 in0.0 mm 0.00 in0.0 mm
07:13 PM -12.5°F-24.7°C -20.6°F-29.2°C 66% 4.0 mph W6.4 kmh W -- 30.53 in1033.9 mb 0.00 in0.0 mm 0.00 in0.0 mm 0.00 in0.0 mm
07:14 PM -12.7°F-24.8°C -20.8°F-29.3°C 66% 4.0 mph W6.4 kmh W -- 30.53 in1033.9 mb 0.00 in0.0 mm 0.00 in0.0 mm 0.00 in0.0 mm
07:15 PM -12.7°F-24.8°C -20.8°F-29.3°C 66% 4.0 mph WNW6.4 kmh WNW -- 30.53 in1033.9 mb 0.00 in0.0 mm 0.00 in0.0 mm 0.00 in0.0 mm
07:16 PM -12.7°F-24.8°C -20.8°F-29.3°C 66% 4.0 mph W6.4 kmh W -- 30.53 in1033.9 mb 0.00 in0.0 mm 0.00 in0.0 mm 0.00 in0.0 mm
07:17 PM -12.7°F-24.8°C -20.8°F-29.3°C 66% 5.0 mph W8.0 kmh W -- 30.54 in1034.2 mb 0.00 in0.0 mm 0.00 in0.0 mm 0.00 in0.0 mm
07:18 PM -12.7°F-24.8°C -20.2°F-29.0°C 68% 4.0 mph W6.4 kmh W -- 30.54 in1034.2 mb 0.00 in0.0 mm 0.00 in0.0 mm 0.00 in0.0 mm
07:19 PM -12.9°F-24.9°C -20.4°F-29.1°C 68% 4.0 mph W6.4 kmh W -- 30.54 in1034.2 mb 0.00 in0.0 mm 0.00 in0.0 mm 0.00 in0.0 mm
07:20 PM -12.9°F-24.9°C -20.4°F-29.1°C 68% 5.0 mph W8.0 kmh W -- 30.54 in1034.2 mb 0.00 in0.0 mm 0.00 in0.0 mm 0.00 in0.0 mm
07:21 PM -12.9°F-24.9°C -20.4°F-29.1°C 68% 4.0 mph W6.4 kmh W -- 30.54 in1034.2 mb 0.00 in0.0 mm 0.00 in0.0 mm 0.00 in0.0 mm
07:22 PM -13.1°F-25.1°C -20.8°F-29.3°C 68% 4.0 mph W6.4 kmh W -- 30.54 in1034.2 mb 0.00 in0.0 mm 0.00 in0.0 mm 0.00 in0.0 mm
07:24 PM -13.3°F-25.2°C -20.9°F-29.4°C 68% 4.0 mph W6.4 kmh W -- 30.54 in1034.2 mb 0.00 in0.0 mm 0.00 in0.0 mm 0.00 in0.0 mm
07:25 PM -13.3°F-25.2°C -20.6°F-29.2°C 69% 4.0 mph W6.4 kmh W -- 30.54 in1034.2 mb 0.00 in0.0 mm 0.00 in0.0 mm 0.00 in0.0 mm
07:26 PM -13.3°F-25.2°C -20.6°F-29.2°C 69% 5.0 mph W8.0 kmh W -- 30.53 in1033.9 mb 0.00 in0.0 mm 0.00 in0.0 mm 0.00 in0.0 mm
07:27 PM -13.5°F-25.3°C -20.8°F-29.3°C 69% 4.0 mph W6.4 kmh W -- 30.53 in1033.9 mb 0.00 in0.0 mm 0.00 in0.0 mm 0.00 in0.0 mm
07:28 PM -13.5°F-25.3°C -20.8°F-29.3°C 69% 5.0 mph WNW8.0 kmh WNW -- 30.53 in1033.9 mb 0.00 in0.0 mm 0.00 in0.0 mm 0.00 in0.0 mm
07:29 PM -13.5°F-25.3°C -20.8°F-29.3°C 69% 4.0 mph W6.4 kmh W -- 30.54 in1034.2 mb 0.00 in0.0 mm 0.00 in0.0 mm 0.00 in0.0 mm
07:30 PM -13.5°F-25.3°C -20.8°F-29.3°C 69% 4.0 mph WNW6.4 kmh WNW -- 30.54 in1034.2 mb 0.00 in0.0 mm 0.00 in0.0 mm 0.00 in0.0 mm
07:31 PM -13.5°F-25.3°C -20.8°F-29.3°C 69% 4.0 mph W6.4 kmh W -- 30.54 in1034.2 mb 0.00 in0.0 mm 0.00 in0.0 mm 0.00 in0.0 mm
07:32 PM -13.5°F-25.3°C -20.8°F-29.3°C 69% 3.0 mph W4.8 kmh W -- 30.54 in1034.2 mb 0.00 in0.0 mm 0.00 in0.0 mm 0.00 in0.0 mm
07:33 PM -13.6°F-25.3°C -20.8°F-29.3°C 69% 4.0 mph W6.4 kmh W -- 30.54 in1034.2 mb 0.00 in0.0 mm 0.00 in0.0 mm 0.00 in0.0 mm
07:36 PM -13.8°F-25.4°C -20.7°F-29.3°C 70% 4.0 mph W6.4 kmh W -- 30.54 in1034.2 mb 0.00 in0.0 mm 0.00 in0.0 mm 0.00 in0.0 mm
07:37 PM -13.8°F-25.4°C -20.7°F-29.3°C 70% 3.0 mph W4.8 kmh W -- 30.54 in1034.2 mb 0.00 in0.0 mm 0.00 in0.0 mm 0.00 in0.0 mm
07:40 PM -14.1°F-25.6°C -21.1°F-29.5°C 70% 3.0 mph W4.8 kmh W -- 30.54 in1034.2 mb 0.00 in0.0 mm 0.00 in0.0 mm 0.00 in0.0 mm
07:41 PM -14.3°F-25.7°C -21.2°F-29.6°C 70% 3.0 mph WNW4.8 kmh WNW -- 30.54 in1034.2 mb 0.00 in0.0 mm 0.00 in0.0 mm 0.00 in0.0 mm
07:42 PM -14.3°F-25.7°C -21.2°F-29.6°C 70% 3.0 mph W4.8 kmh W -- 30.55 in1034.5 mb 0.00 in0.0 mm 0.00 in0.0 mm 0.00 in0.0 mm
07:43 PM -14.3°F-25.7°C -21.2°F-29.6°C 70% 3.0 mph WNW4.8 kmh WNW -- 30.54 in1034.2 mb 0.00 in0.0 mm 0.00 in0.0 mm 0.00 in0.0 mm
07:44 PM -14.3°F-25.7°C -21.2°F-29.6°C 70% 2.0 mph W3.2 kmh W -- 30.54 in1034.2 mb 0.00 in0.0 mm 0.00 in0.0 mm 0.00 in0.0 mm
07:45 PM -14.3°F-25.7°C -21.2°F-29.6°C 70% 3.0 mph W4.8 kmh W -- 30.54 in1034.2 mb 0.00 in0.0 mm 0.00 in0.0 mm 0.00 in0.0 mm
07:46 PM -14.3°F-25.7°C -21.2°F-29.6°C 70% 4.0 mph W6.4 kmh W -- 30.55 in1034.5 mb 0.00 in0.0 mm 0.00 in0.0 mm 0.00 in0.0 mm
07:47 PM -14.6°F-25.9°C -21.6°F-29.8°C 70% 2.0 mph WNW3.2 kmh WNW -- 30.55 in1034.5 mb 0.00 in0.0 mm 0.00 in0.0 mm 0.00 in0.0 mm
07:48 PM -14.6°F-25.9°C -21.6°F-29.8°C 70% 2.0 mph W3.2 kmh W -- 30.55 in1034.5 mb 0.00 in0.0 mm 0.00 in0.0 mm 0.00 in0.0 mm
07:49 PM -14.6°F-25.9°C -21.6°F-29.8°C 70% 2.0 mph W3.2 kmh W -- 30.54 in1034.2 mb 0.00 in0.0 mm 0.00 in0.0 mm 0.00 in0.0 mm
07:52 PM -14.8°F-26.0°C -21.8°F-29.9°C 70% 2.0 mph W3.2 kmh W -- 30.55 in1034.5 mb 0.00 in0.0 mm 0.00 in0.0 mm 0.00 in0.0 mm
07:54 PM -14.8°F-26.0°C -21.8°F-29.9°C 70% 4.0 mph WSW6.4 kmh WSW -- 30.55 in1034.5 mb 0.00 in0.0 mm 0.00 in0.0 mm 0.00 in0.0 mm
07:55 PM -14.8°F-26.0°C -21.5°F-29.7°C 71% 2.0 mph W3.2 kmh W -- 30.54 in1034.2 mb 0.00 in0.0 mm 0.00 in0.0 mm 0.00 in0.0 mm
07:56 PM -15.0°F-26.1°C -21.7°F-29.8°C 71% 4.0 mph W6.4 kmh W -- 30.55 in1034.5 mb 0.00 in0.0 mm 0.00 in0.0 mm 0.00 in0.0 mm
07:57 PM -15.0°F-26.1°C -21.7°F-29.8°C 71% 2.0 mph W3.2 kmh W -- 30.55 in1034.5 mb 0.00 in0.0 mm 0.00 in0.0 mm 0.00 in0.0 mm
07:59 PM -15.0°F-26.1°C -21.7°F-29.8°C 71% 3.0 mph WSW4.8 kmh WSW -- 30.55 in1034.5 mb 0.00 in0.0 mm 0.00 in0.0 mm 0.00 in0.0 mm
08:00 PM -15.1°F-26.2°C -21.8°F-29.9°C 71% 2.0 mph W3.2 kmh W -- 30.54 in1034.2 mb 0.00 in0.0 mm 0.00 in0.0 mm 0.00 in0.0 mm
08:02 PM -15.1°F-26.2°C -21.8°F-29.9°C 71% 2.0 mph W3.2 kmh W -- 30.55 in1034.5 mb 0.00 in0.0 mm 0.00 in0.0 mm 0.00 in0.0 mm
08:03 PM -15.2°F-26.2°C -21.8°F-29.9°C 71% 2.0 mph W3.2 kmh W -- 30.54 in1034.2 mb 0.00 in0.0 mm 0.00 in0.0 mm 0.00 in0.0 mm
08:05 PM -15.2°F-26.2°C -21.8°F-29.9°C 71% 3.0 mph W4.8 kmh W -- 30.54 in1034.2 mb 0.00 in0.0 mm 0.00 in0.0 mm 0.00 in0.0 mm
08:06 PM -15.2°F-26.2°C -21.8°F-29.9°C 71% 3.0 mph WNW4.8 kmh WNW -- 30.55 in1034.5 mb 0.00 in0.0 mm 0.00 in0.0 mm 0.00 in0.0 mm
08:07 PM -15.2°F-26.2°C -21.3°F-29.6°C 73% 2.0 mph W3.2 kmh W -- 30.55 in1034.5 mb 0.00 in0.0 mm 0.00 in0.0 mm 0.00 in0.0 mm
08:08 PM -15.2°F-26.2°C -21.3°F-29.6°C 73% 2.0 mph WNW3.2 kmh WNW -- 30.55 in1034.5 mb 0.00 in0.0 mm 0.00 in0.0 mm 0.00 in0.0 mm
08:10 PM -15.4°F-26.3°C -21.5°F-29.7°C 73% 1.0 mph NW1.6 kmh NW -- 30.55 in1034.5 mb 0.00 in0.0 mm 0.00 in0.0 mm 0.00 in0.0 mm
08:11 PM -15.4°F-26.3°C -21.5°F-29.7°C 73% 2.0 mph W3.2 kmh W -- 30.55 in1034.5 mb 0.00 in0.0 mm 0.00 in0.0 mm 0.00 in0.0 mm
08:12 PM -15.4°F-26.3°C -21.5°F-29.7°C 73% 2.0 mph WNW3.2 kmh WNW -- 30.55 in1034.5 mb 0.00 in0.0 mm 0.00 in0.0 mm 0.00 in0.0 mm
08:13 PM -15.4°F-26.3°C -21.5°F-29.7°C 73% 2.0 mph W3.2 kmh W -- 30.54 in1034.2 mb 0.00 in0.0 mm 0.00 in0.0 mm 0.00 in0.0 mm
08:14 PM -15.6°F-26.4°C -21.6°F-29.8°C 73% 3.0 mph WNW4.8 kmh WNW -- 30.55 in1034.5 mb 0.00 in0.0 mm 0.00 in0.0 mm 0.00 in0.0 mm
08:15 PM -15.6°F-26.4°C -21.6°F-29.8°C 73% 2.0 mph WNW3.2 kmh WNW -- 30.54 in1034.2 mb 0.00 in0.0 mm 0.00 in0.0 mm 0.00 in0.0 mm
08:16 PM -15.6°F-26.4°C -21.6°F-29.8°C 73% 2.0 mph NW3.2 kmh NW -- 30.55 in1034.5 mb 0.00 in0.0 mm 0.00 in0.0 mm 0.00 in0.0 mm
08:17 PM -15.8°F-26.6°C -21.7°F-29.8°C 74% 3.0 mph NW4.8 kmh NW -- 30.54 in1034.2 mb 0.00 in0.0 mm 0.00 in0.0 mm 0.00 in0.0 mm
08:18 PM -15.8°F-26.6°C -21.7°F-29.8°C 74% 3.0 mph NW4.8 kmh NW -- 30.55 in1034.5 mb 0.00 in0.0 mm 0.00 in0.0 mm 0.00 in0.0 mm
08:21 PM -15.8°F-26.6°C -21.7°F-29.8°C 74% 3.0 mph NNW4.8 kmh NNW -- 30.54 in1034.2 mb 0.00 in0.0 mm 0.00 in0.0 mm 0.00 in0.0 mm
08:22 PM -15.8°F-26.6°C -21.7°F-29.8°C 74% 4.0 mph NW6.4 kmh NW -- 30.54 in1034.2 mb 0.00 in0.0 mm 0.00 in0.0 mm 0.00 in0.0 mm
08:23 PM -15.8°F-26.6°C -21.7°F-29.8°C 74% 3.0 mph NW4.8 kmh NW -- 30.54 in1034.2 mb 0.00 in0.0 mm 0.00 in0.0 mm 0.00 in0.0 mm
08:29 PM -15.8°F-26.6°C -21.7°F-29.8°C 74% 2.0 mph NW3.2 kmh NW -- 30.54 in1034.2 mb 0.00 in0.0 mm 0.00 in0.0 mm 0.00 in0.0 mm
08:30 PM -15.8°F-26.6°C -21.7°F-29.8°C 74% 3.0 mph WNW4.8 kmh WNW -- 30.54 in1034.2 mb 0.00 in0.0 mm 0.00 in0.0 mm 0.00 in0.0 mm
08:31 PM -15.8°F-26.6°C -21.7°F-29.8°C 74% 2.0 mph NW3.2 kmh NW -- 30.54 in1034.2 mb 0.00 in0.0 mm 0.00 in0.0 mm 0.00 in0.0 mm
08:32 PM -15.8°F-26.6°C -21.7°F-29.8°C 74% 3.0 mph NW4.8 kmh NW -- 30.55 in1034.5 mb 0.00 in0.0 mm 0.00 in0.0 mm 0.00 in0.0 mm
08:33 PM -15.8°F-26.6°C -21.7°F-29.8°C 74% 3.0 mph WNW4.8 kmh WNW -- 30.55 in1034.5 mb 0.00 in0.0 mm 0.00 in0.0 mm 0.00 in0.0 mm
08:34 PM -15.8°F-26.6°C -21.7°F-29.8°C 74% 3.0 mph NW4.8 kmh NW -- 30.54 in1034.2 mb 0.00 in0.0 mm 0.00 in0.0 mm 0.00 in0.0 mm
08:36 PM -15.8°F-26.6°C -21.7°F-29.8°C 74% 2.0 mph NW3.2 kmh NW -- 30.54 in1034.2 mb 0.00 in0.0 mm 0.00 in0.0 mm 0.00 in0.0 mm
08:37 PM -15.8°F-26.6°C -21.7°F-29.8°C 74% 3.0 mph NW4.8 kmh NW -- 30.54 in1034.2 mb 0.00 in0.0 mm 0.00 in0.0 mm 0.00 in0.0 mm
08:39 PM -15.8°F-26.6°C -21.7°F-29.8°C 74% 2.0 mph NW3.2 kmh NW -- 30.54 in1034.2 mb 0.00 in0.0 mm 0.00 in0.0 mm 0.00 in0.0 mm
08:40 PM -16.1°F-26.7°C -21.9°F-29.9°C 74% 2.0 mph WNW3.2 kmh WNW -- 30.54 in1034.2 mb 0.00 in0.0 mm 0.00 in0.0 mm 0.00 in0.0 mm
08:41 PM -16.1°F-26.7°C -21.9°F-29.9°C 74% 2.0 mph NNW3.2 kmh NNW -- 30.55 in1034.5 mb 0.00 in0.0 mm 0.00 in0.0 mm 0.00 in0.0 mm
08:43 PM -16.2°F-26.8°C -22.1°F-30.1°C 74% 2.0 mph NNW3.2 kmh NNW -- 30.55 in1034.5 mb 0.00 in0.0 mm 0.00 in0.0 mm 0.00 in0.0 mm
08:44 PM -16.2°F-26.8°C -22.1°F-30.1°C 74% 2.0 mph NW3.2 kmh NW -- 30.55 in1034.5 mb 0.00 in0.0 mm 0.00 in0.0 mm 0.00 in0.0 mm
08:45 PM -16.2°F-26.8°C -22.1°F-30.1°C 74% 2.0 mph NNW3.2 kmh NNW -- 30.55 in1034.5 mb 0.00 in0.0 mm 0.00 in0.0 mm 0.00 in0.0 mm
08:46 PM -16.4°F-26.9°C -22.3°F-30.2°C 74% 2.0 mph NW3.2 kmh NW -- 30.55 in1034.5 mb 0.00 in0.0 mm 0.00 in0.0 mm 0.00 in0.0 mm
08:47 PM -16.4°F-26.9°C -22.3°F-30.2°C 74% 2.0 mph NNW3.2 kmh NNW -- 30.55 in1034.5 mb 0.00 in0.0 mm 0.00 in0.0 mm 0.00 in0.0 mm
08:48 PM -16.4°F-26.9°C -22.3°F-30.2°C 74% 2.0 mph NW3.2 kmh NW -- 30.55 in1034.5 mb 0.00 in0.0 mm 0.00 in0.0 mm 0.00 in0.0 mm
08:49 PM -16.6°F-27.0°C -22.4°F-30.2°C 74% Calm Calm -- 30.55 in1034.5 mb 0.00 in0.0 mm 0.00 in0.0 mm 0.00 in0.0 mm
08:50 PM -16.6°F-27.0°C -22.4°F-30.2°C 74% 2.0 mph W3.2 kmh W -- 30.55 in1034.5 mb 0.00 in0.0 mm 0.00 in0.0 mm 0.00 in0.0 mm
08:51 PM -16.7°F-27.1°C -22.6°F-30.3°C 74% 2.0 mph WNW3.2 kmh WNW -- 30.55 in1034.5 mb 0.00 in0.0 mm 0.00 in0.0 mm 0.00 in0.0 mm
08:52 PM -17.0°F-27.2°C -22.8°F-30.4°C 74% 2.0 mph WNW3.2 kmh WNW -- 30.55 in1034.5 mb 0.00 in0.0 mm 0.00 in0.0 mm 0.00 in0.0 mm
08:54 PM -17.0°F-27.2°C -22.8°F-30.4°C 74% 2.0 mph W3.2 kmh W -- 30.55 in1034.5 mb 0.00 in0.0 mm 0.00 in0.0 mm 0.00 in0.0 mm
08:55 PM -17.1°F-27.3°C -23.0°F-30.6°C 74% 3.0 mph WNW4.8 kmh WNW -- 30.54 in1034.2 mb 0.00 in0.0 mm 0.00 in0.0 mm 0.00 in0.0 mm
08:56 PM -17.1°F-27.3°C -23.0°F-30.6°C 74% 2.0 mph WNW3.2 kmh WNW -- 30.55 in1034.5 mb 0.00 in0.0 mm 0.00 in0.0 mm 0.00 in0.0 mm
08:57 PM -17.1°F-27.3°C -23.0°F-30.6°C 74% 3.0 mph WNW4.8 kmh WNW -- 30.55 in1034.5 mb 0.00 in0.0 mm 0.00 in0.0 mm 0.00 in0.0 mm
08:58 PM -17.1°F-27.3°C -22.7°F-30.4°C 75% 2.0 mph WNW3.2 kmh WNW -- 30.55 in1034.5 mb 0.00 in0.0 mm 0.00 in0.0 mm 0.00 in0.0 mm
08:59 PM -17.2°F-27.3°C -22.7°F-30.4°C 75% 1.0 mph WNW1.6 kmh WNW -- 30.55 in1034.5 mb 0.00 in0.0 mm 0.00 in0.0 mm 0.00 in0.0 mm
09:00 PM -17.2°F-27.3°C -22.7°F-30.4°C 75% Calm Calm -- 30.55 in1034.5 mb 0.00 in0.0 mm 0.00 in0.0 mm 0.00 in0.0 mm
09:01 PM -17.2°F-27.3°C -22.7°F-30.4°C 75% 2.0 mph WNW3.2 kmh WNW -- 30.55 in1034.5 mb 0.00 in0.0 mm 0.00 in0.0 mm 0.00 in0.0 mm
09:02 PM -17.5°F-27.5°C -23.0°F-30.6°C 75% Calm Calm -- 30.55 in1034.5 mb 0.00 in0.0 mm 0.00 in0.0 mm 0.00 in0.0 mm
09:03 PM -17.7°F-27.6°C -23.2°F-30.7°C 75% Calm Calm -- 30.55 in1034.5 mb 0.00 in0.0 mm 0.00 in0.0 mm 0.00 in0.0 mm
09:04 PM -17.9°F-27.7°C -23.4°F-30.8°C 75% Calm Calm -- 30.55 in1034.5 mb 0.00 in0.0 mm 0.00 in0.0 mm 0.00 in0.0 mm
09:05 PM -18.2°F-27.9°C -23.7°F-30.9°C 75% 1.0 mph WNW1.6 kmh WNW -- 30.55 in1034.5 mb 0.00 in0.0 mm 0.00 in0.0 mm 0.00 in0.0 mm
09:06 PM -18.2°F-27.9°C -23.7°F-30.9°C 75% Calm Calm -- 30.55 in1034.5 mb 0.00 in0.0 mm 0.00 in0.0 mm 0.00 in0.0 mm
09:07 PM -18.2°F-27.9°C -23.7°F-30.9°C 75% 2.0 mph NNW3.2 kmh NNW -- 30.55 in1034.5 mb 0.00 in0.0 mm 0.00 in0.0 mm 0.00 in0.0 mm
09:08 PM -18.2°F-27.9°C -23.7°F-30.9°C 75% 2.0 mph WNW3.2 kmh WNW -- 30.55 in1034.5 mb 0.00 in0.0 mm 0.00 in0.0 mm 0.00 in0.0 mm
09:10 PM -18.3°F-27.9°C -23.7°F-30.9°C 75% 2.0 mph WNW3.2 kmh WNW -- 30.55 in1034.5 mb 0.00 in0.0 mm 0.00 in0.0 mm 0.00 in0.0 mm
09:11 PM -18.3°F-27.9°C -23.7°F-30.9°C 75% 1.0 mph WNW1.6 kmh WNW -- 30.56 in1034.9 mb 0.00 in0.0 mm 0.00 in0.0 mm 0.00 in0.0 mm
09:12 PM -18.3°F-27.9°C -23.7°F-30.9°C 75% Calm Calm -- 30.55 in1034.5 mb 0.00 in0.0 mm 0.00 in0.0 mm 0.00 in0.0 mm
09:13 PM -18.6°F-28.1°C -24.1°F-31.2°C 75% Calm Calm -- 30.55 in1034.5 mb 0.00 in0.0 mm 0.00 in0.0 mm 0.00 in0.0 mm
09:14 PM -18.7°F-28.2°C -24.3°F-31.3°C 75% Calm Calm -- 30.55 in1034.5 mb 0.00 in0.0 mm 0.00 in0.0 mm 0.00 in0.0 mm
09:15 PM -18.7°F-28.2°C -24.3°F-31.3°C 75% 1.0 mph NNW1.6 kmh NNW -- 30.55 in1034.5 mb 0.00 in0.0 mm 0.00 in0.0 mm 0.00 in0.0 mm
09:16 PM -18.7°F-28.2°C -24.3°F-31.3°C 75% Calm Calm -- 30.55 in1034.5 mb 0.00 in0.0 mm 0.00 in0.0 mm 0.00 in0.0 mm
09:17 PM -18.8°F-28.2°C -24.0°F-31.1°C 76% Calm Calm -- 30.55 in1034.5 mb 0.00 in0.0 mm 0.00 in0.0 mm 0.00 in0.0 mm
09:19 PM -19.1°F-28.4°C -24.4°F-31.3°C 76% Calm Calm -- 30.56 in1034.9 mb 0.00 in0.0 mm 0.00 in0.0 mm 0.00 in0.0 mm
09:20 PM -19.1°F-28.4°C -24.4°F-31.3°C 76% 1.0 mph WNW1.6 kmh WNW -- 30.55 in1034.5 mb 0.00 in0.0 mm 0.00 in0.0 mm 0.00 in0.0 mm
09:21 PM -19.5°F-28.6°C -24.7°F-31.5°C 76% 1.0 mph W1.6 kmh W -- 30.55 in1034.5 mb 0.00 in0.0 mm 0.00 in0.0 mm 0.00 in0.0 mm
09:22 PM -19.7°F-28.7°C -24.9°F-31.6°C 76% 1.0 mph W1.6 kmh W -- 30.55 in1034.5 mb 0.00 in0.0 mm 0.00 in0.0 mm 0.00 in0.0 mm
09:25 PM -20.0°F-28.9°C -25.2°F-31.8°C 76% 1.0 mph W1.6 kmh W -- 30.54 in1034.2 mb 0.00 in0.0 mm 0.00 in0.0 mm 0.00 in0.0 mm
09:26 PM -20.1°F-28.9°C -25.2°F-31.8°C 76% 2.0 mph NW3.2 kmh NW -- 30.55 in1034.5 mb 0.00 in0.0 mm 0.00 in0.0 mm 0.00 in0.0 mm
09:27 PM -20.1°F-28.9°C -25.2°F-31.8°C 76% 2.0 mph WNW3.2 kmh WNW -- 30.55 in1034.5 mb 0.00 in0.0 mm 0.00 in0.0 mm 0.00 in0.0 mm
09:28 PM -20.1°F-28.9°C -24.8°F-31.6°C 78% 2.0 mph WNW3.2 kmh WNW -- 30.55 in1034.5 mb 0.00 in0.0 mm 0.00 in0.0 mm 0.00 in0.0 mm
09:29 PM -20.1°F-28.9°C -24.5°F-31.4°C 79% 2.0 mph WNW3.2 kmh WNW -- 30.55 in1034.5 mb 0.00 in0.0 mm 0.00 in0.0 mm 0.00 in0.0 mm
09:30 PM -20.0°F-28.9°C -24.5°F-31.4°C 79% 2.0 mph WNW3.2 kmh WNW -- 30.55 in1034.5 mb 0.00 in0.0 mm 0.00 in0.0 mm 0.00 in0.0 mm
09:31 PM -20.0°F-28.9°C -24.5°F-31.4°C 79% 1.0 mph WNW1.6 kmh WNW -- 30.55 in1034.5 mb 0.00 in0.0 mm 0.00 in0.0 mm 0.00 in0.0 mm
09:32 PM -20.0°F-28.9°C -24.5°F-31.4°C 79% Calm Calm -- 30.55 in1034.5 mb 0.00 in0.0 mm 0.00 in0.0 mm 0.00 in0.0 mm
09:33 PM -20.1°F-28.9°C -24.5°F-31.4°C 79% 1.0 mph WSW1.6 kmh WSW -- 30.55 in1034.5 mb 0.00 in0.0 mm 0.00 in0.0 mm 0.00 in0.0 mm
09:34 PM -20.1°F-28.9°C -24.5°F-31.4°C 79% 2.0 mph SW3.2 kmh SW -- 30.55 in1034.5 mb 0.00 in0.0 mm 0.00 in0.0 mm 0.00 in0.0 mm
09:35 PM -20.3°F-29.1°C -24.9°F-31.6°C 79% 2.0 mph WSW3.2 kmh WSW -- 30.55 in1034.5 mb 0.00 in0.0 mm 0.00 in0.0 mm 0.00 in0.0 mm
09:36 PM -20.3°F-29.1°C -25.1°F-31.7°C 78% 2.0 mph WSW3.2 kmh WSW -- 30.55 in1034.5 mb 0.00 in0.0 mm 0.00 in0.0 mm 0.00 in0.0 mm
09:37 PM -20.3°F-29.1°C -25.1°F-31.7°C 78% 2.0 mph W3.2 kmh W -- 30.55 in1034.5 mb 0.00 in0.0 mm 0.00 in0.0 mm 0.00 in0.0 mm
09:38 PM -20.5°F-29.2°C -25.3°F-31.8°C 78% 1.0 mph W1.6 kmh W -- 30.55 in1034.5 mb 0.00 in0.0 mm 0.00 in0.0 mm 0.00 in0.0 mm
09:39 PM -20.5°F-29.2°C -25.3°F-31.8°C 78% Calm Calm -- 30.55 in1034.5 mb 0.00 in0.0 mm 0.00 in0.0 mm 0.00 in0.0 mm
09:41 PM -20.5°F-29.2°C -25.3°F-31.8°C 78% 1.0 mph WNW1.6 kmh WNW -- 30.55 in1034.5 mb 0.00 in0.0 mm 0.00 in0.0 mm 0.00 in0.0 mm
09:42 PM -20.5°F-29.2°C -25.0°F-31.7°C 79% 1.0 mph W1.6 kmh W -- 30.55 in1034.5 mb 0.00 in0.0 mm 0.00 in0.0 mm 0.00 in0.0 mm
09:43 PM -20.5°F-29.2°C -25.0°F-31.7°C 79% Calm Calm -- 30.55 in1034.5 mb 0.00 in0.0 mm 0.00 in0.0 mm 0.00 in0.0 mm
09:44 PM -20.5°F-29.2°C -25.0°F-31.7°C 79% Calm Calm -- 30.55 in1034.5 mb 0.00 in0.0 mm 0.00 in0.0 mm 0.00 in0.0 mm
09:46 PM -20.5°F-29.2°C -25.0°F-31.7°C 79% 3.0 mph W4.8 kmh W -- 30.55 in1034.5 mb 0.00 in0.0 mm 0.00 in0.0 mm 0.00 in0.0 mm
09:47 PM -20.5°F-29.2°C -25.0°F-31.7°C 79% 2.0 mph NW3.2 kmh NW -- 30.55 in1034.5 mb 0.00 in0.0 mm 0.00 in0.0 mm 0.00 in0.0 mm
09:48 PM -20.5°F-29.2°C -24.8°F-31.6°C 80% 2.0 mph W3.2 kmh W -- 30.55 in1034.5 mb 0.00 in0.0 mm 0.00 in0.0 mm 0.00 in0.0 mm
09:49 PM -20.5°F-29.2°C -24.8°F-31.6°C 80% Calm Calm -- 30.55 in1034.5 mb 0.00 in0.0 mm 0.00 in0.0 mm 0.00 in0.0 mm
09:50 PM -20.5°F-29.2°C -24.8°F-31.6°C 80% 1.0 mph W1.6 kmh W -- 30.55 in1034.5 mb 0.00 in0.0 mm 0.00 in0.0 mm 0.00 in0.0 mm
09:51 PM -20.5°F-29.2°C -24.8°F-31.6°C 80% 1.0 mph WSW1.6 kmh WSW -- 30.55 in1034.5 mb 0.00 in0.0 mm 0.00 in0.0 mm 0.00 in0.0 mm
09:52 PM -20.5°F-29.2°C -24.8°F-31.6°C 80% 2.0 mph NNW3.2 kmh NNW -- 30.55 in1034.5 mb 0.00 in0.0 mm 0.00 in0.0 mm 0.00 in0.0 mm
09:53 PM -20.7°F-29.3°C -25.0°F-31.7°C 80% Calm Calm -- 30.56 in1034.9 mb 0.00 in0.0 mm 0.00 in0.0 mm 0.00 in0.0 mm
09:54 PM -20.7°F-29.3°C -25.0°F-31.7°C 80% 2.0 mph NNW3.2 kmh NNW -- 30.55 in1034.5 mb 0.00 in0.0 mm 0.00 in0.0 mm 0.00 in0.0 mm
09:55 PM -20.7°F-29.3°C -25.0°F-31.7°C 80% 3.0 mph WNW4.8 kmh WNW -- 30.56 in1034.9 mb 0.00 in0.0 mm 0.00 in0.0 mm 0.00 in0.0 mm
09:56 PM -20.5°F-29.2°C -24.8°F-31.6°C 80% 2.0 mph WNW3.2 kmh WNW -- 30.55 in1034.5 mb 0.00 in0.0 mm 0.00 in0.0 mm 0.00 in0.0 mm
09:57 PM -20.5°F-29.2°C -24.8°F-31.6°C 80% 2.0 mph W3.2 kmh W -- 30.55 in1034.5 mb 0.00 in0.0 mm 0.00 in0.0 mm 0.00 in0.0 mm
09:58 PM -20.5°F-29.2°C -24.8°F-31.6°C 80% 1.0 mph WNW1.6 kmh WNW -- 30.55 in1034.5 mb 0.00 in0.0 mm 0.00 in0.0 mm 0.00 in0.0 mm
09:59 PM -20.5°F-29.2°C -24.8°F-31.6°C 80% Calm Calm -- 30.56 in1034.9 mb 0.00 in0.0 mm 0.00 in0.0 mm 0.00 in0.0 mm
10:01 PM -20.7°F-29.3°C -25.0°F-31.7°C 80% 1.0 mph W1.6 kmh W -- 30.56 in1034.9 mb 0.00 in0.0 mm 0.00 in0.0 mm 0.00 in0.0 mm
10:02 PM -20.7°F-29.3°C -25.0°F-31.7°C 80% 3.0 mph NNW4.8 kmh NNW -- 30.56 in1034.9 mb 0.00 in0.0 mm 0.00 in0.0 mm 0.00 in0.0 mm
10:03 PM -20.7°F-29.3°C -25.0°F-31.7°C 80% 1.0 mph NW1.6 kmh NW -- 30.56 in1034.9 mb 0.00 in0.0 mm 0.00 in0.0 mm 0.00 in0.0 mm
10:05 PM -20.7°F-29.3°C -25.0°F-31.7°C 80% 3.0 mph NW4.8 kmh NW -- 30.56 in1034.9 mb 0.00 in0.0 mm 0.00 in0.0 mm 0.00 in0.0 mm
10:06 PM -20.5°F-29.2°C -24.6°F-31.4°C 81% 3.0 mph WNW4.8 kmh WNW -- 30.56 in1034.9 mb 0.00 in0.0 mm 0.00 in0.0 mm 0.00 in0.0 mm
10:07 PM -20.3°F-29.1°C -24.4°F-31.3°C 81% 2.0 mph WNW3.2 kmh WNW -- 30.56 in1034.9 mb 0.00 in0.0 mm 0.00 in0.0 mm 0.00 in0.0 mm
10:08 PM -20.1°F-28.9°C -24.0°F-31.1°C 81% 3.0 mph WNW4.8 kmh WNW -- 30.56 in1034.9 mb 0.00 in0.0 mm 0.00 in0.0 mm 0.00 in0.0 mm
10:09 PM -20.1°F-28.9°C -24.0°F-31.1°C 81% 2.0 mph WNW